Darstellungsparameter: Aktuell verwendete Einstellungen:
Skalierung der Graphiken ... ?
xyx+y,   Skalierungsfaktor:      Skalierung: Modus: x, Faktor: 1
Darstellungszeitraum ... ?
Vom - - bis: - -   Zeitraum: 31.05.2003 - 29.11.2003
Min/Max/Avg-Anzeige ... ?
Zeige MMA aktuell
Zeige MMA Monat
Zeige MMA alles
Zeige --A aktuell
Zeige --A Monat
Zeige --A alles
Keine MMA-Anzeige
MMA:
Keine MMA-Graphiken
MMA-Basis: 31.05.2003 - 29.11.2003
Quicknavigation für Darstellung... ?
Tage:      1T, 2T, 3T, 5T -1T -2T -3T -5T +1T +2T +3T +5T
Wochen: 1W, 2W, 3W -1W -2W -3W +1W +2W +3W
Monate: 1M, 3M, 6M -1M -3M -6M +1M +3M +6M
Jahre:    1J, 3J, 5J, 10J -1J -3J -5J -10J +1J +3J +5J +10J
Nutze für die Darstellung ... ?
Originaldaten oder Mittelwerte auf ...
Stundenbasis Tagesbasis Wochenbasis
Monatsbasis Jahresbasis      Datenbasis: Original-Daten
Darstellen als:
Statistik (Auto) Statistik J:M      Darstellung:
Zur Graphik,    zurück zur Übersicht aller Sensoren.
 
Tabellarische Datenbersicht: ?
 
<
Sensor: Nr:Datum:Temp:Abs-Feuchte:Windchill:Wind:
Aussen-T/F 1 31-05-2003 00:07:00 21 C 12.64 g/m*3 21 C 0 km/h
2 31-05-2003 00:17:00 20.7 C 12.78 g/m*3 20.7 C 0 km/h
3 31-05-2003 00:27:00 20.2 C 12.94 g/m*3 20.2 C 0 km/h
4 31-05-2003 00:37:00 20 C 12.96 g/m*3 20 C 0 km/h
5 31-05-2003 00:47:00 19.9 C 13.06 g/m*3 19.9 C 0 km/h
6 31-05-2003 00:57:00 19.8 C 12.98 g/m*3 19.8 C 0 km/h
7 31-05-2003 01:07:00 19.8 C 12.81 g/m*3 19.8 C 0 km/h
8 31-05-2003 01:17:00 19.7 C 12.74 g/m*3 19.7 C 0 km/h
9 31-05-2003 01:27:00 19.5 C 12.59 g/m*3 19.5 C 0 km/h
10 31-05-2003 01:37:00 19.5 C 12.75 g/m*3 19.5 C 0 km/h
11 31-05-2003 01:47:00 19.3 C 12.61 g/m*3 19.3 C 0 km/h
12 31-05-2003 01:57:00 19.3 C 12.61 g/m*3 19.3 C 0 km/h
13 31-05-2003 02:07:00 19 C 12.39 g/m*3 19 C 0 km/h
14 31-05-2003 02:17:00 18.9 C 12.64 g/m*3 18.9 C 0 km/h
15 31-05-2003 02:27:00 18.9 C 12.64 g/m*3 18.9 C 0 km/h
16 31-05-2003 02:37:00 18.8 C 12.56 g/m*3 18.8 C 0 km/h
17 31-05-2003 02:47:00 18.8 C 12.56 g/m*3 18.8 C 0 km/h
18 31-05-2003 02:57:00 18.5 C 12.5 g/m*3 18.5 C 0 km/h
19 31-05-2003 03:07:00 18.3 C 12.35 g/m*3 18.3 C 0 km/h
20 31-05-2003 03:17:00 18.2 C 12.43 g/m*3 18.2 C 0 km/h
21 31-05-2003 03:27:00 18.2 C 12.43 g/m*3 18.2 C 0 km/h
22 31-05-2003 03:37:00 18 C 12.75 g/m*3 18 C 0 km/h
23 31-05-2003 03:47:00 17.9 C 12.67 g/m*3 17.9 C 0 km/h
24 31-05-2003 03:57:00 17.9 C 12.67 g/m*3 17.9 C 0 km/h
25 31-05-2003 04:07:00 17.7 C 12.52 g/m*3 17.7 C 0 km/h
Sensor: Nr:Datum:Temp:Abs-Feuchte:Windchill:Wind:
Aussen-T/F 26 31-05-2003 04:17:00 17.7 C 12.52 g/m*3 17.7 C 0 km/h
27 31-05-2003 04:27:00 17.6 C 12.6 g/m*3 17.6 C 0 km/h
28 31-05-2003 04:37:00 17.4 C 12.3 g/m*3 17.4 C 0 km/h
29 31-05-2003 04:47:00 17.4 C 12.45 g/m*3 17.4 C 0 km/h
30 31-05-2003 04:57:00 17 C 12.3 g/m*3 17 C 0 km/h
31 31-05-2003 05:07:00 16.9 C 12.37 g/m*3 16.9 C 0 km/h
32 31-05-2003 05:17:00 16.7 C 12.22 g/m*3 16.7 C 0 km/h
33 31-05-2003 05:27:00 16.6 C 12.43 g/m*3 16.6 C 0 km/h
34 31-05-2003 05:37:00 16.6 C 12.57 g/m*3 16.6 C 0 km/h
35 31-05-2003 05:47:00 16.6 C 12.43 g/m*3 16.6 C 0 km/h
36 31-05-2003 05:57:00 16.6 C 12.43 g/m*3 16.6 C 0 km/h
37 31-05-2003 06:07:00 16.6 C 12.43 g/m*3 16.6 C 0 km/h
38 31-05-2003 06:17:00 16.6 C 12.57 g/m*3 16.6 C 0 km/h
39 31-05-2003 06:27:00 17 C 12.73 g/m*3 17 C 0 km/h
40 31-05-2003 06:37:00 17.5 C 12.82 g/m*3 17.5 C 0 km/h
41 31-05-2003 06:47:00 17.6 C 12.6 g/m*3 17.6 C 0 km/h
42 31-05-2003 06:57:00 17.5 C 12.52 g/m*3 17.5 C 0 km/h
43 31-05-2003 07:07:00 16.9 C 12.51 g/m*3 16.9 C 0 km/h
44 31-05-2003 07:17:00 16.8 C 12.58 g/m*3 16.8 C 0 km/h
45 31-05-2003 07:27:00 16.8 C 12.58 g/m*3 16.8 C 0 km/h
46 31-05-2003 07:37:00 17.4 C 12.75 g/m*3 17.4 C 0 km/h
47 31-05-2003 07:47:00 17.6 C 12.75 g/m*3 17.6 C 0 km/h
48 31-05-2003 07:57:00 17.3 C 12.52 g/m*3 17.3 C 0 km/h
49 31-05-2003 08:07:00 17.6 C 12.6 g/m*3 17.6 C 0 km/h
50 31-05-2003 08:17:00 18.2 C 12.75 g/m*3 18.2 C 0 km/h
Sensor: Nr:Datum:Temp:Abs-Feuchte:Windchill:Wind:
Aussen-T/F 51 31-05-2003 08:27:00 18.9 C 12.96 g/m*3 18.9 C 0 km/h
52 31-05-2003 08:37:00 19.3 C 12.77 g/m*3 19.3 C 0 km/h
53 31-05-2003 08:47:00 20 C 12.79 g/m*3 20 C 0 km/h
54 31-05-2003 08:57:00 19.3 C 12.61 g/m*3 19.3 C 0 km/h
55 31-05-2003 09:07:00 19.3 C 12.94 g/m*3 19.3 C 0 km/h
56 31-05-2003 09:17:00 19.5 C 13.09 g/m*3 19.5 C 0 km/h
57 31-05-2003 09:27:00 20 C 13.13 g/m*3 20 C 0 km/h
58 31-05-2003 09:37:00 20.7 C 13.14 g/m*3 20.7 C 0 km/h
59 31-05-2003 09:47:00 21.4 C 13.31 g/m*3 21.4 C 0 km/h
60 31-05-2003 09:57:00 22.1 C 13.47 g/m*3 22.1 C 0 km/h
61 31-05-2003 10:07:01 22.7 C 13.33 g/m*3 22.7 C 0 km/h
62 31-05-2003 10:17:01 23.3 C 13.59 g/m*3 23.3 C 0 km/h
63 31-05-2003 10:27:01 23.8 C 13.77 g/m*3 23.8 C 0 km/h
64 31-05-2003 10:37:02 24.1 C 13.57 g/m*3 24.1 C 0 km/h
65 31-05-2003 10:47:02 24.8 C 13.88 g/m*3 24.8 C 0 km/h
66 31-05-2003 10:57:02 25.3 C 13.58 g/m*3 25.3 C 0 km/h
67 31-05-2003 11:07:03 25.8 C 13.72 g/m*3 25.8 C 0 km/h
68 31-05-2003 11:17:03 26 C 13.39 g/m*3 26 C 0 km/h
69 31-05-2003 11:27:03 26.5 C 13.77 g/m*3 26.5 C 0 km/h
70 31-05-2003 11:37:02 25.9 C 13.56 g/m*3 25.9 C 0 km/h
71 31-05-2003 11:47:02 26.1 C 13.22 g/m*3 26.1 C 0 km/h
72 31-05-2003 11:57:02 27.1 C 13.2 g/m*3 27.1 C 0 km/h
73 31-05-2003 12:07:01 26.8 C 12.98 g/m*3 26.8 C 0 km/h
74 31-05-2003 12:17:01 28.1 C 12.85 g/m*3 28.1 C 0 km/h
75 31-05-2003 12:27:01 26.5 C 13.27 g/m*3 26.5 C 0 km/h
Sensor: Nr:Datum:Temp:Abs-Feuchte:Windchill:Wind:
Aussen-T/F 76 31-05-2003 12:37:01 25.6 C 13.09 g/m*3 25.6 C 0 km/h
77 31-05-2003 12:47:01 25.2 C 13.5 g/m*3 25.2 C 0 km/h
78 31-05-2003 12:57:01 25.7 C 14.13 g/m*3 25.7 C 0 km/h
79 31-05-2003 13:07:00 27.9 C 12.98 g/m*3 27.9 C 0 km/h
80 31-05-2003 13:17:00 29.2 C 12.2 g/m*3 29.2 C 0 km/h
81 31-05-2003 13:27:00 30.2 C 11.96 g/m*3 30.2 C 0 km/h
82 31-05-2003 13:37:00 30.2 C 12.57 g/m*3 30.2 C 0 km/h
83 31-05-2003 13:47:00 29.7 C 12.53 g/m*3 29.7 C 0 km/h
84 31-05-2003 13:57:00 27.1 C 11.9 g/m*3 27.1 C 0 km/h
85 31-05-2003 14:07:01 26.7 C 12.4 g/m*3 26.7 C 0 km/h
86 31-05-2003 14:17:01 26.6 C 13.09 g/m*3 26.6 C 0 km/h
87 31-05-2003 14:27:01 26.7 C 12.4 g/m*3 26.7 C 0 km/h
88 31-05-2003 14:37:01 27.7 C 13.64 g/m*3 27.7 C 0 km/h
89 31-05-2003 14:47:01 29.8 C 12.6 g/m*3 29.8 C 0 km/h
90 31-05-2003 14:57:01 28.7 C 12.15 g/m*3 28.7 C 0 km/h
91 31-05-2003 15:07:01 28 C 12.24 g/m*3 28 C 0 km/h
92 31-05-2003 15:17:01 27.5 C 12.7 g/m*3 27.5 C 0 km/h
93 31-05-2003 15:27:01 27.2 C 12.75 g/m*3 27.2 C 0 km/h
94 31-05-2003 15:37:01 27.2 C 13.01 g/m*3 27.2 C 0 km/h
95 31-05-2003 15:47:01 27.2 C 13.79 g/m*3 27.2 C 0 km/h
96 31-05-2003 15:57:01 27 C 13.64 g/m*3 27 C 0 km/h
97 31-05-2003 16:07:01 25.9 C 13.07 g/m*3 25.9 C 0 km/h
98 31-05-2003 16:17:01 25.2 C 12.57 g/m*3 25.2 C 0 km/h
99 31-05-2003 16:27:01 24.7 C 12.22 g/m*3 24.7 C 0 km/h
100 31-05-2003 16:37:01 24.7 C 12.22 g/m*3 24.7 C 0 km/h
Sensor: Nr:Datum:Temp:Abs-Feuchte:Windchill:Wind:
Aussen-T/F 101 31-05-2003 16:47:01 25.1 C 12.04 g/m*3 25.1 C 0 km/h
102 31-05-2003 16:57:01 26.2 C 12.31 g/m*3 26.2 C 0 km/h
103 31-05-2003 17:07:01 26.9 C 12.29 g/m*3 26.9 C 0 km/h
104 31-05-2003 17:17:01 26.7 C 12.4 g/m*3 26.7 C 0 km/h
105 31-05-2003 17:27:01 26.6 C 12.08 g/m*3 26.6 C 0 km/h
106 31-05-2003 17:37:01 26.2 C 12.31 g/m*3 26.2 C 0 km/h
107 31-05-2003 17:47:01 25.8 C 12.52 g/m*3 25.8 C 0 km/h
108 31-05-2003 17:57:01 25.8 C 12.28 g/m*3 25.8 C 0 km/h
109 31-05-2003 18:07:02 25.5 C 12.31 g/m*3 25.5 C 0 km/h
110 31-05-2003 18:17:02 23.5 C 12.69 g/m*3 23.5 C 0 km/h
111 31-05-2003 18:27:02 22.2 C 14.33 g/m*3 22.2 C 0 km/h
112 31-05-2003 18:37:02 21.2 C 15.01 g/m*3 21.2 C 0 km/h
113 31-05-2003 18:47:02 19.8 C 14.35 g/m*3 19.8 C 0 km/h
114 31-05-2003 18:57:02 19.6 C 14.86 g/m*3 19.6 C 0 km/h
115 31-05-2003 19:07:02 19.7 C 14.94 g/m*3 19.7 C 0 km/h
116 31-05-2003 19:17:02 19.7 C 14.77 g/m*3 19.7 C 0 km/h
117 31-05-2003 19:27:02 19.5 C 14.6 g/m*3 19.5 C 0 km/h
118 31-05-2003 19:37:00 19.7 C 14.77 g/m*3 19.7 C 0 km/h
119 31-05-2003 19:47:00 19.5 C 13.93 g/m*3 19.5 C 0 km/h
120 31-05-2003 19:57:00 19.6 C 14.18 g/m*3 19.6 C 0 km/h
121 31-05-2003 20:07:03 20.1 C 14.43 g/m*3 20.1 C 0 km/h
122 31-05-2003 20:17:03 20.6 C 14.32 g/m*3 20.6 C 0 km/h
123 31-05-2003 20:27:03 21 C 14.29 g/m*3 21 C 0 km/h
124 31-05-2003 20:37:02 21.1 C 13.82 g/m*3 21.1 C 0 km/h
125 31-05-2003 20:47:02 20.9 C 13.84 g/m*3 20.9 C 0 km/h
Sensor: Nr:Datum:Temp:Abs-Feuchte:Windchill:Wind:
Aussen-T/F 126 31-05-2003 20:57:02 20.7 C 14.04 g/m*3 20.7 C 0 km/h
127 31-05-2003 21:07:01 20.4 C 13.8 g/m*3 20.4 C 0 km/h
128 31-05-2003 21:17:01 19.9 C 13.4 g/m*3 19.9 C 0 km/h
129 31-05-2003 21:27:01 19.7 C 13.25 g/m*3 19.7 C 0 km/h
130 31-05-2003 21:37:02 19.5 C 13.43 g/m*3 19.5 C 0 km/h
131 31-05-2003 21:47:02 19.4 C 13.51 g/m*3 19.4 C 0 km/h
132 31-05-2003 21:57:02 19.1 C 13.28 g/m*3 19.1 C 0 km/h
133 31-05-2003 22:08:01 18.8 C 13.37 g/m*3 18.8 C 0 km/h
134 31-05-2003 22:18:01 18.6 C 13.37 g/m*3 18.6 C 0 km/h
135 31-05-2003 22:28:01 18.3 C 13.29 g/m*3 18.3 C 0 km/h
136 31-05-2003 22:38:01 18.3 C 13.29 g/m*3 18.3 C 0 km/h
137 31-05-2003 22:58:01 18.1 C 13.13 g/m*3 18.1 C 0 km/h
138 31-05-2003 23:08:01 18.1 C 13.29 g/m*3 18.1 C 0 km/h
139 31-05-2003 23:18:01 17.9 C 13.28 g/m*3 17.9 C 0 km/h
140 31-05-2003 23:28:01 17.8 C 13.2 g/m*3 17.8 C 0 km/h
141 31-05-2003 23:38:01 17.9 C 13.28 g/m*3 17.9 C 0 km/h
142 31-05-2003 23:48:01 17.7 C 13.13 g/m*3 17.7 C 0 km/h
143 31-05-2003 23:58:01 17.6 C 12.9 g/m*3 17.6 C 0 km/h
144 01-06-2003 00:08:01 17.6 C 13.05 g/m*3 17.6 C 0 km/h
145 01-06-2003 00:18:01 17.7 C 13.13 g/m*3 17.7 C 0 km/h
146 01-06-2003 00:28:01 17.6 C 13.05 g/m*3 17.6 C 0 km/h
147 01-06-2003 00:38:01 17.4 C 12.89 g/m*3 17.4 C 0 km/h
148 01-06-2003 00:48:01 17.2 C 12.74 g/m*3 17.2 C 0 km/h
149 01-06-2003 00:58:01 17.3 C 12.82 g/m*3 17.3 C 0 km/h
150 01-06-2003 01:08:01 17.1 C 12.66 g/m*3 17.1 C 0 km/h
Sensor: Nr:Datum:Temp:Abs-Feuchte:Windchill:Wind:
Aussen-T/F 151 01-06-2003 01:18:01 17 C 12.59 g/m*3 17 C 0 km/h
152 01-06-2003 01:28:01 17 C 12.59 g/m*3 17 C 0 km/h
153 01-06-2003 01:38:01 16.9 C 12.66 g/m*3 16.9 C 0 km/h
154 01-06-2003 01:48:01 16.9 C 12.66 g/m*3 16.9 C 0 km/h
155 01-06-2003 01:58:01 16.9 C 12.66 g/m*3 16.9 C 0 km/h
156 01-06-2003 02:08:01 17.1 C 12.66 g/m*3 17.1 C 0 km/h
157 01-06-2003 02:18:01 17.4 C 12.75 g/m*3 17.4 C 0 km/h
158 01-06-2003 02:28:01 17.5 C 12.82 g/m*3 17.5 C 0 km/h
159 01-06-2003 02:38:01 17.5 C 12.82 g/m*3 17.5 C 0 km/h
160 01-06-2003 02:48:01 17.6 C 12.9 g/m*3 17.6 C 0 km/h
161 01-06-2003 02:58:01 17.5 C 12.82 g/m*3 17.5 C 0 km/h
162 01-06-2003 03:08:01 17.4 C 12.89 g/m*3 17.4 C 0 km/h
163 01-06-2003 03:18:01 17.4 C 12.89 g/m*3 17.4 C 0 km/h
164 01-06-2003 03:28:01 17.5 C 12.97 g/m*3 17.5 C 0 km/h
165 01-06-2003 03:38:01 17.2 C 12.74 g/m*3 17.2 C 0 km/h
166 01-06-2003 03:48:01 17.2 C 12.74 g/m*3 17.2 C 0 km/h
167 01-06-2003 03:58:01 17.2 C 12.74 g/m*3 17.2 C 0 km/h
168 01-06-2003 04:08:01 17.2 C 12.74 g/m*3 17.2 C 0 km/h
169 01-06-2003 04:18:01 17.2 C 12.74 g/m*3 17.2 C 0 km/h
170 01-06-2003 04:28:01 17.2 C 12.74 g/m*3 17.2 C 0 km/h
171 01-06-2003 04:38:01 17.1 C 12.66 g/m*3 17.1 C 0 km/h
172 01-06-2003 04:48:01 16.7 C 12.51 g/m*3 16.7 C 0 km/h
173 01-06-2003 04:58:01 16.7 C 12.65 g/m*3 16.7 C 0 km/h
174 01-06-2003 05:08:01 16.8 C 12.72 g/m*3 16.8 C 0 km/h
175 01-06-2003 05:18:01 16.8 C 12.72 g/m*3 16.8 C 0 km/h
Sensor: Nr:Datum:Temp:Abs-Feuchte:Windchill:Wind:
Aussen-T/F 176 01-06-2003 05:28:01 16.6 C 12.43 g/m*3 16.6 C 0 km/h
177 01-06-2003 05:38:01 16.7 C 12.65 g/m*3 16.7 C 0 km/h
178 01-06-2003 05:48:01 16.9 C 12.66 g/m*3 16.9 C 0 km/h
179 01-06-2003 05:58:01 17 C 12.59 g/m*3 17 C 0 km/h
180 01-06-2003 06:08:01 16.9 C 12.66 g/m*3 16.9 C 0 km/h
181 01-06-2003 06:18:01 17 C 12.59 g/m*3 17 C 0 km/h
182 01-06-2003 06:28:01 16.9 C 12.66 g/m*3 16.9 C 0 km/h
183 01-06-2003 06:38:01 17.2 C 12.59 g/m*3 17.2 C 0 km/h
184 01-06-2003 06:48:01 17.3 C 12.52 g/m*3 17.3 C 0 km/h
185 01-06-2003 06:58:01 17.3 C 12.37 g/m*3 17.3 C 0 km/h
186 01-06-2003 07:08:01 17.2 C 12.15 g/m*3 17.2 C 0 km/h
187 01-06-2003 07:18:01 17.7 C 12.22 g/m*3 17.7 C 0 km/h
188 01-06-2003 07:28:01 18 C 12.29 g/m*3 18 C 0 km/h
189 01-06-2003 07:38:01 18 C 12.13 g/m*3 18 C 0 km/h
190 01-06-2003 07:48:01 18.3 C 12.66 g/m*3 18.3 C 0 km/h
191 01-06-2003 07:58:01 18.3 C 12.35 g/m*3 18.3 C 0 km/h
192 01-06-2003 08:08:01 18.3 C 12.2 g/m*3 18.3 C 0 km/h
193 01-06-2003 08:18:01 18.5 C 12.34 g/m*3 18.5 C 0 km/h
194 01-06-2003 08:28:01 18.7 C 12.33 g/m*3 18.7 C 0 km/h
195 01-06-2003 08:38:01 19 C 12.22 g/m*3 19 C 0 km/h
196 01-06-2003 08:48:01 19.2 C 12.37 g/m*3 19.2 C 0 km/h
197 01-06-2003 08:58:01 19.3 C 12.11 g/m*3 19.3 C 0 km/h
198 01-06-2003 09:08:00 19.9 C 12.54 g/m*3 19.9 C 0 km/h
199 01-06-2003 09:18:00 19.9 C 12.37 g/m*3 19.9 C 0 km/h
200 01-06-2003 09:28:00 20.7 C 12.78 g/m*3 20.7 C 0 km/h
Sensor: Nr:Datum:Temp:Abs-Feuchte:Windchill:Wind:
Aussen-T/F 201 01-06-2003 09:38:00 21.3 C 12.68 g/m*3 21.3 C 0 km/h
202 01-06-2003 09:48:00 21.4 C 12.56 g/m*3 21.4 C 0 km/h
203 01-06-2003 09:58:00 21.7 C 12.78 g/m*3 21.7 C 0 km/h
204 01-06-2003 10:08:01 22 C 12.81 g/m*3 22 C 0 km/h
205 01-06-2003 10:18:01 22.1 C 12.69 g/m*3 22.1 C 0 km/h
206 01-06-2003 10:28:01 22.4 C 12.51 g/m*3 22.4 C 0 km/h
207 01-06-2003 10:38:01 22.7 C 13.13 g/m*3 22.7 C 0 km/h
208 01-06-2003 10:48:01 22.2 C 12.57 g/m*3 22.2 C 0 km/h
209 01-06-2003 10:58:01 22.6 C 12.86 g/m*3 22.6 C 0 km/h
210 01-06-2003 11:08:01 23.2 C 13.1 g/m*3 23.2 C 0 km/h
211 01-06-2003 11:18:01 23.7 C 13.69 g/m*3 23.7 C 0 km/h
212 01-06-2003 11:28:01 24.1 C 13.57 g/m*3 24.1 C 0 km/h
213 01-06-2003 11:38:02 24.8 C 13.43 g/m*3 24.8 C 0 km/h
214 01-06-2003 11:48:02 25.3 C 13.81 g/m*3 25.3 C 0 km/h
215 01-06-2003 11:58:02 25.9 C 13.56 g/m*3 25.9 C 0 km/h
216 01-06-2003 12:08:01 26.9 C 13.56 g/m*3 26.9 C 0 km/h
217 01-06-2003 12:18:01 27 C 12.87 g/m*3 27 C 0 km/h
218 01-06-2003 12:28:01 27.5 C 13.23 g/m*3 27.5 C 0 km/h
219 01-06-2003 12:38:00 27.7 C 13.37 g/m*3 27.7 C 0 km/h
220 01-06-2003 12:48:00 28.1 C 12.85 g/m*3 28.1 C 0 km/h
221 01-06-2003 12:58:00 28.4 C 12.79 g/m*3 28.4 C 0 km/h
222 01-06-2003 13:08:00 29.1 C 12.71 g/m*3 29.1 C 0 km/h
223 01-06-2003 13:18:00 27.7 C 12.57 g/m*3 27.7 C 0 km/h
224 01-06-2003 13:28:00 28.9 C 12.57 g/m*3 28.9 C 0 km/h
225 01-06-2003 13:38:01 29.8 C 12.9 g/m*3 29.8 C 0 km/h
Sensor: Nr:Datum:Temp:Abs-Feuchte:Windchill:Wind:
Aussen-T/F 226 01-06-2003 13:48:01 30.1 C 11.89 g/m*3 30.1 C 0 km/h
227 01-06-2003 13:58:01 30.1 C 11.89 g/m*3 30.1 C 0 km/h
228 01-06-2003 14:08:02 29.9 C 12.37 g/m*3 29.9 C 0 km/h
229 01-06-2003 14:18:02 29.1 C 11.84 g/m*3 29.1 C 0 km/h
230 01-06-2003 14:28:02 28.9 C 12.28 g/m*3 28.9 C 0 km/h
231 01-06-2003 14:38:01 29.2 C 11.91 g/m*3 29.2 C 0 km/h
232 01-06-2003 14:48:01 29.8 C 12.6 g/m*3 29.8 C 0 km/h
233 01-06-2003 14:58:01 30.6 C 11.9 g/m*3 30.6 C 0 km/h
234 01-06-2003 15:08:01 30.8 C 12.35 g/m*3 30.8 C 0 km/h
235 01-06-2003 15:18:01 30.6 C 11.28 g/m*3 30.6 C 0 km/h
236 01-06-2003 15:28:01 30.4 C 11.47 g/m*3 30.4 C 0 km/h
237 01-06-2003 15:38:36 30.7 C 12.28 g/m*3 30.7 C 0 km/h
238 01-06-2003 15:48:36 31.2 C 11.97 g/m*3 31.2 C 0 km/h
239 01-06-2003 15:58:36 30.8 C 12.03 g/m*3 30.8 C 0 km/h
240 01-06-2003 16:08:01 30.6 C 11.9 g/m*3 30.6 C 0 km/h
241 01-06-2003 16:18:01 30.7 C 12.6 g/m*3 30.7 C 0 km/h
242 01-06-2003 16:28:01 30.5 C 13.08 g/m*3 30.5 C 0 km/h
243 01-06-2003 16:38:01 30.7 C 13.23 g/m*3 30.7 C 0 km/h
244 01-06-2003 16:48:01 30.8 C 12.66 g/m*3 30.8 C 0 km/h
245 01-06-2003 16:58:01 30.9 C 13.37 g/m*3 30.9 C 0 km/h
246 01-06-2003 17:08:01 30.6 C 12.84 g/m*3 30.6 C 0 km/h
247 01-06-2003 17:18:01 30.6 C 12.84 g/m*3 30.6 C 0 km/h
248 01-06-2003 17:28:01 30.8 C 12.35 g/m*3 30.8 C 0 km/h
249 01-06-2003 17:38:00 31.1 C 12.55 g/m*3 31.1 C 0 km/h
250 01-06-2003 17:48:00 31.1 C 11.9 g/m*3 31.1 C 0 km/h
Sensor: Nr:Datum:Temp:Abs-Feuchte:Windchill:Wind:
Aussen-T/F 251 01-06-2003 17:58:00 31.2 C 11.97 g/m*3 31.2 C 0 km/h
252 01-06-2003 18:18:01 31.3 C 11.71 g/m*3 31.3 C 0 km/h
253 01-06-2003 18:28:01 31.2 C 10.67 g/m*3 31.2 C 0 km/h
254 01-06-2003 18:38:00 31.3 C 11.06 g/m*3 31.3 C 0 km/h
255 01-06-2003 18:48:00 31.2 C 11.32 g/m*3 31.2 C 0 km/h
256 01-06-2003 18:58:00 31.2 C 11.32 g/m*3 31.2 C 0 km/h
257 01-06-2003 19:08:00 31.2 C 11 g/m*3 31.2 C 0 km/h
258 01-06-2003 19:18:00 31 C 11.2 g/m*3 31 C 0 km/h
259 01-06-2003 19:28:00 30.9 C 11.78 g/m*3 30.9 C 0 km/h
260 01-06-2003 19:38:02 30.7 C 11.02 g/m*3 30.7 C 0 km/h
261 01-06-2003 19:48:02 30.6 C 11.9 g/m*3 30.6 C 0 km/h
262 01-06-2003 19:58:02 30.3 C 11.71 g/m*3 30.3 C 0 km/h
263 01-06-2003 20:08:01 30.1 C 12.5 g/m*3 30.1 C 0 km/h
264 01-06-2003 20:18:01 29.5 C 12.69 g/m*3 29.5 C 0 km/h
265 01-06-2003 20:28:01 29 C 12.35 g/m*3 29 C 0 km/h
266 01-06-2003 20:38:01 28 C 12.24 g/m*3 28 C 0 km/h
267 01-06-2003 20:48:01 27.3 C 12.3 g/m*3 27.3 C 0 km/h
268 01-06-2003 20:58:01 25.8 C 12.28 g/m*3 25.8 C 0 km/h
269 01-06-2003 21:08:01 25.1 C 12.04 g/m*3 25.1 C 0 km/h
270 01-06-2003 21:18:01 24.5 C 11.86 g/m*3 24.5 C 0 km/h
271 01-06-2003 21:28:01 24.1 C 12.25 g/m*3 24.1 C 0 km/h
272 01-06-2003 21:39:01 23.8 C 12.26 g/m*3 23.8 C 0 km/h
273 01-06-2003 21:49:01 23.5 C 12.27 g/m*3 23.5 C 0 km/h
274 01-06-2003 21:59:01 23.2 C 12.47 g/m*3 23.2 C 0 km/h
275 01-06-2003 22:09:01 23.2 C 12.27 g/m*3 23.2 C 0 km/h
Sensor: Nr:Datum:Temp:Abs-Feuchte:Windchill:Wind:
Aussen-T/F 276 01-06-2003 22:19:01 22.9 C 12.47 g/m*3 22.9 C 0 km/h
277 01-06-2003 22:29:01 22.8 C 12.6 g/m*3 22.8 C 0 km/h
278 01-06-2003 22:39:01 22.6 C 12.46 g/m*3 22.6 C 0 km/h
279 01-06-2003 22:49:01 22.3 C 12.44 g/m*3 22.3 C 0 km/h
280 01-06-2003 22:59:01 22.1 C 12.3 g/m*3 22.1 C 0 km/h
281 01-06-2003 23:09:01 22 C 12.42 g/m*3 22 C 0 km/h
282 01-06-2003 23:19:01 21.7 C 12.4 g/m*3 21.7 C 0 km/h
283 01-06-2003 23:29:01 21.6 C 12.52 g/m*3 21.6 C 0 km/h
284 01-06-2003 23:39:01 21.3 C 12.49 g/m*3 21.3 C 0 km/h
285 01-06-2003 23:49:01 21.1 C 12.34 g/m*3 21.1 C 0 km/h
286 01-06-2003 23:59:01 21 C 12.46 g/m*3 21 C 0 km/h
287 02-06-2003 00:09:01 20.8 C 12.49 g/m*3 20.8 C 0 km/h
288 02-06-2003 00:19:01 20.5 C 12.46 g/m*3 20.5 C 0 km/h
289 02-06-2003 00:29:01 20.4 C 12.38 g/m*3 20.4 C 0 km/h
290 02-06-2003 00:39:01 20.2 C 12.24 g/m*3 20.2 C 0 km/h
291 02-06-2003 00:49:01 20 C 12.27 g/m*3 20 C 0 km/h
292 02-06-2003 00:59:01 19.8 C 12.3 g/m*3 19.8 C 0 km/h
293 02-06-2003 01:09:01 19.7 C 12.4 g/m*3 19.7 C 0 km/h
294 02-06-2003 01:19:01 19.6 C 12.32 g/m*3 19.6 C 0 km/h
295 02-06-2003 01:29:01 19.4 C 12.18 g/m*3 19.4 C 0 km/h
296 02-06-2003 01:39:01 19.3 C 12.27 g/m*3 19.3 C 0 km/h
297 02-06-2003 01:49:01 19.1 C 11.97 g/m*3 19.1 C 0 km/h
298 02-06-2003 01:59:01 18.9 C 11.99 g/m*3 18.9 C 0 km/h
299 02-06-2003 02:09:01 18.9 C 11.99 g/m*3 18.9 C 0 km/h
300 02-06-2003 02:19:01 19.1 C 11.97 g/m*3 19.1 C 0 km/h
Sensor: Nr:Datum:Temp:Abs-Feuchte:Windchill:Wind:
Aussen-T/F 301 02-06-2003 02:29:01 18.7 C 12.01 g/m*3 18.7 C 0 km/h
302 02-06-2003 02:39:01 18.5 C 12.02 g/m*3 18.5 C 0 km/h
303 02-06-2003 02:49:01 18.5 C 12.18 g/m*3 18.5 C 0 km/h
304 02-06-2003 02:59:01 18.2 C 12.12 g/m*3 18.2 C 0 km/h
305 02-06-2003 03:09:01 18.1 C 11.9 g/m*3 18.1 C 0 km/h
306 02-06-2003 03:19:01 17.8 C 11.99 g/m*3 17.8 C 0 km/h
307 02-06-2003 03:29:01 17.8 C 11.99 g/m*3 17.8 C 0 km/h
308 02-06-2003 03:39:01 17.8 C 11.99 g/m*3 17.8 C 0 km/h
309 02-06-2003 03:49:01 17.7 C 11.92 g/m*3 17.7 C 0 km/h
310 02-06-2003 03:59:01 17.7 C 12.07 g/m*3 17.7 C 0 km/h
311 02-06-2003 04:09:01 17.5 C 11.93 g/m*3 17.5 C 0 km/h
312 02-06-2003 04:19:01 17.4 C 12 g/m*3 17.4 C 0 km/h
313 02-06-2003 04:29:01 17.5 C 11.93 g/m*3 17.5 C 0 km/h
314 02-06-2003 04:39:01 17.3 C 11.93 g/m*3 17.3 C 0 km/h
315 02-06-2003 04:49:01 17.4 C 12 g/m*3 17.4 C 0 km/h
316 02-06-2003 04:59:01 17.2 C 11.86 g/m*3 17.2 C 0 km/h
317 02-06-2003 05:09:01 17 C 11.72 g/m*3 17 C 0 km/h
318 02-06-2003 05:19:01 17 C 11.87 g/m*3 17 C 0 km/h
319 02-06-2003 05:29:01 16.8 C 11.72 g/m*3 16.8 C 0 km/h
320 02-06-2003 05:39:01 16.7 C 11.8 g/m*3 16.7 C 0 km/h
321 02-06-2003 05:49:01 16.6 C 11.72 g/m*3 16.6 C 0 km/h
322 02-06-2003 05:59:01 16.7 C 11.8 g/m*3 16.7 C 0 km/h
323 02-06-2003 06:09:01 16.7 C 11.8 g/m*3 16.7 C 0 km/h
324 02-06-2003 06:19:01 16.7 C 11.8 g/m*3 16.7 C 0 km/h
325 02-06-2003 06:29:01 16.8 C 11.87 g/m*3 16.8 C 0 km/h
Sensor: Nr:Datum:Temp:Abs-Feuchte:Windchill:Wind:
Aussen-T/F 326 02-06-2003 06:39:01 17 C 11.87 g/m*3 17 C 0 km/h
327 02-06-2003 06:49:01 17 C 11.87 g/m*3 17 C 0 km/h
328 02-06-2003 06:59:01 17.1 C 11.94 g/m*3 17.1 C 0 km/h
329 02-06-2003 07:09:01 17.4 C 12.15 g/m*3 17.4 C 0 km/h
330 02-06-2003 07:19:01 17.7 C 12.07 g/m*3 17.7 C 0 km/h
331 02-06-2003 07:29:01 17.9 C 12.21 g/m*3 17.9 C 0 km/h
332 02-06-2003 07:39:01 18 C 11.98 g/m*3 18 C 0 km/h
333 02-06-2003 07:49:01 18.1 C 12.21 g/m*3 18.1 C 0 km/h
334 02-06-2003 07:59:01 18.4 C 11.95 g/m*3 18.4 C 0 km/h
335 02-06-2003 08:09:01 18.5 C 12.18 g/m*3 18.5 C 0 km/h
336 02-06-2003 08:19:01 18.7 C 12.33 g/m*3 18.7 C 0 km/h
337 02-06-2003 08:29:01 19.1 C 12.29 g/m*3 19.1 C 0 km/h
338 02-06-2003 08:39:01 19.5 C 12.42 g/m*3 19.5 C 0 km/h
339 02-06-2003 08:49:01 20 C 12.44 g/m*3 20 C 0 km/h
340 02-06-2003 08:59:01 20.4 C 12.74 g/m*3 20.4 C 0 km/h
341 02-06-2003 09:09:01 20.8 C 12.67 g/m*3 20.8 C 0 km/h
342 02-06-2003 09:19:01 21.5 C 13.01 g/m*3 21.5 C 0 km/h
343 02-06-2003 09:29:01 22.2 C 12.76 g/m*3 22.2 C 0 km/h
344 02-06-2003 09:39:01 23 C 12.95 g/m*3 23 C 0 km/h
345 02-06-2003 09:49:01 23.5 C 13.32 g/m*3 23.5 C 0 km/h
346 02-06-2003 09:59:01 24 C 12.84 g/m*3 24 C 0 km/h
347 02-06-2003 10:09:01 24.7 C 12.45 g/m*3 24.7 C 0 km/h
348 02-06-2003 10:19:01 25.2 C 12.8 g/m*3 25.2 C 0 km/h
349 02-06-2003 10:29:01 25.4 C 13.18 g/m*3 25.4 C 0 km/h
350 02-06-2003 10:39:02 26 C 12.66 g/m*3 26 C 0 km/h
Sensor: Nr:Datum:Temp:Abs-Feuchte:Windchill:Wind:
Aussen-T/F 351 02-06-2003 10:49:02 26.4 C 12.2 g/m*3 26.4 C 0 km/h
352 02-06-2003 10:59:02 26.7 C 12.15 g/m*3 26.7 C 0 km/h
353 02-06-2003 11:09:01 26.9 C 12.8 g/m*3 26.9 C 0 km/h
354 02-06-2003 11:19:01 27.1 C 12.42 g/m*3 27.1 C 0 km/h
355 02-06-2003 11:29:01 27.3 C 12.56 g/m*3 27.3 C 0 km/h
356 02-06-2003 11:39:03 27.3 C 12.3 g/m*3 27.3 C 0 km/h
357 02-06-2003 11:49:03 28.8 C 12.22 g/m*3 28.8 C 0 km/h
358 02-06-2003 11:59:03 27.9 C 11.9 g/m*3 27.9 C 0 km/h
359 02-06-2003 12:09:02 27.8 C 12.37 g/m*3 27.8 C 0 km/h
360 02-06-2003 12:19:02 27.4 C 12.63 g/m*3 27.4 C 0 km/h
361 02-06-2003 12:29:02 27.9 C 12.98 g/m*3 27.9 C 0 km/h
362 02-06-2003 12:39:00 27.6 C 13.3 g/m*3 27.6 C 0 km/h
363 02-06-2003 12:49:00 28 C 11.69 g/m*3 28 C 0 km/h
364 02-06-2003 12:59:00 27.9 C 12.44 g/m*3 27.9 C 0 km/h
365 02-06-2003 13:09:00 28.7 C 12.15 g/m*3 28.7 C 0 km/h
366 02-06-2003 13:19:00 29.5 C 11.22 g/m*3 29.5 C 0 km/h
367 02-06-2003 13:29:00 29.6 C 10.98 g/m*3 29.6 C 0 km/h
368 02-06-2003 13:39:01 29.1 C 10.97 g/m*3 29.1 C 0 km/h
369 02-06-2003 13:49:01 29.2 C 10.74 g/m*3 29.2 C 0 km/h
370 02-06-2003 13:59:01 29.1 C 11.26 g/m*3 29.1 C 0 km/h
371 02-06-2003 14:09:01 28.4 C 11.67 g/m*3 28.4 C 0 km/h
372 02-06-2003 14:19:01 29.1 C 11.55 g/m*3 29.1 C 0 km/h
373 02-06-2003 14:29:01 29.6 C 11.57 g/m*3 29.6 C 0 km/h
374 02-06-2003 14:39:01 29.5 C 11.81 g/m*3 29.5 C 0 km/h
375 02-06-2003 14:49:01 29.5 C 11.22 g/m*3 29.5 C 0 km/h
Sensor: Nr:Datum:Temp:Abs-Feuchte:Windchill:Wind:
Aussen-T/F 376 02-06-2003 14:59:01 30 C 11.22 g/m*3 30 C 0 km/h
377 02-06-2003 15:09:02 29.9 C 10.86 g/m*3 29.9 C 0 km/h
378 02-06-2003 15:19:02 30.2 C 10.73 g/m*3 30.2 C 0 km/h
379 02-06-2003 15:29:02 30 C 10.61 g/m*3 30 C 0 km/h
380 02-06-2003 15:39:01 30.3 C 10.79 g/m*3 30.3 C 0 km/h
381 02-06-2003 15:49:01 30.4 C 10.54 g/m*3 30.4 C 0 km/h
382 02-06-2003 15:59:01 30.5 C 10.59 g/m*3 30.5 C 0 km/h
383 02-06-2003 16:09:01 30.4 C 10.54 g/m*3 30.4 C 0 km/h
384 02-06-2003 16:19:01 30.5 C 10.59 g/m*3 30.5 C 0 km/h
385 02-06-2003 16:29:01 30.6 C 10.02 g/m*3 30.6 C 0 km/h
386 02-06-2003 16:39:01 30.4 C 10.54 g/m*3 30.4 C 0 km/h
387 02-06-2003 16:49:01 30.1 C 10.67 g/m*3 30.1 C 0 km/h
388 02-06-2003 16:59:01 30.4 C 10.85 g/m*3 30.4 C 0 km/h
389 02-06-2003 17:09:00 30.4 C 11.16 g/m*3 30.4 C 0 km/h
390 02-06-2003 17:19:00 30.5 C 11.53 g/m*3 30.5 C 0 km/h
391 02-06-2003 17:39:01 28.3 C 11.61 g/m*3 28.3 C 0 km/h
392 02-06-2003 17:49:01 28.3 C 11.61 g/m*3 28.3 C 0 km/h
393 02-06-2003 17:59:01 28.7 C 11.59 g/m*3 28.7 C 0 km/h
394 02-06-2003 18:09:02 29.3 C 10.51 g/m*3 29.3 C 0 km/h
395 02-06-2003 18:19:02 29.3 C 10.8 g/m*3 29.3 C 0 km/h
396 02-06-2003 18:29:02 28.9 C 11.14 g/m*3 28.9 C 0 km/h
397 02-06-2003 18:39:01 28.2 C 11.55 g/m*3 28.2 C 0 km/h
398 02-06-2003 18:49:01 28.1 C 11.76 g/m*3 28.1 C 0 km/h
399 02-06-2003 18:59:01 27.4 C 11.84 g/m*3 27.4 C 0 km/h
400 02-06-2003 19:09:02 27.1 C 11.65 g/m*3 27.1 C 0 km/h
Sensor: Nr:Datum:Temp:Abs-Feuchte:Windchill:Wind:
Aussen-T/F 401 02-06-2003 19:19:02 27 C 11.58 g/m*3 27 C 0 km/h
402 02-06-2003 19:29:02 25.6 C 14.52 g/m*3 25.6 C 0 km/h
403 02-06-2003 19:39:01 26.7 C 14.17 g/m*3 26.7 C 0 km/h
404 02-06-2003 19:49:01 27.5 C 13.23 g/m*3 27.5 C 0 km/h
405 02-06-2003 19:59:01 27.7 C 12.04 g/m*3 27.7 C 0 km/h
406 02-06-2003 20:09:01 27.9 C 12.17 g/m*3 27.9 C 0 km/h
407 02-06-2003 20:19:01 27.5 C 11.38 g/m*3 27.5 C 0 km/h
408 02-06-2003 20:29:01 26.3 C 11.64 g/m*3 26.3 C 0 km/h
409 02-06-2003 20:39:01 25.6 C 11.9 g/m*3 25.6 C 0 km/h
410 02-06-2003 20:49:01 24.8 C 12.06 g/m*3 24.8 C 0 km/h
411 02-06-2003 20:59:01 24.5 C 11.86 g/m*3 24.5 C 0 km/h
412 02-06-2003 21:09:01 24.3 C 12.17 g/m*3 24.3 C 0 km/h
413 02-06-2003 21:19:01 24 C 12.18 g/m*3 24 C 0 km/h
414 02-06-2003 21:29:01 23.6 C 12.34 g/m*3 23.6 C 0 km/h
415 02-06-2003 21:39:01 23.6 C 12.55 g/m*3 23.6 C 0 km/h
416 02-06-2003 21:49:01 23.3 C 12.13 g/m*3 23.3 C 0 km/h
417 02-06-2003 21:59:01 23.2 C 11.85 g/m*3 23.2 C 0 km/h
418 02-06-2003 22:10:00 23.1 C 11.78 g/m*3 23.1 C 0 km/h
419 02-06-2003 22:20:00 23 C 11.72 g/m*3 23 C 0 km/h
420 02-06-2003 22:30:00 22.9 C 11.65 g/m*3 22.9 C 0 km/h
421 02-06-2003 22:40:00 22.7 C 11.72 g/m*3 22.7 C 0 km/h
422 02-06-2003 22:50:00 22.6 C 11.85 g/m*3 22.6 C 0 km/h
423 02-06-2003 23:00:00 22.5 C 11.98 g/m*3 22.5 C 0 km/h
424 02-06-2003 23:10:00 22.3 C 12.05 g/m*3 22.3 C 0 km/h
425 02-06-2003 23:20:00 22.2 C 11.98 g/m*3 22.2 C 0 km/h
Sensor: Nr:Datum:Temp:Abs-Feuchte:Windchill:Wind:
Aussen-T/F 426 02-06-2003 23:30:00 22.1 C 12.1 g/m*3 22.1 C 0 km/h
427 02-06-2003 23:40:00 21.8 C 12.28 g/m*3 21.8 C 0 km/h
428 02-06-2003 23:50:00 21.8 C 12.28 g/m*3 21.8 C 0 km/h
429 03-06-2003 00:00:00 21.6 C 12.33 g/m*3 21.6 C 0 km/h
430 03-06-2003 00:10:00 21.4 C 12.37 g/m*3 21.4 C 0 km/h
431 03-06-2003 00:20:00 21.3 C 12.49 g/m*3 21.3 C 0 km/h
432 03-06-2003 00:30:00 21.1 C 12.53 g/m*3 21.1 C 0 km/h
433 03-06-2003 00:40:00 21 C 12.64 g/m*3 21 C 0 km/h
434 03-06-2003 00:50:00 21 C 12.64 g/m*3 21 C 0 km/h
435 03-06-2003 01:00:00 20.9 C 12.75 g/m*3 20.9 C 0 km/h
436 03-06-2003 01:10:00 20.8 C 12.86 g/m*3 20.8 C 0 km/h
437 03-06-2003 01:20:00 20.7 C 12.78 g/m*3 20.7 C 0 km/h
438 03-06-2003 01:30:00 20.4 C 12.74 g/m*3 20.4 C 0 km/h
439 03-06-2003 01:40:00 20.2 C 12.76 g/m*3 20.2 C 0 km/h
440 03-06-2003 01:50:00 20.1 C 12.69 g/m*3 20.1 C 0 km/h
441 03-06-2003 02:00:00 20 C 12.62 g/m*3 20 C 0 km/h
442 03-06-2003 02:10:00 20.3 C 12.84 g/m*3 20.3 C 0 km/h
443 03-06-2003 02:20:00 20.4 C 12.91 g/m*3 20.4 C 0 km/h
444 03-06-2003 02:30:00 20.4 C 12.91 g/m*3 20.4 C 0 km/h
445 03-06-2003 02:40:00 20.4 C 12.91 g/m*3 20.4 C 0 km/h
446 03-06-2003 02:50:00 20.4 C 12.91 g/m*3 20.4 C 0 km/h
447 03-06-2003 03:00:00 20.2 C 12.94 g/m*3 20.2 C 0 km/h
448 03-06-2003 03:10:00 20 C 12.79 g/m*3 20 C 0 km/h
449 03-06-2003 03:20:00 19.9 C 13.06 g/m*3 19.9 C 0 km/h
450 03-06-2003 03:30:00 19.6 C 12.83 g/m*3 19.6 C 0 km/h
Sensor: Nr:Datum:Temp:Abs-Feuchte:Windchill:Wind:
Aussen-T/F 451 03-06-2003 03:40:00 19.4 C 12.85 g/m*3 19.4 C 0 km/h
452 03-06-2003 03:50:00 19.4 C 12.85 g/m*3 19.4 C 0 km/h
453 03-06-2003 04:00:00 19.5 C 12.92 g/m*3 19.5 C 0 km/h
454 03-06-2003 04:10:00 19.4 C 12.85 g/m*3 19.4 C 0 km/h
455 03-06-2003 04:20:00 19.4 C 13.01 g/m*3 19.4 C 0 km/h
456 03-06-2003 04:30:00 19.4 C 13.01 g/m*3 19.4 C 0 km/h
457 03-06-2003 04:40:00 19.4 C 13.01 g/m*3 19.4 C 0 km/h
458 03-06-2003 04:50:00 19.4 C 12.85 g/m*3 19.4 C 0 km/h
459 03-06-2003 05:00:00 19.3 C 12.94 g/m*3 19.3 C 0 km/h
460 03-06-2003 05:10:00 19.1 C 12.79 g/m*3 19.1 C 0 km/h
461 03-06-2003 05:20:00 19.1 C 12.95 g/m*3 19.1 C 0 km/h
462 03-06-2003 05:30:00 19.2 C 13.03 g/m*3 19.2 C 0 km/h
463 03-06-2003 05:40:00 19.3 C 13.1 g/m*3 19.3 C 0 km/h
464 03-06-2003 05:50:00 19.3 C 13.1 g/m*3 19.3 C 0 km/h
465 03-06-2003 06:00:00 19.2 C 12.86 g/m*3 19.2 C 0 km/h
466 03-06-2003 06:10:00 19.1 C 12.95 g/m*3 19.1 C 0 km/h
467 03-06-2003 06:20:00 19.2 C 13.03 g/m*3 19.2 C 0 km/h
468 03-06-2003 06:30:00 19.2 C 13.03 g/m*3 19.2 C 0 km/h
469 03-06-2003 06:40:00 19.3 C 13.1 g/m*3 19.3 C 0 km/h
470 03-06-2003 06:50:00 19.3 C 13.1 g/m*3 19.3 C 0 km/h
471 03-06-2003 07:00:00 19.5 C 13.09 g/m*3 19.5 C 0 km/h
472 03-06-2003 07:10:00 19.6 C 13.17 g/m*3 19.6 C 0 km/h
473 03-06-2003 07:20:00 19.7 C 13.25 g/m*3 19.7 C 0 km/h
474 03-06-2003 07:30:00 19.9 C 13.23 g/m*3 19.9 C 0 km/h
475 03-06-2003 07:40:00 19.9 C 13.06 g/m*3 19.9 C 0 km/h
Sensor: Nr:Datum:Temp:Abs-Feuchte:Windchill:Wind:
Aussen-T/F 476 03-06-2003 07:50:00 20 C 12.96 g/m*3 20 C 0 km/h
477 03-06-2003 08:00:00 20 C 12.96 g/m*3 20 C 0 km/h
478 03-06-2003 08:10:01 20.2 C 13.11 g/m*3 20.2 C 0 km/h
479 03-06-2003 08:20:01 20.4 C 13.09 g/m*3 20.4 C 0 km/h
480 03-06-2003 08:30:01 20.8 C 13.04 g/m*3 20.8 C 0 km/h
481 03-06-2003 08:40:01 21.1 C 13.08 g/m*3 21.1 C 0 km/h
482 03-06-2003 08:50:01 21.5 C 13.01 g/m*3 21.5 C 0 km/h
483 03-06-2003 09:00:01 22 C 13 g/m*3 22 C 0 km/h
484 03-06-2003 09:10:00 22.2 C 12.96 g/m*3 22.2 C 0 km/h
485 03-06-2003 09:20:00 21.9 C 13.12 g/m*3 21.9 C 0 km/h
486 03-06-2003 09:30:00 22.5 C 13.18 g/m*3 22.5 C 0 km/h
487 03-06-2003 09:40:01 23 C 12.95 g/m*3 23 C 0 km/h
488 03-06-2003 09:50:01 22.9 C 12.88 g/m*3 22.9 C 0 km/h
489 03-06-2003 10:00:01 22.8 C 13 g/m*3 22.8 C 0 km/h
490 03-06-2003 10:10:01 22.9 C 13.08 g/m*3 22.9 C 0 km/h
491 03-06-2003 10:20:01 23.1 C 12.61 g/m*3 23.1 C 0 km/h
492 03-06-2003 10:30:01 23.1 C 12.61 g/m*3 23.1 C 0 km/h
493 03-06-2003 10:40:01 24 C 12.62 g/m*3 24 C 0 km/h
494 03-06-2003 10:50:01 24.5 C 12.76 g/m*3 24.5 C 0 km/h
495 03-06-2003 11:00:01 25.8 C 13 g/m*3 25.8 C 0 km/h
496 03-06-2003 11:10:02 25.5 C 12.55 g/m*3 25.5 C 0 km/h
497 03-06-2003 11:20:02 25.5 C 12.55 g/m*3 25.5 C 0 km/h
498 03-06-2003 11:30:02 26.3 C 12.63 g/m*3 26.3 C 0 km/h
499 03-06-2003 11:40:01 27 C 11.84 g/m*3 27 C 0 km/h
500 03-06-2003 11:50:01 27.3 C 12.3 g/m*3 27.3 C 0 km/h
Sensor: Nr:Datum:Temp:Abs-Feuchte:Windchill:Wind:
Aussen-T/F 501 03-06-2003 12:00:01 27.4 C 11.58 g/m*3 27.4 C 0 km/h
502 03-06-2003 12:10:02 28.7 C 11.87 g/m*3 28.7 C 0 km/h
503 03-06-2003 12:20:02 29.1 C 11.84 g/m*3 29.1 C 0 km/h
504 03-06-2003 12:30:02 29.2 C 11.91 g/m*3 29.2 C 0 km/h
505 03-06-2003 12:40:01 30.1 C 12.2 g/m*3 30.1 C 0 km/h
506 03-06-2003 12:50:01 30.3 C 11.4 g/m*3 30.3 C 0 km/h
507 03-06-2003 13:00:01 30.8 C 11.08 g/m*3 30.8 C 0 km/h
508 03-06-2003 13:10:01 30.3 C 10.79 g/m*3 30.3 C 0 km/h
509 03-06-2003 13:20:01 31.4 C 10.46 g/m*3 31.4 C 0 km/h
510 03-06-2003 13:30:01 30.9 C 9.87 g/m*3 30.9 C 0 km/h
511 03-06-2003 13:40:00 31.3 C 10.08 g/m*3 31.3 C 0 km/h
512 03-06-2003 13:50:00 31.3 C 9.76 g/m*3 31.3 C 0 km/h
513 03-06-2003 14:00:00 31.2 C 10.03 g/m*3 31.2 C 0 km/h
514 03-06-2003 14:10:01 30.7 C 10.39 g/m*3 30.7 C 0 km/h
515 03-06-2003 14:20:01 30.4 C 10.85 g/m*3 30.4 C 0 km/h
516 03-06-2003 14:30:01 30.3 C 11.1 g/m*3 30.3 C 0 km/h
517 03-06-2003 14:40:01 30.6 C 11.28 g/m*3 30.6 C 0 km/h
518 03-06-2003 14:50:01 31 C 11.84 g/m*3 31 C 0 km/h
519 03-06-2003 15:00:01 30.7 C 11.02 g/m*3 30.7 C 0 km/h
520 03-06-2003 15:10:02 31.6 C 11.57 g/m*3 31.6 C 0 km/h
521 03-06-2003 15:20:02 31.2 C 10.67 g/m*3 31.2 C 0 km/h
522 03-06-2003 15:30:02 30.6 C 11.28 g/m*3 30.6 C 0 km/h
523 03-06-2003 15:40:01 30.3 C 12.33 g/m*3 30.3 C 0 km/h
524 03-06-2003 15:50:01 30.7 C 11.65 g/m*3 30.7 C 0 km/h
525 03-06-2003 16:00:01 31.6 C 11.57 g/m*3 31.6 C 0 km/h
Sensor: Nr:Datum:Temp:Abs-Feuchte:Windchill:Wind:
Aussen-T/F 526 03-06-2003 16:10:02 32.1 C 10.86 g/m*3 32.1 C 0 km/h
527 03-06-2003 16:20:02 32 C 10.8 g/m*3 32 C 0 km/h
528 03-06-2003 16:30:02 31.5 C 10.85 g/m*3 31.5 C 0 km/h
529 03-06-2003 16:40:02 31.7 C 10.96 g/m*3 31.7 C 0 km/h
530 03-06-2003 16:50:02 31.2 C 11.65 g/m*3 31.2 C 0 km/h
531 03-06-2003 17:00:02 30.6 C 13.16 g/m*3 30.6 C 0 km/h
532 03-06-2003 17:10:01 30.1 C 13.42 g/m*3 30.1 C 0 km/h
533 03-06-2003 17:20:01 29.7 C 14.02 g/m*3 29.7 C 0 km/h
534 03-06-2003 17:30:01 29 C 14.07 g/m*3 29 C 0 km/h
535 03-06-2003 17:40:23 27.2 C 14.57 g/m*3 27.2 C 0 km/h
536 03-06-2003 17:50:23 23.5 C 15.86 g/m*3 23.5 C 0 km/h
537 03-06-2003 18:00:54 22.3 C 16.19 g/m*3 22.3 C 0 km/h
538 03-06-2003 18:10:54 22.1 C 16.59 g/m*3 22.1 C 0 km/h
539 03-06-2003 18:20:54 23.9 C 18.82 g/m*3 23.9 C 0 km/h
540 03-06-2003 18:30:08 23.8 C 17.21 g/m*3 23.8 C 0 km/h
541 03-06-2003 18:40:08 24.7 C 17.65 g/m*3 24.7 C 0 km/h
542 03-06-2003 18:50:08 25.1 C 17.59 g/m*3 25.1 C 0 km/h
543 03-06-2003 19:00:08 21.9 C 15.05 g/m*3 21.9 C 0 km/h
544 03-06-2003 19:10:08 20.7 C 15.3 g/m*3 20.7 C 0 km/h
545 03-06-2003 19:20:52 21.2 C 16.12 g/m*3 21.2 C 0 km/h
546 03-06-2003 19:30:52 19.6 C 14.69 g/m*3 19.6 C 0 km/h
547 03-06-2003 19:40:52 19.2 C 14.68 g/m*3 19.2 C 0 km/h
548 03-06-2003 19:50:01 19.3 C 14.93 g/m*3 19.3 C 0 km/h
549 03-06-2003 20:00:01 19.4 C 15.02 g/m*3 19.4 C 0 km/h
550 03-06-2003 20:10:01 19.5 C 14.77 g/m*3 19.5 C 0 km/h
Sensor: Nr:Datum:Temp:Abs-Feuchte:Windchill:Wind:
Aussen-T/F 551 03-06-2003 20:20:01 19.3 C 14.76 g/m*3 19.3 C 0 km/h
552 03-06-2003 20:30:01 19.5 C 14.94 g/m*3 19.5 C 0 km/h
553 03-06-2003 20:40:01 19.4 C 14.68 g/m*3 19.4 C 0 km/h
554 03-06-2003 20:50:01 19.4 C 14.68 g/m*3 19.4 C 0 km/h
555 03-06-2003 21:00:01 19.4 C 14.52 g/m*3 19.4 C 0 km/h
556 03-06-2003 21:10:01 19.3 C 14.6 g/m*3 19.3 C 0 km/h
557 03-06-2003 21:20:01 19.4 C 14.68 g/m*3 19.4 C 0 km/h
558 03-06-2003 21:30:01 19.2 C 14.35 g/m*3 19.2 C 0 km/h
559 03-06-2003 21:40:01 19.2 C 14.51 g/m*3 19.2 C 0 km/h
560 03-06-2003 21:50:01 19.2 C 14.51 g/m*3 19.2 C 0 km/h
561 03-06-2003 22:00:01 19.4 C 14.52 g/m*3 19.4 C 0 km/h
562 03-06-2003 22:11:04 19.4 C 14.52 g/m*3 19.4 C 0 km/h
563 03-06-2003 22:21:04 19.3 C 14.43 g/m*3 19.3 C 0 km/h
564 03-06-2003 22:31:04 19.4 C 14.52 g/m*3 19.4 C 0 km/h
565 03-06-2003 22:41:04 19.3 C 14.43 g/m*3 19.3 C 0 km/h
566 03-06-2003 22:51:04 19.1 C 14.43 g/m*3 19.1 C 0 km/h
567 03-06-2003 23:01:04 19.1 C 14.59 g/m*3 19.1 C 0 km/h
568 03-06-2003 23:11:04 19.1 C 14.59 g/m*3 19.1 C 0 km/h
569 03-06-2003 23:21:04 19 C 14.5 g/m*3 19 C 0 km/h
570 03-06-2003 23:31:04 19.1 C 14.59 g/m*3 19.1 C 0 km/h
571 03-06-2003 23:41:04 19 C 14.5 g/m*3 19 C 0 km/h
572 03-06-2003 23:51:04 19.1 C 14.59 g/m*3 19.1 C 0 km/h
573 04-06-2003 00:01:04 19.1 C 14.59 g/m*3 19.1 C 0 km/h
574 04-06-2003 00:11:04 19 C 14.34 g/m*3 19 C 0 km/h
575 04-06-2003 00:21:04 19.1 C 14.43 g/m*3 19.1 C 0 km/h
Sensor: Nr:Datum:Temp:Abs-Feuchte:Windchill:Wind:
Aussen-T/F 576 04-06-2003 00:31:04 19 C 14.34 g/m*3 19 C 0 km/h
577 04-06-2003 00:41:04 19.1 C 14.43 g/m*3 19.1 C 0 km/h
578 04-06-2003 00:51:04 18.8 C 14.33 g/m*3 18.8 C 0 km/h
579 04-06-2003 01:01:04 18.7 C 14.25 g/m*3 18.7 C 0 km/h
580 04-06-2003 01:11:04 18.6 C 14.17 g/m*3 18.6 C 0 km/h
581 04-06-2003 01:21:04 18.6 C 14.17 g/m*3 18.6 C 0 km/h
582 04-06-2003 01:31:04 18.5 C 14.08 g/m*3 18.5 C 0 km/h
583 04-06-2003 01:41:04 18.5 C 14.08 g/m*3 18.5 C 0 km/h
584 04-06-2003 01:51:04 18.6 C 14.17 g/m*3 18.6 C 0 km/h
585 04-06-2003 02:01:04 18.7 C 14.25 g/m*3 18.7 C 0 km/h
586 04-06-2003 02:11:04 18.8 C 14.33 g/m*3 18.8 C 0 km/h
587 04-06-2003 02:21:04 18.7 C 14.25 g/m*3 18.7 C 0 km/h
588 04-06-2003 02:31:04 18.7 C 14.25 g/m*3 18.7 C 0 km/h
589 04-06-2003 02:41:04 18.7 C 14.25 g/m*3 18.7 C 0 km/h
590 04-06-2003 02:51:04 18.6 C 14.17 g/m*3 18.6 C 0 km/h
591 04-06-2003 03:01:04 18.6 C 14.17 g/m*3 18.6 C 0 km/h
592 04-06-2003 03:11:04 18.7 C 14.41 g/m*3 18.7 C 0 km/h
593 04-06-2003 03:21:04 18.7 C 14.41 g/m*3 18.7 C 0 km/h
594 04-06-2003 03:31:04 18.8 C 14.49 g/m*3 18.8 C 0 km/h
595 04-06-2003 03:41:04 18.8 C 14.49 g/m*3 18.8 C 0 km/h
596 04-06-2003 03:51:04 18.9 C 14.58 g/m*3 18.9 C 0 km/h
597 04-06-2003 04:01:04 18.9 C 14.42 g/m*3 18.9 C 0 km/h
598 04-06-2003 04:11:04 18.9 C 14.42 g/m*3 18.9 C 0 km/h
599 04-06-2003 04:21:04 18.8 C 14.33 g/m*3 18.8 C 0 km/h
600 04-06-2003 04:31:04 18.7 C 14.25 g/m*3 18.7 C 0 km/h
Sensor: Nr:Datum:Temp:Abs-Feuchte:Windchill:Wind:
Aussen-T/F 601 04-06-2003 04:41:04 18.5 C 14.08 g/m*3 18.5 C 0 km/h
602 04-06-2003 04:51:04 18.4 C 14 g/m*3 18.4 C 0 km/h
603 04-06-2003 05:01:04 18.3 C 13.92 g/m*3 18.3 C 0 km/h
604 04-06-2003 05:11:04 18.3 C 13.92 g/m*3 18.3 C 0 km/h
605 04-06-2003 05:21:04 18.3 C 13.92 g/m*3 18.3 C 0 km/h
606 04-06-2003 05:31:04 18.4 C 14.16 g/m*3 18.4 C 0 km/h
607 04-06-2003 05:41:04 18.4 C 14.16 g/m*3 18.4 C 0 km/h
608 04-06-2003 05:51:04 18.5 C 14.24 g/m*3 18.5 C 0 km/h
609 04-06-2003 06:01:04 18.6 C 14.32 g/m*3 18.6 C 0 km/h
610 04-06-2003 06:11:04 18.6 C 14.32 g/m*3 18.6 C 0 km/h
611 04-06-2003 06:21:04 18.6 C 14.17 g/m*3 18.6 C 0 km/h
612 04-06-2003 06:31:04 18.5 C 14.08 g/m*3 18.5 C 0 km/h
613 04-06-2003 06:41:04 18.4 C 14 g/m*3 18.4 C 0 km/h
614 04-06-2003 06:51:04 18.5 C 14.24 g/m*3 18.5 C 0 km/h
615 04-06-2003 07:01:01 18.7 C 14.41 g/m*3 18.7 C 0 km/h
616 04-06-2003 07:11:02 18.9 C 14.42 g/m*3 18.9 C 0 km/h
617 04-06-2003 07:21:02 18.9 C 14.42 g/m*3 18.9 C 0 km/h
618 04-06-2003 07:31:02 18.9 C 14.42 g/m*3 18.9 C 0 km/h
619 04-06-2003 07:41:00 19.1 C 14.43 g/m*3 19.1 C 0 km/h
620 04-06-2003 07:51:00 19.5 C 14.43 g/m*3 19.5 C 0 km/h
621 04-06-2003 08:01:00 19.7 C 14.43 g/m*3 19.7 C 0 km/h
622 04-06-2003 08:11:00 19.8 C 14.35 g/m*3 19.8 C 0 km/h
623 04-06-2003 08:21:00 20 C 14.34 g/m*3 20 C 0 km/h
624 04-06-2003 08:31:00 20.4 C 14.51 g/m*3 20.4 C 0 km/h
625 04-06-2003 08:41:01 20.8 C 14.85 g/m*3 20.8 C 0 km/h
Sensor: Nr:Datum:Temp:Abs-Feuchte:Windchill:Wind:
Aussen-T/F 626 04-06-2003 08:51:01 20.8 C 14.67 g/m*3 20.8 C 0 km/h
627 04-06-2003 09:01:01 20.7 C 14.76 g/m*3 20.7 C 0 km/h
628 04-06-2003 09:11:01 20.7 C 14.76 g/m*3 20.7 C 0 km/h
629 04-06-2003 09:21:01 20.6 C 14.86 g/m*3 20.6 C 0 km/h
630 04-06-2003 09:31:01 21.2 C 15.2 g/m*3 21.2 C 0 km/h
631 04-06-2003 09:41:01 21.8 C 15.54 g/m*3 21.8 C 0 km/h
632 04-06-2003 09:51:01 22.6 C 15.87 g/m*3 22.6 C 0 km/h
633 04-06-2003 10:01:01 23.1 C 16.12 g/m*3 23.1 C 0 km/h
634 04-06-2003 10:11:01 23.5 C 16.07 g/m*3 23.5 C 0 km/h
635 04-06-2003 10:21:01 23.9 C 16.44 g/m*3 23.9 C 0 km/h
636 04-06-2003 10:31:01 24.1 C 16.19 g/m*3 24.1 C 0 km/h
637 04-06-2003 10:41:01 25.1 C 15.28 g/m*3 25.1 C 0 km/h
638 04-06-2003 10:51:01 26 C 16.07 g/m*3 26 C 0 km/h
639 04-06-2003 11:01:01 26.6 C 15.35 g/m*3 26.6 C 0 km/h
640 04-06-2003 11:11:02 27.1 C 14.75 g/m*3 27.1 C 0 km/h
641 04-06-2003 11:21:02 27.4 C 14.21 g/m*3 27.4 C 0 km/h
642 04-06-2003 11:31:02 28 C 14.14 g/m*3 28 C 0 km/h
643 04-06-2003 11:41:01 28.2 C 14.02 g/m*3 28.2 C 0 km/h
644 04-06-2003 11:51:01 29 C 14.65 g/m*3 29 C 0 km/h
645 04-06-2003 12:01:01 28.8 C 13.07 g/m*3 28.8 C 0 km/h
646 04-06-2003 12:21:02 30.5 C 12.77 g/m*3 30.5 C 0 km/h
647 04-06-2003 12:31:02 30.4 C 12.08 g/m*3 30.4 C 0 km/h
648 04-06-2003 12:41:01 30.3 C 11.71 g/m*3 30.3 C 0 km/h
649 04-06-2003 12:51:01 30.6 C 10.96 g/m*3 30.6 C 0 km/h
650 04-06-2003 13:01:01 30.6 C 10.96 g/m*3 30.6 C 0 km/h
Sensor: Nr:Datum:Temp:Abs-Feuchte:Windchill:Wind:
Aussen-T/F 651 04-06-2003 13:11:01 31.3 C 9.76 g/m*3 31.3 C 0 km/h
652 04-06-2003 13:21:01 31.2 C 9.7 g/m*3 31.2 C 0 km/h
653 04-06-2003 13:31:01 31.8 C 9.69 g/m*3 31.8 C 0 km/h
654 04-06-2003 13:41:00 31.7 C 9.97 g/m*3 31.7 C 0 km/h
655 04-06-2003 13:51:00 31.9 C 9.74 g/m*3 31.9 C 0 km/h
656 04-06-2003 14:01:00 31.5 C 9.86 g/m*3 31.5 C 0 km/h
657 04-06-2003 14:11:01 30.9 C 10.19 g/m*3 30.9 C 0 km/h
658 04-06-2003 14:21:01 31 C 9.92 g/m*3 31 C 0 km/h
659 04-06-2003 14:31:01 31.4 C 9.81 g/m*3 31.4 C 0 km/h
660 04-06-2003 14:41:02 31.7 C 9.97 g/m*3 31.7 C 0 km/h
661 04-06-2003 14:51:02 31.7 C 9.63 g/m*3 31.7 C 0 km/h
662 04-06-2003 15:01:02 32 C 9.45 g/m*3 32 C 0 km/h
663 04-06-2003 15:11:01 32.1 C 9.84 g/m*3 32.1 C 0 km/h
664 04-06-2003 15:21:01 32.3 C 8.58 g/m*3 32.3 C 0 km/h
665 04-06-2003 15:31:01 32.1 C 8.48 g/m*3 32.1 C 0 km/h
666 04-06-2003 15:41:01 32.4 C 7.93 g/m*3 32.4 C 0 km/h
667 04-06-2003 15:51:01 31.8 C 8.35 g/m*3 31.8 C 0 km/h
668 04-06-2003 16:01:01 32.1 C 8.82 g/m*3 32.1 C 0 km/h
669 04-06-2003 16:11:02 31.5 C 7.89 g/m*3 31.5 C 0 km/h
670 04-06-2003 16:21:02 31.4 C 8.5 g/m*3 31.4 C 0 km/h
671 04-06-2003 16:31:02 31.9 C 8.73 g/m*3 31.9 C 0 km/h
672 04-06-2003 16:41:00 32 C 8.44 g/m*3 32 C 0 km/h
673 04-06-2003 16:51:00 32.1 C 8.48 g/m*3 32.1 C 0 km/h
674 04-06-2003 17:01:00 32 C 8.44 g/m*3 32 C 0 km/h
675 04-06-2003 17:11:00 31.7 C 8.97 g/m*3 31.7 C 0 km/h
Sensor: Nr:Datum:Temp:Abs-Feuchte:Windchill:Wind:
Aussen-T/F 676 04-06-2003 17:21:00 31.7 C 9.3 g/m*3 31.7 C 0 km/h
677 04-06-2003 17:31:00 31.8 C 8.68 g/m*3 31.8 C 0 km/h
678 04-06-2003 17:41:01 31.8 C 9.02 g/m*3 31.8 C 0 km/h
679 04-06-2003 17:51:01 32.3 C 8.92 g/m*3 32.3 C 0 km/h
680 04-06-2003 18:01:01 32 C 9.11 g/m*3 32 C 0 km/h
681 04-06-2003 18:11:01 32.2 C 9.21 g/m*3 32.2 C 0 km/h
682 04-06-2003 18:21:01 32 C 8.78 g/m*3 32 C 0 km/h
683 04-06-2003 18:31:01 32.2 C 9.21 g/m*3 32.2 C 0 km/h
684 04-06-2003 18:41:01 31.7 C 8.97 g/m*3 31.7 C 0 km/h
685 04-06-2003 18:51:01 31.8 C 9.69 g/m*3 31.8 C 0 km/h
686 04-06-2003 19:01:01 31.8 C 8.68 g/m*3 31.8 C 0 km/h
687 04-06-2003 19:11:01 32 C 9.79 g/m*3 32 C 0 km/h
688 04-06-2003 19:21:01 31.8 C 10.35 g/m*3 31.8 C 0 km/h
689 04-06-2003 19:31:01 31.4 C 9.81 g/m*3 31.4 C 0 km/h
690 04-06-2003 19:41:01 31.4 C 10.46 g/m*3 31.4 C 0 km/h
691 04-06-2003 19:51:01 31.3 C 11.38 g/m*3 31.3 C 0 km/h
692 04-06-2003 20:01:01 31 C 10.88 g/m*3 31 C 0 km/h
693 04-06-2003 20:11:01 30.7 C 11.02 g/m*3 30.7 C 0 km/h
694 04-06-2003 20:21:01 30.4 C 11.16 g/m*3 30.4 C 0 km/h
695 04-06-2003 20:31:01 30 C 11.52 g/m*3 30 C 0 km/h
696 04-06-2003 20:41:01 29.7 C 11.93 g/m*3 29.7 C 0 km/h
697 04-06-2003 20:51:01 28.9 C 12.28 g/m*3 28.9 C 0 km/h
698 04-06-2003 21:01:01 28.2 C 11.55 g/m*3 28.2 C 0 km/h
699 04-06-2003 21:11:01 27.8 C 12.1 g/m*3 27.8 C 0 km/h
700 04-06-2003 21:21:01 26.9 C 12.03 g/m*3 26.9 C 0 km/h
Sensor: Nr:Datum:Temp:Abs-Feuchte:Windchill:Wind:
Aussen-T/F 701 04-06-2003 21:31:01 26.7 C 12.15 g/m*3 26.7 C 0 km/h
702 04-06-2003 21:41:01 26.5 C 12.52 g/m*3 26.5 C 0 km/h
703 04-06-2003 21:51:01 26.4 C 12.45 g/m*3 26.4 C 0 km/h
704 04-06-2003 22:01:01 26.1 C 12.73 g/m*3 26.1 C 0 km/h
705 04-06-2003 22:12:01 25.6 C 12.62 g/m*3 25.6 C 0 km/h
706 04-06-2003 22:22:01 25.3 C 12.64 g/m*3 25.3 C 0 km/h
707 04-06-2003 22:32:01 24.9 C 12.82 g/m*3 24.9 C 0 km/h
708 04-06-2003 22:42:01 24.7 C 12.45 g/m*3 24.7 C 0 km/h
709 04-06-2003 22:52:01 24.5 C 12.53 g/m*3 24.5 C 0 km/h
710 04-06-2003 23:02:01 24.6 C 13.28 g/m*3 24.6 C 0 km/h
711 04-06-2003 23:12:01 24.5 C 13.2 g/m*3 24.5 C 0 km/h
712 04-06-2003 23:22:01 24.3 C 13.06 g/m*3 24.3 C 0 km/h
713 04-06-2003 23:32:01 23.9 C 13.2 g/m*3 23.9 C 0 km/h
714 04-06-2003 23:42:01 23.7 C 13.05 g/m*3 23.7 C 0 km/h
715 04-06-2003 23:52:01 23.6 C 13.19 g/m*3 23.6 C 0 km/h
716 05-06-2003 00:02:01 23.4 C 13.04 g/m*3 23.4 C 0 km/h
717 05-06-2003 00:12:01 23.3 C 13.17 g/m*3 23.3 C 0 km/h
718 05-06-2003 00:22:01 23.1 C 13.02 g/m*3 23.1 C 0 km/h
719 05-06-2003 00:32:01 22.9 C 13.28 g/m*3 22.9 C 0 km/h
720 05-06-2003 00:42:01 22.7 C 13.13 g/m*3 22.7 C 0 km/h
721 05-06-2003 00:52:01 22.6 C 13.06 g/m*3 22.6 C 0 km/h
722 05-06-2003 01:02:01 22.2 C 12.76 g/m*3 22.2 C 0 km/h
723 05-06-2003 01:12:01 22.1 C 12.69 g/m*3 22.1 C 0 km/h
724 05-06-2003 01:22:01 22 C 12.81 g/m*3 22 C 0 km/h
725 05-06-2003 01:32:01 21.8 C 12.85 g/m*3 21.8 C 0 km/h
Sensor: Nr:Datum:Temp:Abs-Feuchte:Windchill:Wind:
Aussen-T/F 726 05-06-2003 01:42:01 21.8 C 13.05 g/m*3 21.8 C 0 km/h
727 05-06-2003 01:52:01 21.7 C 12.97 g/m*3 21.7 C 0 km/h
728 05-06-2003 02:02:01 21.7 C 12.97 g/m*3 21.7 C 0 km/h
729 05-06-2003 02:12:01 21.7 C 12.97 g/m*3 21.7 C 0 km/h
730 05-06-2003 02:22:01 21.8 C 13.05 g/m*3 21.8 C 0 km/h
731 05-06-2003 02:32:01 21.9 C 13.31 g/m*3 21.9 C 0 km/h
732 05-06-2003 02:42:01 22 C 13.2 g/m*3 22 C 0 km/h
733 05-06-2003 02:52:01 21.9 C 13.12 g/m*3 21.9 C 0 km/h
734 05-06-2003 03:02:01 22 C 13.2 g/m*3 22 C 0 km/h
735 05-06-2003 03:12:01 21.7 C 13.16 g/m*3 21.7 C 0 km/h
736 05-06-2003 03:22:01 21.7 C 13.35 g/m*3 21.7 C 0 km/h
737 05-06-2003 03:32:01 21.3 C 13.05 g/m*3 21.3 C 0 km/h
738 05-06-2003 03:42:01 21.4 C 13.31 g/m*3 21.4 C 0 km/h
739 05-06-2003 03:52:01 21.1 C 13.08 g/m*3 21.1 C 0 km/h
740 05-06-2003 04:02:01 20.8 C 13.04 g/m*3 20.8 C 0 km/h
741 05-06-2003 04:12:01 20.8 C 13.22 g/m*3 20.8 C 0 km/h
742 05-06-2003 04:22:01 20.9 C 13.11 g/m*3 20.9 C 0 km/h
743 05-06-2003 04:32:01 21 C 13.19 g/m*3 21 C 0 km/h
744 05-06-2003 04:42:01 20.9 C 13.11 g/m*3 20.9 C 0 km/h
745 05-06-2003 04:52:01 20.6 C 13.07 g/m*3 20.6 C 0 km/h
746 05-06-2003 05:02:01 20.7 C 13.14 g/m*3 20.7 C 0 km/h
747 05-06-2003 05:12:01 20.8 C 13.04 g/m*3 20.8 C 0 km/h
748 05-06-2003 05:22:01 20.8 C 13.04 g/m*3 20.8 C 0 km/h
749 05-06-2003 05:32:01 20.8 C 13.04 g/m*3 20.8 C 0 km/h
750 05-06-2003 05:42:01 20.8 C 13.04 g/m*3 20.8 C 0 km/h
Sensor: Nr:Datum:Temp:Abs-Feuchte:Windchill:Wind:
Aussen-T/F 751 05-06-2003 05:52:01 20.8 C 13.22 g/m*3 20.8 C 0 km/h
752 05-06-2003 06:02:01 20.6 C 13.24 g/m*3 20.6 C 0 km/h
753 05-06-2003 06:12:01 20.4 C 13.09 g/m*3 20.4 C 0 km/h
754 05-06-2003 06:22:01 20.3 C 13.19 g/m*3 20.3 C 0 km/h
755 05-06-2003 06:32:01 20.2 C 13.29 g/m*3 20.2 C 0 km/h
756 05-06-2003 06:42:01 20.6 C 13.42 g/m*3 20.6 C 0 km/h
757 05-06-2003 06:52:01 20.5 C 13.35 g/m*3 20.5 C 0 km/h
758 05-06-2003 07:02:01 20.7 C 13.32 g/m*3 20.7 C 0 km/h
759 05-06-2003 07:12:01 21 C 13.37 g/m*3 21 C 0 km/h
760 05-06-2003 07:22:01 21.5 C 13.39 g/m*3 21.5 C 0 km/h
761 05-06-2003 07:32:01 21.7 C 13.16 g/m*3 21.7 C 0 km/h
762 05-06-2003 07:42:01 21.8 C 13.24 g/m*3 21.8 C 0 km/h
763 05-06-2003 07:52:01 21.7 C 13.35 g/m*3 21.7 C 0 km/h
764 05-06-2003 08:02:00 22.1 C 13.47 g/m*3 22.1 C 0 km/h
765 05-06-2003 08:12:00 22.1 C 13.47 g/m*3 22.1 C 0 km/h
766 05-06-2003 08:22:00 22.4 C 13.7 g/m*3 22.4 C 0 km/h
767 05-06-2003 08:32:00 22.6 C 13.86 g/m*3 22.6 C 0 km/h
768 05-06-2003 08:42:00 22.8 C 13.82 g/m*3 22.8 C 0 km/h
769 05-06-2003 08:52:00 23 C 13.77 g/m*3 23 C 0 km/h
770 05-06-2003 09:02:00 23.5 C 13.75 g/m*3 23.5 C 0 km/h
771 05-06-2003 09:12:00 24.2 C 13.86 g/m*3 24.2 C 0 km/h
772 05-06-2003 09:22:00 24.7 C 13.58 g/m*3 24.7 C 0 km/h
773 05-06-2003 09:32:01 25 C 13.35 g/m*3 25 C 0 km/h
774 05-06-2003 09:42:01 25 C 12.89 g/m*3 25 C 0 km/h
775 05-06-2003 09:52:01 25.6 C 13.09 g/m*3 25.6 C 0 km/h
Sensor: Nr:Datum:Temp:Abs-Feuchte:Windchill:Wind:
Aussen-T/F 776 05-06-2003 10:02:01 26.7 C 12.91 g/m*3 26.7 C 0 km/h
777 05-06-2003 10:12:01 26.8 C 12.98 g/m*3 26.8 C 0 km/h
778 05-06-2003 10:22:01 27.1 C 13.2 g/m*3 27.1 C 0 km/h
779 05-06-2003 10:32:00 27.5 C 12.96 g/m*3 27.5 C 0 km/h
780 05-06-2003 10:42:00 27.3 C 12.82 g/m*3 27.3 C 0 km/h
781 05-06-2003 10:52:00 27 C 12.61 g/m*3 27 C 0 km/h
782 05-06-2003 11:02:00 27.1 C 12.68 g/m*3 27.1 C 0 km/h
783 05-06-2003 11:02:01 27.1 C 12.68 g/m*3 27.1 C 0 km/h
784 05-06-2003 11:12:00 26.8 C 12.98 g/m*3 26.8 C 0 km/h
785 05-06-2003 11:22:00 26.6 C 12.84 g/m*3 26.6 C 0 km/h
786 05-06-2003 11:32:00 27.1 C 12.94 g/m*3 27.1 C 0 km/h
787 05-06-2003 11:42:00 26.9 C 13.31 g/m*3 26.9 C 0 km/h
788 05-06-2003 11:52:00 25.8 C 13.48 g/m*3 25.8 C 0 km/h
789 05-06-2003 12:02:01 23.9 C 14.71 g/m*3 23.9 C 0 km/h
790 05-06-2003 12:12:01 24 C 14.79 g/m*3 24 C 0 km/h
791 05-06-2003 12:22:01 24.5 C 14.55 g/m*3 24.5 C 0 km/h
792 05-06-2003 12:32:01 25 C 14.04 g/m*3 25 C 0 km/h
793 05-06-2003 12:42:01 25 C 13.35 g/m*3 25 C 0 km/h
794 05-06-2003 12:52:01 25.6 C 13.57 g/m*3 25.6 C 0 km/h
795 05-06-2003 13:02:01 27.4 C 13.42 g/m*3 27.4 C 0 km/h
796 05-06-2003 13:12:01 28.5 C 13.14 g/m*3 28.5 C 0 km/h
797 05-06-2003 13:22:01 28.4 C 13.06 g/m*3 28.4 C 0 km/h
798 05-06-2003 13:32:01 28.5 C 12.58 g/m*3 28.5 C 0 km/h
799 05-06-2003 13:42:01 30 C 12.43 g/m*3 30 C 0 km/h
800 05-06-2003 13:52:01 30 C 12.13 g/m*3 30 C 0 km/h
Sensor: Nr:Datum:Temp:Abs-Feuchte:Windchill:Wind:
Aussen-T/F 801 05-06-2003 14:02:07 30.1 C 11.28 g/m*3 30.1 C 0 km/h
802 05-06-2003 14:12:07 30.2 C 11.96 g/m*3 30.2 C 0 km/h
803 05-06-2003 14:22:07 28.1 C 12.3 g/m*3 28.1 C 0 km/h
804 05-06-2003 14:32:00 27.6 C 13.3 g/m*3 27.6 C 0 km/h
805 05-06-2003 14:42:00 26.1 C 12.98 g/m*3 26.1 C 0 km/h
806 05-06-2003 14:52:00 24.9 C 13.05 g/m*3 24.9 C 0 km/h
807 05-06-2003 15:02:00 24.1 C 12.69 g/m*3 24.1 C 0 km/h
808 05-06-2003 15:12:00 23.4 C 12.62 g/m*3 23.4 C 0 km/h
809 05-06-2003 15:22:00 22.6 C 12.05 g/m*3 22.6 C 0 km/h
810 05-06-2003 15:32:01 22.6 C 12.05 g/m*3 22.6 C 0 km/h
811 05-06-2003 15:42:01 22.7 C 12.53 g/m*3 22.7 C 0 km/h
812 05-06-2003 15:52:01 22.5 C 12.38 g/m*3 22.5 C 0 km/h
813 05-06-2003 16:02:01 21.7 C 12.78 g/m*3 21.7 C 0 km/h
814 05-06-2003 16:12:01 21.2 C 13.34 g/m*3 21.2 C 0 km/h
815 05-06-2003 16:22:01 22.1 C 13.86 g/m*3 22.1 C 0 km/h
816 05-06-2003 16:32:01 22.9 C 12.67 g/m*3 22.9 C 0 km/h
817 05-06-2003 16:42:01 24.8 C 12.75 g/m*3 24.8 C 0 km/h
818 05-06-2003 16:52:01 23.8 C 12.26 g/m*3 23.8 C 0 km/h
819 05-06-2003 17:02:01 25 C 12.2 g/m*3 25 C 0 km/h
820 05-06-2003 17:12:01 25 C 11.97 g/m*3 25 C 0 km/h
821 05-06-2003 17:22:01 25.2 C 12.11 g/m*3 25.2 C 0 km/h
822 05-06-2003 17:32:00 24.4 C 11.79 g/m*3 24.4 C 0 km/h
823 05-06-2003 17:42:00 24.1 C 11.38 g/m*3 24.1 C 0 km/h
824 05-06-2003 17:52:00 24.1 C 11.6 g/m*3 24.1 C 0 km/h
825 05-06-2003 18:02:01 23.4 C 11.35 g/m*3 23.4 C 0 km/h
Sensor: Nr:Datum:Temp:Abs-Feuchte:Windchill:Wind:
Aussen-T/F 826 05-06-2003 18:12:01 22.9 C 11.65 g/m*3 22.9 C 0 km/h
827 05-06-2003 18:22:01 22.9 C 11.65 g/m*3 22.9 C 0 km/h
828 05-06-2003 18:32:01 22 C 11.84 g/m*3 22 C 0 km/h
829 05-06-2003 18:42:01 22.2 C 11.98 g/m*3 22.2 C 0 km/h
830 05-06-2003 18:52:01 22.5 C 11.78 g/m*3 22.5 C 0 km/h
831 05-06-2003 19:02:02 22.2 C 11.78 g/m*3 22.2 C 0 km/h
832 05-06-2003 19:12:02 22.2 C 11.98 g/m*3 22.2 C 0 km/h
833 05-06-2003 19:22:02 21.8 C 12.09 g/m*3 21.8 C 0 km/h
834 05-06-2003 19:32:01 21.4 C 11.81 g/m*3 21.4 C 0 km/h
835 05-06-2003 19:42:01 21.4 C 11.62 g/m*3 21.4 C 0 km/h
836 05-06-2003 19:52:01 21 C 11.54 g/m*3 21 C 0 km/h
837 05-06-2003 20:02:01 21.3 C 11.74 g/m*3 21.3 C 0 km/h
838 05-06-2003 20:12:01 21.4 C 11.81 g/m*3 21.4 C 0 km/h
839 05-06-2003 20:22:01 21.3 C 11.74 g/m*3 21.3 C 0 km/h
840 05-06-2003 20:32:01 21.2 C 11.68 g/m*3 21.2 C 0 km/h
841 05-06-2003 20:42:01 21.2 C 11.86 g/m*3 21.2 C 0 km/h
842 05-06-2003 20:52:01 20.8 C 11.41 g/m*3 20.8 C 0 km/h
843 05-06-2003 21:02:02 20.5 C 11.39 g/m*3 20.5 C 0 km/h
844 05-06-2003 21:12:02 20.6 C 11.45 g/m*3 20.6 C 0 km/h
845 05-06-2003 21:22:02 20.4 C 11.32 g/m*3 20.4 C 0 km/h
846 05-06-2003 21:32:01 20.4 C 11.32 g/m*3 20.4 C 0 km/h
847 05-06-2003 21:42:01 20.5 C 11.21 g/m*3 20.5 C 0 km/h
848 05-06-2003 21:52:01 20.4 C 11.32 g/m*3 20.4 C 0 km/h
849 05-06-2003 22:03:01 20.3 C 11.43 g/m*3 20.3 C 0 km/h
850 05-06-2003 22:13:01 19.8 C 11.61 g/m*3 19.8 C 0 km/h
Sensor: Nr:Datum:Temp:Abs-Feuchte:Windchill:Wind:
Aussen-T/F 851 05-06-2003 22:23:01 19.2 C 11.54 g/m*3 19.2 C 0 km/h
852 05-06-2003 22:33:01 18.9 C 11.66 g/m*3 18.9 C 0 km/h
853 05-06-2003 22:43:01 19.1 C 11.64 g/m*3 19.1 C 0 km/h
854 05-06-2003 22:53:01 19.2 C 11.87 g/m*3 19.2 C 0 km/h
855 05-06-2003 23:03:01 18.9 C 11.66 g/m*3 18.9 C 0 km/h
856 05-06-2003 23:13:01 18.7 C 11.69 g/m*3 18.7 C 0 km/h
857 05-06-2003 23:23:01 18.3 C 11.57 g/m*3 18.3 C 0 km/h
858 05-06-2003 23:33:01 18.1 C 11.59 g/m*3 18.1 C 0 km/h
859 05-06-2003 23:43:01 18 C 11.67 g/m*3 18 C 0 km/h
860 05-06-2003 23:53:01 17.9 C 11.76 g/m*3 17.9 C 0 km/h
861 06-06-2003 00:03:01 17.8 C 11.69 g/m*3 17.8 C 0 km/h
862 06-06-2003 00:13:01 17.8 C 11.84 g/m*3 17.8 C 0 km/h
863 06-06-2003 00:23:01 17.7 C 11.77 g/m*3 17.7 C 0 km/h
864 06-06-2003 00:33:01 17.7 C 11.77 g/m*3 17.7 C 0 km/h
865 06-06-2003 00:43:01 17.5 C 11.78 g/m*3 17.5 C 0 km/h
866 06-06-2003 00:53:01 17.2 C 11.57 g/m*3 17.2 C 0 km/h
867 06-06-2003 01:03:01 17.2 C 11.57 g/m*3 17.2 C 0 km/h
868 06-06-2003 01:13:01 17.2 C 11.57 g/m*3 17.2 C 0 km/h
869 06-06-2003 01:23:01 16.9 C 11.65 g/m*3 16.9 C 0 km/h
870 06-06-2003 01:33:01 16.9 C 11.65 g/m*3 16.9 C 0 km/h
871 06-06-2003 01:43:01 16.9 C 11.79 g/m*3 16.9 C 0 km/h
872 06-06-2003 01:53:01 16.8 C 11.72 g/m*3 16.8 C 0 km/h
873 06-06-2003 02:03:01 16.7 C 11.65 g/m*3 16.7 C 0 km/h
874 06-06-2003 02:13:01 16.5 C 11.65 g/m*3 16.5 C 0 km/h
875 06-06-2003 02:23:01 16.3 C 11.52 g/m*3 16.3 C 0 km/h
Sensor: Nr:Datum:Temp:Abs-Feuchte:Windchill:Wind:
Aussen-T/F 876 06-06-2003 02:33:01 16.2 C 11.45 g/m*3 16.2 C 0 km/h
877 06-06-2003 02:43:01 16 C 11.44 g/m*3 16 C 0 km/h
878 06-06-2003 02:53:01 16 C 11.58 g/m*3 16 C 0 km/h
879 06-06-2003 03:03:01 15.8 C 11.44 g/m*3 15.8 C 0 km/h
880 06-06-2003 03:13:01 15.7 C 11.37 g/m*3 15.7 C 0 km/h
881 06-06-2003 03:23:01 15.6 C 11.44 g/m*3 15.6 C 0 km/h
882 06-06-2003 03:33:01 15.5 C 11.37 g/m*3 15.5 C 0 km/h
883 06-06-2003 03:43:01 15.5 C 11.37 g/m*3 15.5 C 0 km/h
884 06-06-2003 03:53:01 15.4 C 11.3 g/m*3 15.4 C 0 km/h
885 06-06-2003 04:03:01 15.4 C 11.3 g/m*3 15.4 C 0 km/h
886 06-06-2003 04:13:01 15.2 C 11.16 g/m*3 15.2 C 0 km/h
887 06-06-2003 04:23:01 15.2 C 11.29 g/m*3 15.2 C 0 km/h
888 06-06-2003 04:33:01 15.1 C 11.22 g/m*3 15.1 C 0 km/h
889 06-06-2003 04:43:01 15 C 11.16 g/m*3 15 C 0 km/h
890 06-06-2003 04:53:01 14.9 C 11.22 g/m*3 14.9 C 0 km/h
891 06-06-2003 05:03:01 14.8 C 11.15 g/m*3 14.8 C 0 km/h
892 06-06-2003 05:13:01 14.7 C 11.21 g/m*3 14.7 C 0 km/h
893 06-06-2003 05:23:01 14.6 C 11.14 g/m*3 14.6 C 0 km/h
894 06-06-2003 05:33:01 14.6 C 11.14 g/m*3 14.6 C 0 km/h
895 06-06-2003 05:43:01 14.6 C 11.14 g/m*3 14.6 C 0 km/h
896 06-06-2003 05:53:01 14.7 C 11.33 g/m*3 14.7 C 0 km/h
897 06-06-2003 06:03:01 14.6 C 11.26 g/m*3 14.6 C 0 km/h
898 06-06-2003 06:13:01 14.7 C 11.33 g/m*3 14.7 C 0 km/h
899 06-06-2003 06:23:01 14.7 C 11.21 g/m*3 14.7 C 0 km/h
900 06-06-2003 06:33:01 14.7 C 11.21 g/m*3 14.7 C 0 km/h
Sensor: Nr:Datum:Temp:Abs-Feuchte:Windchill:Wind:
Aussen-T/F 901 06-06-2003 06:43:01 14.6 C 11.14 g/m*3 14.6 C 0 km/h
902 06-06-2003 07:03:01 14.7 C 11.33 g/m*3 14.7 C 0 km/h
903 06-06-2003 07:13:01 15 C 11.28 g/m*3 15 C 0 km/h
904 06-06-2003 07:23:01 15.2 C 11.29 g/m*3 15.2 C 0 km/h
905 06-06-2003 07:33:01 15.7 C 11.51 g/m*3 15.7 C 0 km/h
906 06-06-2003 07:43:01 15.9 C 11.38 g/m*3 15.9 C 0 km/h
907 06-06-2003 07:53:01 16 C 11.31 g/m*3 16 C 0 km/h
908 06-06-2003 08:03:01 15.9 C 11.38 g/m*3 15.9 C 0 km/h
909 06-06-2003 08:13:01 16.3 C 11.38 g/m*3 16.3 C 0 km/h
910 06-06-2003 08:23:01 16.4 C 11.45 g/m*3 16.4 C 0 km/h
911 06-06-2003 08:33:01 17 C 11.58 g/m*3 17 C 0 km/h
912 06-06-2003 08:43:01 17.4 C 11.56 g/m*3 17.4 C 0 km/h
913 06-06-2003 08:53:01 17.8 C 11.69 g/m*3 17.8 C 0 km/h
914 06-06-2003 09:03:01 18.1 C 11.59 g/m*3 18.1 C 0 km/h
915 06-06-2003 09:13:01 18.3 C 11.88 g/m*3 18.3 C 0 km/h
916 06-06-2003 09:23:01 18.4 C 11.95 g/m*3 18.4 C 0 km/h
917 06-06-2003 09:33:00 18.9 C 11.99 g/m*3 18.9 C 0 km/h
918 06-06-2003 09:43:00 19.5 C 11.75 g/m*3 19.5 C 0 km/h
919 06-06-2003 09:53:00 19.8 C 11.61 g/m*3 19.8 C 0 km/h
920 06-06-2003 10:03:01 20.8 C 11.95 g/m*3 20.8 C 0 km/h
921 06-06-2003 10:13:01 21.6 C 12.33 g/m*3 21.6 C 0 km/h
922 06-06-2003 10:23:01 21.5 C 11.69 g/m*3 21.5 C 0 km/h
923 06-06-2003 10:33:01 21.8 C 12.09 g/m*3 21.8 C 0 km/h
924 06-06-2003 10:43:01 22.5 C 12.18 g/m*3 22.5 C 0 km/h
925 06-06-2003 10:53:01 22.7 C 11.92 g/m*3 22.7 C 0 km/h
Sensor: Nr:Datum:Temp:Abs-Feuchte:Windchill:Wind:
Aussen-T/F 926 06-06-2003 11:03:00 23.2 C 12.06 g/m*3 23.2 C 0 km/h
927 06-06-2003 11:13:00 23.7 C 12.19 g/m*3 23.7 C 0 km/h
928 06-06-2003 11:23:00 24.1 C 12.25 g/m*3 24.1 C 0 km/h
929 06-06-2003 11:33:02 24.5 C 11.86 g/m*3 24.5 C 0 km/h
930 06-06-2003 11:43:02 24.7 C 11.77 g/m*3 24.7 C 0 km/h
931 06-06-2003 11:53:02 25.3 C 11.71 g/m*3 25.3 C 0 km/h
932 06-06-2003 12:03:01 25.9 C 11.38 g/m*3 25.9 C 0 km/h
933 06-06-2003 12:13:01 26 C 10.96 g/m*3 26 C 0 km/h
934 06-06-2003 12:23:01 26.9 C 10.49 g/m*3 26.9 C 0 km/h
935 06-06-2003 12:33:01 27.5 C 10.58 g/m*3 27.5 C 0 km/h
936 06-06-2003 12:43:01 27.8 C 10.49 g/m*3 27.8 C 0 km/h
937 06-06-2003 12:53:01 28.3 C 11.06 g/m*3 28.3 C 0 km/h
938 06-06-2003 13:03:01 28.1 C 9.84 g/m*3 28.1 C 0 km/h
939 06-06-2003 13:13:01 28.9 C 10.57 g/m*3 28.9 C 0 km/h
940 06-06-2003 13:23:01 30 C 10.31 g/m*3 30 C 0 km/h
941 06-06-2003 13:33:00 29.8 C 10.5 g/m*3 29.8 C 0 km/h
942 06-06-2003 13:43:00 28.7 C 9.89 g/m*3 28.7 C 0 km/h
943 06-06-2003 13:53:00 28.6 C 10.96 g/m*3 28.6 C 0 km/h
944 06-06-2003 14:03:01 29.6 C 10.39 g/m*3 29.6 C 0 km/h
945 06-06-2003 14:13:01 29.8 C 10.8 g/m*3 29.8 C 0 km/h
946 06-06-2003 14:23:01 30.1 C 11.28 g/m*3 30.1 C 0 km/h
947 06-06-2003 14:33:01 30.4 C 10.23 g/m*3 30.4 C 0 km/h
948 06-06-2003 14:43:01 30.7 C 10.08 g/m*3 30.7 C 0 km/h
949 06-06-2003 14:53:01 30.4 C 10.23 g/m*3 30.4 C 0 km/h
950 06-06-2003 15:03:01 30.6 C 10.02 g/m*3 30.6 C 0 km/h
Sensor: Nr:Datum:Temp:Abs-Feuchte:Windchill:Wind:
Aussen-T/F 951 06-06-2003 15:13:01 30.3 C 10.48 g/m*3 30.3 C 0 km/h
952 06-06-2003 15:23:01 30.6 C 10.02 g/m*3 30.6 C 0 km/h
953 06-06-2003 15:33:02 30.7 C 9.76 g/m*3 30.7 C 0 km/h
954 06-06-2003 15:43:02 30.8 C 9.81 g/m*3 30.8 C 0 km/h
955 06-06-2003 15:53:02 31.3 C 10.41 g/m*3 31.3 C 0 km/h
956 06-06-2003 16:03:02 31.4 C 9.81 g/m*3 31.4 C 0 km/h
957 06-06-2003 16:13:02 31 C 9.92 g/m*3 31 C 0 km/h
958 06-06-2003 16:23:02 30.8 C 10.45 g/m*3 30.8 C 0 km/h
959 06-06-2003 16:33:18 31 C 10.24 g/m*3 31 C 0 km/h
960 06-06-2003 16:43:18 31.3 C 10.08 g/m*3 31.3 C 0 km/h
961 06-06-2003 16:53:01 30.7 C 10.08 g/m*3 30.7 C 0 km/h
962 06-06-2003 17:03:10 30.4 C 11.77 g/m*3 30.4 C 0 km/h
963 06-06-2003 17:13:01 30 C 12.43 g/m*3 30 C 0 km/h
964 06-06-2003 17:23:01 29.4 C 12.62 g/m*3 29.4 C 0 km/h
965 06-06-2003 17:33:02 29.1 C 13 g/m*3 29.1 C 0 km/h
966 06-06-2003 17:43:02 29.3 C 13.14 g/m*3 29.3 C 0 km/h
967 06-06-2003 17:53:02 29.5 C 12.69 g/m*3 29.5 C 0 km/h
968 06-06-2003 18:03:01 30.3 C 12.64 g/m*3 30.3 C 0 km/h
969 06-06-2003 18:13:01 30.8 C 12.66 g/m*3 30.8 C 0 km/h
970 06-06-2003 18:23:01 30.9 C 11.14 g/m*3 30.9 C 0 km/h
971 06-06-2003 18:33:01 31 C 11.52 g/m*3 31 C 0 km/h
972 06-06-2003 18:43:01 30.7 C 11.34 g/m*3 30.7 C 0 km/h
973 06-06-2003 18:53:01 30.5 C 11.22 g/m*3 30.5 C 0 km/h
974 06-06-2003 19:03:01 30.7 C 11.02 g/m*3 30.7 C 0 km/h
975 06-06-2003 19:13:01 30.2 C 10.12 g/m*3 30.2 C 0 km/h
Sensor: Nr:Datum:Temp:Abs-Feuchte:Windchill:Wind:
Aussen-T/F 976 06-06-2003 19:23:01 30.4 C 11.47 g/m*3 30.4 C 0 km/h
977 06-06-2003 19:33:01 30.6 C 10.96 g/m*3 30.6 C 0 km/h
978 06-06-2003 19:43:01 30.6 C 11.59 g/m*3 30.6 C 0 km/h
979 06-06-2003 19:53:01 30.4 C 12.08 g/m*3 30.4 C 0 km/h
980 06-06-2003 20:03:02 30 C 12.43 g/m*3 30 C 0 km/h
981 06-06-2003 20:13:02 29.6 C 12.46 g/m*3 29.6 C 0 km/h
982 06-06-2003 20:23:02 28.8 C 12.5 g/m*3 28.8 C 0 km/h
983 06-06-2003 20:33:02 28 C 12.51 g/m*3 28 C 0 km/h
984 06-06-2003 20:43:02 27.4 C 12.37 g/m*3 27.4 C 0 km/h
985 06-06-2003 20:53:02 26.7 C 12.4 g/m*3 26.7 C 0 km/h
986 06-06-2003 21:03:02 25.5 C 12.31 g/m*3 25.5 C 0 km/h
987 06-06-2003 21:13:02 25 C 12.43 g/m*3 25 C 0 km/h
988 06-06-2003 21:23:02 24.3 C 11.73 g/m*3 24.3 C 0 km/h
989 06-06-2003 21:33:01 24 C 11.75 g/m*3 24 C 0 km/h
990 06-06-2003 21:43:01 23.6 C 11.91 g/m*3 23.6 C 0 km/h
991 06-06-2003 21:53:01 23.3 C 11.71 g/m*3 23.3 C 0 km/h
992 06-06-2003 22:03:01 23 C 11.72 g/m*3 23 C 0 km/h
993 06-06-2003 22:13:01 22.9 C 12.06 g/m*3 22.9 C 0 km/h
994 06-06-2003 22:23:01 22.8 C 11.99 g/m*3 22.8 C 0 km/h
995 06-06-2003 22:34:01 22.7 C 11.92 g/m*3 22.7 C 0 km/h
996 06-06-2003 22:44:01 22.4 C 11.92 g/m*3 22.4 C 0 km/h
997 06-06-2003 22:54:01 22.1 C 11.91 g/m*3 22.1 C 0 km/h
998 06-06-2003 23:04:01 22 C 12.03 g/m*3 22 C 0 km/h
999 06-06-2003 23:14:01 22 C 12.03 g/m*3 22 C 0 km/h
1000 06-06-2003 23:24:01 21.8 C 12.09 g/m*3 21.8 C 0 km/h
Sensor: Nr:Datum:Temp:Abs-Feuchte:Windchill:Wind:
Aussen-T/F 1001 06-06-2003 23:34:01 21.6 C 12.14 g/m*3 21.6 C 0 km/h
1002 06-06-2003 23:44:01 21.3 C 11.93 g/m*3 21.3 C 0 km/h
1003 06-06-2003 23:54:01 21.2 C 12.05 g/m*3 21.2 C 0 km/h
1004 07-06-2003 00:04:01 21 C 11.91 g/m*3 21 C 0 km/h
1005 07-06-2003 00:14:01 20.9 C 12.02 g/m*3 20.9 C 0 km/h
1006 07-06-2003 00:24:01 20.5 C 11.74 g/m*3 20.5 C 0 km/h
1007 07-06-2003 00:34:01 20.4 C 11.85 g/m*3 20.4 C 0 km/h
1008 07-06-2003 00:44:01 20.3 C 11.96 g/m*3 20.3 C 0 km/h
1009 07-06-2003 00:54:01 20.4 C 12.03 g/m*3 20.4 C 0 km/h
1010 07-06-2003 01:04:01 20.3 C 11.96 g/m*3 20.3 C 0 km/h
1011 07-06-2003 01:14:01 20.2 C 11.89 g/m*3 20.2 C 0 km/h
1012 07-06-2003 01:24:01 19.8 C 12.13 g/m*3 19.8 C 0 km/h
1013 07-06-2003 01:34:01 19.7 C 12.06 g/m*3 19.7 C 0 km/h
1014 07-06-2003 01:44:01 19.7 C 12.23 g/m*3 19.7 C 0 km/h
1015 07-06-2003 01:54:01 19.6 C 12.32 g/m*3 19.6 C 0 km/h
1016 07-06-2003 02:04:01 19.5 C 12.25 g/m*3 19.5 C 0 km/h
1017 07-06-2003 02:14:01 19.3 C 12.27 g/m*3 19.3 C 0 km/h
1018 07-06-2003 02:24:01 19.1 C 12.13 g/m*3 19.1 C 0 km/h
1019 07-06-2003 02:34:01 18.8 C 12.24 g/m*3 18.8 C 0 km/h
1020 07-06-2003 02:44:01 18.8 C 12.24 g/m*3 18.8 C 0 km/h
1021 07-06-2003 02:54:01 18.7 C 12.17 g/m*3 18.7 C 0 km/h
1022 07-06-2003 03:04:01 18.6 C 12.1 g/m*3 18.6 C 0 km/h
1023 07-06-2003 03:14:01 18.5 C 12.18 g/m*3 18.5 C 0 km/h
1024 07-06-2003 03:24:01 18.4 C 12.11 g/m*3 18.4 C 0 km/h
1025 07-06-2003 03:34:01 18.3 C 12.2 g/m*3 18.3 C 0 km/h
Sensor: Nr:Datum:Temp:Abs-Feuchte:Windchill:Wind:
Aussen-T/F 1026 07-06-2003 03:44:01 18.2 C 12.12 g/m*3 18.2 C 0 km/h
1027 07-06-2003 03:54:01 18.1 C 12.05 g/m*3 18.1 C 0 km/h
1028 07-06-2003 04:04:01 17.9 C 12.06 g/m*3 17.9 C 0 km/h
1029 07-06-2003 04:14:01 17.9 C 12.21 g/m*3 17.9 C 0 km/h
1030 07-06-2003 04:24:01 17.6 C 12.15 g/m*3 17.6 C 0 km/h
1031 07-06-2003 04:34:01 17.5 C 12.08 g/m*3 17.5 C 0 km/h
1032 07-06-2003 04:44:01 17.3 C 11.93 g/m*3 17.3 C 0 km/h
1033 07-06-2003 04:54:01 17.5 C 12.08 g/m*3 17.5 C 0 km/h
1034 07-06-2003 05:04:01 17.4 C 12 g/m*3 17.4 C 0 km/h
1035 07-06-2003 05:14:01 17.4 C 12.15 g/m*3 17.4 C 0 km/h
1036 07-06-2003 05:24:01 17.3 C 12.08 g/m*3 17.3 C 0 km/h
1037 07-06-2003 05:34:01 17.3 C 11.93 g/m*3 17.3 C 0 km/h
1038 07-06-2003 05:44:01 17.2 C 11.86 g/m*3 17.2 C 0 km/h
1039 07-06-2003 05:54:01 17.2 C 11.86 g/m*3 17.2 C 0 km/h
1040 07-06-2003 06:04:01 17.3 C 11.93 g/m*3 17.3 C 0 km/h
1041 07-06-2003 06:14:01 17.2 C 12.01 g/m*3 17.2 C 0 km/h
1042 07-06-2003 06:24:01 17.2 C 12.15 g/m*3 17.2 C 0 km/h
1043 07-06-2003 06:34:01 17.3 C 12.08 g/m*3 17.3 C 0 km/h
1044 07-06-2003 06:44:01 17.2 C 12.01 g/m*3 17.2 C 0 km/h
1045 07-06-2003 06:54:01 17.2 C 12.01 g/m*3 17.2 C 0 km/h
1046 07-06-2003 07:04:01 17.2 C 12.01 g/m*3 17.2 C 0 km/h
1047 07-06-2003 07:14:01 17.5 C 12.23 g/m*3 17.5 C 0 km/h
1048 07-06-2003 07:24:01 17.6 C 12.3 g/m*3 17.6 C 0 km/h
1049 07-06-2003 07:34:01 17.6 C 12.15 g/m*3 17.6 C 0 km/h
1050 07-06-2003 07:44:01 17.9 C 12.37 g/m*3 17.9 C 0 km/h
Sensor: Nr:Datum:Temp:Abs-Feuchte:Windchill:Wind:
Aussen-T/F 1051 07-06-2003 07:54:01 18.3 C 12.35 g/m*3 18.3 C 0 km/h
1052 07-06-2003 08:04:01 18.3 C 12.35 g/m*3 18.3 C 0 km/h
1053 07-06-2003 08:14:01 18.5 C 12.34 g/m*3 18.5 C 0 km/h
1054 07-06-2003 08:24:01 18.8 C 12.56 g/m*3 18.8 C 0 km/h
1055 07-06-2003 08:34:01 19.2 C 12.53 g/m*3 19.2 C 0 km/h
1056 07-06-2003 08:44:01 19.5 C 12.59 g/m*3 19.5 C 0 km/h
1057 07-06-2003 08:54:01 20 C 12.62 g/m*3 20 C 0 km/h
1058 07-06-2003 09:04:01 20.5 C 12.81 g/m*3 20.5 C 0 km/h
1059 07-06-2003 09:14:01 21.2 C 12.97 g/m*3 21.2 C 0 km/h
1060 07-06-2003 09:24:01 21.6 C 12.9 g/m*3 21.6 C 0 km/h
1061 07-06-2003 09:34:01 22 C 13 g/m*3 22 C 0 km/h
1062 07-06-2003 09:44:01 22.8 C 13.61 g/m*3 22.8 C 0 km/h
1063 07-06-2003 09:54:01 22.8 C 13.21 g/m*3 22.8 C 0 km/h
1064 07-06-2003 10:04:00 23.5 C 14.17 g/m*3 23.5 C 0 km/h
1065 07-06-2003 10:14:00 23.9 C 14.49 g/m*3 23.9 C 0 km/h
1066 07-06-2003 10:24:00 24.5 C 14.77 g/m*3 24.5 C 0 km/h
1067 07-06-2003 10:34:01 25.2 C 14.2 g/m*3 25.2 C 0 km/h
1068 07-06-2003 10:44:01 25.8 C 14.69 g/m*3 25.8 C 0 km/h
1069 07-06-2003 10:54:01 26.6 C 14.6 g/m*3 26.6 C 0 km/h
1070 07-06-2003 11:04:00 27 C 14.93 g/m*3 27 C 0 km/h
1071 07-06-2003 11:14:00 27.6 C 15.16 g/m*3 27.6 C 0 km/h
1072 07-06-2003 11:24:00 27.9 C 14.06 g/m*3 27.9 C 0 km/h
1073 07-06-2003 11:34:01 27.9 C 15.15 g/m*3 27.9 C 0 km/h
1074 07-06-2003 11:44:01 28.7 C 14.13 g/m*3 28.7 C 0 km/h
1075 07-06-2003 11:54:01 30 C 13.65 g/m*3 30 C 0 km/h
Sensor: Nr:Datum:Temp:Abs-Feuchte:Windchill:Wind:
Aussen-T/F 1076 07-06-2003 12:04:01 30.4 C 12.08 g/m*3 30.4 C 0 km/h
1077 07-06-2003 12:14:01 30.3 C 12.64 g/m*3 30.3 C 0 km/h
1078 07-06-2003 12:24:01 30.4 C 13.32 g/m*3 30.4 C 0 km/h
1079 07-06-2003 12:34:01 30.9 C 12.73 g/m*3 30.9 C 0 km/h
1080 07-06-2003 12:44:01 31.1 C 12.55 g/m*3 31.1 C 0 km/h
1081 07-06-2003 12:54:01 29.7 C 11.93 g/m*3 29.7 C 0 km/h
1082 07-06-2003 13:04:01 30.4 C 11.16 g/m*3 30.4 C 0 km/h
1083 07-06-2003 13:14:01 30.4 C 11.47 g/m*3 30.4 C 0 km/h
1084 07-06-2003 13:24:01 30.1 C 13.72 g/m*3 30.1 C 0 km/h
1085 07-06-2003 13:34:00 29.8 C 12.6 g/m*3 29.8 C 0 km/h
1086 07-06-2003 13:44:00 29 C 12.06 g/m*3 29 C 0 km/h
1087 07-06-2003 13:54:00 28.8 C 14.49 g/m*3 28.8 C 0 km/h
1088 07-06-2003 14:04:01 28.7 C 14.41 g/m*3 28.7 C 0 km/h
1089 07-06-2003 14:14:01 30.4 C 12.7 g/m*3 30.4 C 0 km/h
1090 07-06-2003 14:24:01 31.5 C 11.5 g/m*3 31.5 C 0 km/h
1091 07-06-2003 14:34:00 31.5 C 11.83 g/m*3 31.5 C 0 km/h
1092 07-06-2003 14:44:00 31.8 C 11.36 g/m*3 31.8 C 0 km/h
1093 07-06-2003 14:54:00 32.1 C 11.2 g/m*3 32.1 C 0 km/h
1094 07-06-2003 15:04:00 31.8 C 11.02 g/m*3 31.8 C 0 km/h
1095 07-06-2003 15:14:00 31 C 11.52 g/m*3 31 C 0 km/h
1096 07-06-2003 15:24:00 31.2 C 11.65 g/m*3 31.2 C 0 km/h
1097 07-06-2003 15:34:01 31.3 C 11.38 g/m*3 31.3 C 0 km/h
1098 07-06-2003 15:44:01 31.8 C 10.69 g/m*3 31.8 C 0 km/h
1099 07-06-2003 15:54:01 31.8 C 11.02 g/m*3 31.8 C 0 km/h
1100 07-06-2003 16:04:02 32.3 C 10.63 g/m*3 32.3 C 0 km/h
Sensor: Nr:Datum:Temp:Abs-Feuchte:Windchill:Wind:
Aussen-T/F 1101 07-06-2003 16:14:02 32.3 C 10.29 g/m*3 32.3 C 0 km/h
1102 07-06-2003 16:24:02 32.3 C 10.63 g/m*3 32.3 C 0 km/h
1103 07-06-2003 16:34:01 32.4 C 10 g/m*3 32.4 C 0 km/h
1104 07-06-2003 16:44:01 32.3 C 10.29 g/m*3 32.3 C 0 km/h
1105 07-06-2003 16:54:01 32.5 C 10.05 g/m*3 32.5 C 0 km/h
1106 07-06-2003 17:04:01 32.7 C 10.51 g/m*3 32.7 C 0 km/h
1107 07-06-2003 17:14:01 32.8 C 10.21 g/m*3 32.8 C 0 km/h
1108 07-06-2003 17:24:01 32.9 C 9.91 g/m*3 32.9 C 0 km/h
1109 07-06-2003 17:34:01 33.4 C 9.82 g/m*3 33.4 C 0 km/h
1110 07-06-2003 17:44:01 33.3 C 9.4 g/m*3 33.3 C 0 km/h
1111 07-06-2003 17:54:01 32.7 C 11.21 g/m*3 32.7 C 0 km/h
1112 07-06-2003 18:04:02 32.4 C 10.35 g/m*3 32.4 C 0 km/h
1113 07-06-2003 18:14:02 32.6 C 10.46 g/m*3 32.6 C 0 km/h
1114 07-06-2003 18:24:02 32 C 11.82 g/m*3 32 C 0 km/h
1115 07-06-2003 18:34:01 31.2 C 12.62 g/m*3 31.2 C 0 km/h
1116 07-06-2003 18:44:01 30.4 C 13.32 g/m*3 30.4 C 0 km/h
1117 07-06-2003 18:54:01 30.7 C 12.91 g/m*3 30.7 C 0 km/h
1118 07-06-2003 19:04:01 31.8 C 11.36 g/m*3 31.8 C 0 km/h
1119 07-06-2003 19:14:01 31.8 C 12.36 g/m*3 31.8 C 0 km/h
1120 07-06-2003 19:24:01 32 C 12.49 g/m*3 32 C 0 km/h
1121 07-06-2003 19:34:01 31.8 C 12.36 g/m*3 31.8 C 0 km/h
1122 07-06-2003 19:44:01 31.4 C 12.42 g/m*3 31.4 C 0 km/h
1123 07-06-2003 19:54:01 31 C 12.8 g/m*3 31 C 0 km/h
1124 07-06-2003 20:04:00 30.7 C 12.91 g/m*3 30.7 C 0 km/h
1125 07-06-2003 20:14:00 30.1 C 13.42 g/m*3 30.1 C 0 km/h
Sensor: Nr:Datum:Temp:Abs-Feuchte:Windchill:Wind:
Aussen-T/F 1126 07-06-2003 20:24:00 30 C 13.65 g/m*3 30 C 0 km/h
1127 07-06-2003 20:34:01 29.9 C 13.87 g/m*3 29.9 C 0 km/h
1128 07-06-2003 20:44:01 29 C 14.07 g/m*3 29 C 0 km/h
1129 07-06-2003 20:54:01 28.5 C 14.25 g/m*3 28.5 C 0 km/h
1130 07-06-2003 21:04:01 27.8 C 14.26 g/m*3 27.8 C 0 km/h
1131 07-06-2003 21:14:01 27 C 13.64 g/m*3 27 C 0 km/h
1132 07-06-2003 21:24:01 26.8 C 14 g/m*3 26.8 C 0 km/h
1133 07-06-2003 21:35:58 26.5 C 13.77 g/m*3 26.5 C 0 km/h
1134 07-06-2003 21:45:58 26.3 C 13.62 g/m*3 26.3 C 0 km/h
1135 07-06-2003 21:55:58 25.7 C 13.41 g/m*3 25.7 C 0 km/h
1136 07-06-2003 22:05:58 25.2 C 13.5 g/m*3 25.2 C 0 km/h
1137 07-06-2003 22:15:58 24.9 C 13.28 g/m*3 24.9 C 0 km/h
1138 07-06-2003 22:25:58 24.7 C 13.58 g/m*3 24.7 C 0 km/h
1139 07-06-2003 22:35:58 24.5 C 13.43 g/m*3 24.5 C 0 km/h
1140 07-06-2003 22:45:58 24.5 C 13.65 g/m*3 24.5 C 0 km/h
1141 07-06-2003 22:55:58 24.5 C 13.2 g/m*3 24.5 C 0 km/h
1142 07-06-2003 23:05:58 24.3 C 13.5 g/m*3 24.3 C 0 km/h
1143 07-06-2003 23:15:58 24.1 C 13.35 g/m*3 24.1 C 0 km/h
1144 07-06-2003 23:25:58 23.9 C 13.63 g/m*3 23.9 C 0 km/h
1145 07-06-2003 23:35:58 23.8 C 13.55 g/m*3 23.8 C 0 km/h
1146 07-06-2003 23:45:58 23.5 C 13.53 g/m*3 23.5 C 0 km/h
1147 07-06-2003 23:55:58 23.3 C 13.38 g/m*3 23.3 C 0 km/h
1148 08-06-2003 00:05:58 23.3 C 13.38 g/m*3 23.3 C 0 km/h
1149 08-06-2003 00:15:58 23.1 C 13.23 g/m*3 23.1 C 0 km/h
1150 08-06-2003 00:25:58 22.9 C 13.28 g/m*3 22.9 C 0 km/h
Sensor: Nr:Datum:Temp:Abs-Feuchte:Windchill:Wind:
Aussen-T/F 1151 08-06-2003 00:35:58 22.7 C 13.33 g/m*3 22.7 C 0 km/h
1152 08-06-2003 00:45:58 22.6 C 13.26 g/m*3 22.6 C 0 km/h
1153 08-06-2003 00:54:58 22.7 C 13.33 g/m*3 22.7 C 0 km/h
1154 08-06-2003 01:04:58 22.4 C 13.11 g/m*3 22.4 C 0 km/h
1155 08-06-2003 01:14:58 22.4 C 13.5 g/m*3 22.4 C 0 km/h
1156 08-06-2003 01:24:58 22.3 C 13.62 g/m*3 22.3 C 0 km/h
1157 08-06-2003 01:44:58 22.1 C 13.47 g/m*3 22.1 C 0 km/h
1158 08-06-2003 01:54:58 21.7 C 13.35 g/m*3 21.7 C 0 km/h
1159 08-06-2003 02:04:58 21.6 C 13.28 g/m*3 21.6 C 0 km/h
1160 08-06-2003 02:14:58 21.3 C 13.23 g/m*3 21.3 C 0 km/h
1161 08-06-2003 02:24:58 21.2 C 13.34 g/m*3 21.2 C 0 km/h
1162 08-06-2003 02:34:58 21 C 13.19 g/m*3 21 C 0 km/h
1163 08-06-2003 02:44:58 20.9 C 13.3 g/m*3 20.9 C 0 km/h
1164 08-06-2003 02:54:58 20.6 C 13.24 g/m*3 20.6 C 0 km/h
1165 08-06-2003 03:04:58 20.4 C 13.27 g/m*3 20.4 C 0 km/h
1166 08-06-2003 03:14:58 20.2 C 13.29 g/m*3 20.2 C 0 km/h
1167 08-06-2003 03:24:58 20.2 C 13.29 g/m*3 20.2 C 0 km/h
1168 08-06-2003 03:34:58 20.2 C 13.29 g/m*3 20.2 C 0 km/h
1169 08-06-2003 03:44:58 20 C 13.13 g/m*3 20 C 0 km/h
1170 08-06-2003 03:54:58 20 C 13.13 g/m*3 20 C 0 km/h
1171 08-06-2003 04:04:58 19.9 C 13.23 g/m*3 19.9 C 0 km/h
1172 08-06-2003 04:14:58 19.8 C 13.32 g/m*3 19.8 C 0 km/h
1173 08-06-2003 04:24:58 19.5 C 13.26 g/m*3 19.5 C 0 km/h
1174 08-06-2003 04:34:58 19.5 C 13.09 g/m*3 19.5 C 0 km/h
1175 08-06-2003 04:44:58 19.4 C 13.18 g/m*3 19.4 C 0 km/h
Sensor: Nr:Datum:Temp:Abs-Feuchte:Windchill:Wind:
Aussen-T/F 1176 08-06-2003 04:54:58 19.3 C 13.1 g/m*3 19.3 C 0 km/h
1177 08-06-2003 05:04:58 19.3 C 13.1 g/m*3 19.3 C 0 km/h
1178 08-06-2003 05:14:58 19.1 C 12.95 g/m*3 19.1 C 0 km/h
1179 08-06-2003 05:24:58 19.1 C 12.95 g/m*3 19.1 C 0 km/h
1180 08-06-2003 05:34:58 18.9 C 13.12 g/m*3 18.9 C 0 km/h
1181 08-06-2003 05:44:58 18.9 C 13.12 g/m*3 18.9 C 0 km/h
1182 08-06-2003 05:54:58 18.9 C 13.12 g/m*3 18.9 C 0 km/h
1183 08-06-2003 06:04:58 18.9 C 13.12 g/m*3 18.9 C 0 km/h
1184 08-06-2003 06:14:58 18.8 C 13.05 g/m*3 18.8 C 0 km/h
1185 08-06-2003 06:24:58 18.7 C 13.13 g/m*3 18.7 C 0 km/h
1186 08-06-2003 06:34:58 18.7 C 13.13 g/m*3 18.7 C 0 km/h
1187 08-06-2003 06:44:58 18.9 C 13.12 g/m*3 18.9 C 0 km/h
1188 08-06-2003 06:54:58 19.2 C 13.19 g/m*3 19.2 C 0 km/h
1189 08-06-2003 07:04:58 19.1 C 12.95 g/m*3 19.1 C 0 km/h
1190 08-06-2003 07:14:58 19.1 C 13.11 g/m*3 19.1 C 0 km/h
1191 08-06-2003 07:24:58 19.1 C 12.95 g/m*3 19.1 C 0 km/h
1192 08-06-2003 07:34:58 19.3 C 13.1 g/m*3 19.3 C 0 km/h
1193 08-06-2003 07:44:58 19.5 C 13.09 g/m*3 19.5 C 0 km/h
1194 08-06-2003 07:54:58 19.7 C 13.25 g/m*3 19.7 C 0 km/h
1195 08-06-2003 08:04:58 19.8 C 13.32 g/m*3 19.8 C 0 km/h
1196 08-06-2003 08:14:58 20.2 C 13.29 g/m*3 20.2 C 0 km/h
1197 08-06-2003 08:24:58 20.5 C 13.52 g/m*3 20.5 C 0 km/h
1198 08-06-2003 08:34:58 20.9 C 13.84 g/m*3 20.9 C 0 km/h
1199 08-06-2003 08:44:58 21.3 C 13.98 g/m*3 21.3 C 0 km/h
1200 08-06-2003 08:54:58 21.6 C 14.03 g/m*3 21.6 C 0 km/h
Sensor: Nr:Datum:Temp:Abs-Feuchte:Windchill:Wind:
Aussen-T/F 1201 08-06-2003 09:04:58 22.3 C 14.22 g/m*3 22.3 C 0 km/h
1202 08-06-2003 09:15:01 22.8 C 14.43 g/m*3 22.8 C 0 km/h
1203 08-06-2003 09:25:01 23.4 C 14.51 g/m*3 23.4 C 0 km/h
1204 08-06-2003 09:35:01 24.1 C 14.44 g/m*3 24.1 C 0 km/h
1205 08-06-2003 09:45:01 24.6 C 14.85 g/m*3 24.6 C 0 km/h
1206 08-06-2003 09:55:01 25.2 C 14.67 g/m*3 25.2 C 0 km/h
1207 08-06-2003 10:05:02 25.9 C 15.25 g/m*3 25.9 C 0 km/h
1208 08-06-2003 10:15:02 26.5 C 14.52 g/m*3 26.5 C 0 km/h
1209 08-06-2003 10:25:02 27.3 C 14.39 g/m*3 27.3 C 0 km/h
1210 08-06-2003 10:35:01 27.8 C 15.06 g/m*3 27.8 C 0 km/h
1211 08-06-2003 10:45:01 28.1 C 14.49 g/m*3 28.1 C 0 km/h
1212 08-06-2003 10:55:01 28.1 C 13.95 g/m*3 28.1 C 0 km/h
1213 08-06-2003 11:05:01 28.5 C 14.25 g/m*3 28.5 C 0 km/h
1214 08-06-2003 11:15:01 29 C 14.36 g/m*3 29 C 0 km/h
1215 08-06-2003 11:25:01 29.1 C 14.44 g/m*3 29.1 C 0 km/h
1216 08-06-2003 11:35:02 29.7 C 14.02 g/m*3 29.7 C 0 km/h
1217 08-06-2003 11:45:02 30.3 C 13.87 g/m*3 30.3 C 0 km/h
1218 08-06-2003 11:55:02 30.2 C 14.41 g/m*3 30.2 C 0 km/h
1219 08-06-2003 12:05:01 30.8 C 13.61 g/m*3 30.8 C 0 km/h
1220 08-06-2003 12:15:01 31.1 C 13.19 g/m*3 31.1 C 0 km/h
1221 08-06-2003 12:25:01 30.8 C 12.35 g/m*3 30.8 C 0 km/h
1222 08-06-2003 12:35:01 31.6 C 11.9 g/m*3 31.6 C 0 km/h
1223 08-06-2003 12:45:01 31.8 C 11.69 g/m*3 31.8 C 0 km/h
1224 08-06-2003 12:55:01 31.5 C 11.18 g/m*3 31.5 C 0 km/h
1225 08-06-2003 13:05:02 32 C 11.82 g/m*3 32 C 0 km/h
Sensor: Nr:Datum:Temp:Abs-Feuchte:Windchill:Wind:
Aussen-T/F 1226 08-06-2003 13:15:02 31.8 C 10.69 g/m*3 31.8 C 0 km/h
1227 08-06-2003 13:25:02 32.2 C 9.55 g/m*3 32.2 C 0 km/h
1228 08-06-2003 13:35:02 31.2 C 10.03 g/m*3 31.2 C 0 km/h
1229 08-06-2003 13:45:02 30.3 C 11.1 g/m*3 30.3 C 0 km/h
1230 08-06-2003 13:55:02 30.1 C 11.59 g/m*3 30.1 C 0 km/h
1231 08-06-2003 14:05:09 26.6 C 9.57 g/m*3 26.6 C 0 km/h
1232 08-06-2003 14:15:56 27.6 C 15.7 g/m*3 27.6 C 0 km/h
1233 08-06-2003 14:25:06 27.3 C 15.44 g/m*3 27.3 C 0 km/h
1234 08-06-2003 14:35:01 27.3 C 15.96 g/m*3 27.3 C 0 km/h
1235 08-06-2003 14:45:01 27.4 C 13.68 g/m*3 27.4 C 0 km/h
1236 08-06-2003 14:55:01 27.2 C 14.57 g/m*3 27.2 C 0 km/h
1237 08-06-2003 15:05:14 27.1 C 15.27 g/m*3 27.1 C 0 km/h
1238 08-06-2003 15:15:01 28.1 C 14.22 g/m*3 28.1 C 0 km/h
1239 08-06-2003 15:25:01 30 C 12.43 g/m*3 30 C 0 km/h
1240 08-06-2003 15:35:01 30.4 C 11.16 g/m*3 30.4 C 0 km/h
1241 08-06-2003 15:45:01 30.8 C 9.81 g/m*3 30.8 C 0 km/h
1242 08-06-2003 15:55:01 31.2 C 10.03 g/m*3 31.2 C 0 km/h
1243 08-06-2003 16:05:01 31.4 C 9.81 g/m*3 31.4 C 0 km/h
1244 08-06-2003 16:15:01 31.5 C 10.19 g/m*3 31.5 C 0 km/h
1245 08-06-2003 16:25:01 30.5 C 10.59 g/m*3 30.5 C 0 km/h
1246 08-06-2003 16:35:51 30 C 11.22 g/m*3 30 C 0 km/h
1247 08-06-2003 16:45:51 26.3 C 10.15 g/m*3 26.3 C 0 km/h
1248 08-06-2003 16:55:01 24.1 C 11.16 g/m*3 24.1 C 0 km/h
1249 08-06-2003 17:05:47 22.1 C 13.47 g/m*3 22.1 C 0 km/h
1250 08-06-2003 17:15:02 20.8 C 13.94 g/m*3 20.8 C 0 km/h
Sensor: Nr:Datum:Temp:Abs-Feuchte:Windchill:Wind:
Aussen-T/F 1251 08-06-2003 17:25:02 21 C 14.11 g/m*3 21 C 0 km/h
1252 08-06-2003 17:35:18 19.9 C 13.92 g/m*3 19.9 C 0 km/h
1253 08-06-2003 17:45:43 17.4 C 12.89 g/m*3 17.4 C 0 km/h
1254 08-06-2003 17:55:43 17.3 C 13.26 g/m*3 17.3 C 0 km/h
1255 08-06-2003 18:05:46 17.5 C 13.72 g/m*3 17.5 C 0 km/h
1256 08-06-2003 18:15:31 17.9 C 14.2 g/m*3 17.9 C 0 km/h
1257 08-06-2003 18:26:01 18.2 C 14.3 g/m*3 18.2 C 0 km/h
1258 08-06-2003 18:36:01 18.1 C 14.37 g/m*3 18.1 C 0 km/h
1259 08-06-2003 18:46:01 17.9 C 14.2 g/m*3 17.9 C 0 km/h
1260 08-06-2003 18:56:01 18.3 C 14.54 g/m*3 18.3 C 0 km/h
1261 08-06-2003 19:06:01 18.4 C 14.63 g/m*3 18.4 C 0 km/h
1262 08-06-2003 19:16:01 18.7 C 14.89 g/m*3 18.7 C 0 km/h
1263 08-06-2003 19:26:01 18.7 C 14.73 g/m*3 18.7 C 0 km/h
1264 08-06-2003 19:36:01 19.2 C 14.84 g/m*3 19.2 C 0 km/h
1265 08-06-2003 19:46:01 19.4 C 14.52 g/m*3 19.4 C 0 km/h
1266 08-06-2003 19:56:01 19.6 C 14.69 g/m*3 19.6 C 0 km/h
1267 08-06-2003 20:06:01 20 C 14.17 g/m*3 20 C 0 km/h
1268 08-06-2003 20:16:01 19.7 C 14.26 g/m*3 19.7 C 0 km/h
1269 08-06-2003 20:26:01 20.2 C 14.34 g/m*3 20.2 C 0 km/h
1270 08-06-2003 20:36:01 20.4 C 14.33 g/m*3 20.4 C 0 km/h
1271 08-06-2003 20:46:01 20.7 C 14.4 g/m*3 20.7 C 0 km/h
1272 08-06-2003 20:56:01 20.3 C 13.89 g/m*3 20.3 C 0 km/h
1273 08-06-2003 21:06:01 19.7 C 13.75 g/m*3 19.7 C 0 km/h
1274 08-06-2003 21:16:01 19.7 C 13.92 g/m*3 19.7 C 0 km/h
1275 08-06-2003 21:26:01 19.5 C 13.93 g/m*3 19.5 C 0 km/h
Sensor: Nr:Datum:Temp:Abs-Feuchte:Windchill:Wind:
Aussen-T/F 1276 08-06-2003 21:36:01 19.3 C 13.93 g/m*3 19.3 C 0 km/h
1277 08-06-2003 21:46:01 19.1 C 13.77 g/m*3 19.1 C 0 km/h
1278 08-06-2003 21:56:01 19.2 C 14.02 g/m*3 19.2 C 0 km/h
1279 08-06-2003 22:06:01 19.3 C 14.26 g/m*3 19.3 C 0 km/h
1280 08-06-2003 22:16:01 19.3 C 14.26 g/m*3 19.3 C 0 km/h
1281 08-06-2003 22:26:01 18.9 C 14.09 g/m*3 18.9 C 0 km/h
1282 08-06-2003 22:36:01 18.9 C 14.26 g/m*3 18.9 C 0 km/h
1283 08-06-2003 22:46:01 18.8 C 14.17 g/m*3 18.8 C 0 km/h
1284 08-06-2003 22:56:01 18.8 C 14.17 g/m*3 18.8 C 0 km/h
1285 08-06-2003 23:06:01 18.9 C 14.26 g/m*3 18.9 C 0 km/h
1286 08-06-2003 23:16:01 19.1 C 14.26 g/m*3 19.1 C 0 km/h
1287 08-06-2003 23:26:01 19.1 C 14.26 g/m*3 19.1 C 0 km/h
1288 08-06-2003 23:36:01 19.2 C 13.85 g/m*3 19.2 C 0 km/h
1289 08-06-2003 23:46:01 19.2 C 13.03 g/m*3 19.2 C 0 km/h
1290 08-06-2003 23:56:01 19 C 12.71 g/m*3 19 C 0 km/h
1291 09-06-2003 00:06:01 18.8 C 12.08 g/m*3 18.8 C 0 km/h
1292 09-06-2003 00:16:01 18.4 C 10.07 g/m*3 18.4 C 0 km/h
1293 09-06-2003 00:26:01 18.1 C 9.58 g/m*3 18.1 C 0 km/h
1294 09-06-2003 00:36:01 17.8 C 9.71 g/m*3 17.8 C 0 km/h
1295 09-06-2003 00:46:01 17.7 C 9.51 g/m*3 17.7 C 0 km/h
1296 09-06-2003 00:56:01 17.5 C 9.09 g/m*3 17.5 C 0 km/h
1297 09-06-2003 01:06:01 17.3 C 8.4 g/m*3 17.3 C 0 km/h
1298 09-06-2003 01:16:01 16.9 C 9.21 g/m*3 16.9 C 0 km/h
1299 09-06-2003 01:26:01 16.8 C 8.86 g/m*3 16.8 C 0 km/h
1300 09-06-2003 01:36:01 16.8 C 9.15 g/m*3 16.8 C 0 km/h
Sensor: Nr:Datum:Temp:Abs-Feuchte:Windchill:Wind:
Aussen-T/F 1301 09-06-2003 01:46:01 16.4 C 9.21 g/m*3 16.4 C 0 km/h
1302 09-06-2003 01:56:01 16.2 C 8.55 g/m*3 16.2 C 0 km/h
1303 09-06-2003 02:06:01 16.2 C 8.41 g/m*3 16.2 C 0 km/h
1304 09-06-2003 02:16:01 16 C 8.58 g/m*3 16 C 0 km/h
1305 09-06-2003 02:26:01 15.8 C 8.75 g/m*3 15.8 C 0 km/h
1306 09-06-2003 02:36:01 15.5 C 8.33 g/m*3 15.5 C 0 km/h
1307 09-06-2003 02:46:01 15.2 C 8.18 g/m*3 15.2 C 0 km/h
1308 09-06-2003 02:56:01 14.8 C 8.49 g/m*3 14.8 C 0 km/h
1309 09-06-2003 03:06:01 14.6 C 8.76 g/m*3 14.6 C 0 km/h
1310 09-06-2003 03:16:01 14.5 C 8.71 g/m*3 14.5 C 0 km/h
1311 09-06-2003 03:26:01 14.8 C 8.36 g/m*3 14.8 C 0 km/h
1312 09-06-2003 03:36:01 14.7 C 8.31 g/m*3 14.7 C 0 km/h
1313 09-06-2003 03:46:01 14.7 C 8.81 g/m*3 14.7 C 0 km/h
1314 09-06-2003 03:56:01 14.6 C 8.63 g/m*3 14.6 C 0 km/h
1315 09-06-2003 04:06:01 14.5 C 8.71 g/m*3 14.5 C 0 km/h
1316 09-06-2003 04:16:01 14.2 C 8.3 g/m*3 14.2 C 0 km/h
1317 09-06-2003 04:26:01 14 C 8.08 g/m*3 14 C 0 km/h
1318 09-06-2003 04:36:01 13.6 C 8 g/m*3 13.6 C 0 km/h
1319 09-06-2003 04:46:01 13.4 C 8.02 g/m*3 13.4 C 0 km/h
1320 09-06-2003 04:56:01 13.2 C 8.27 g/m*3 13.2 C 0 km/h
1321 09-06-2003 05:06:01 12.8 C 8.29 g/m*3 12.8 C 0 km/h
1322 09-06-2003 05:16:01 12.7 C 8.57 g/m*3 12.7 C 0 km/h
1323 09-06-2003 05:26:01 12.6 C 8.52 g/m*3 12.6 C 0 km/h
1324 09-06-2003 05:36:01 12.6 C 8.52 g/m*3 12.6 C 0 km/h
1325 09-06-2003 05:46:01 12.7 C 8.68 g/m*3 12.7 C 0 km/h
Sensor: Nr:Datum:Temp:Abs-Feuchte:Windchill:Wind:
Aussen-T/F 1326 09-06-2003 05:56:01 12.6 C 8.63 g/m*3 12.6 C 0 km/h
1327 09-06-2003 06:06:01 12.5 C 8.58 g/m*3 12.5 C 0 km/h
1328 09-06-2003 06:16:01 12.4 C 8.63 g/m*3 12.4 C 0 km/h
1329 09-06-2003 06:26:01 12.4 C 8.74 g/m*3 12.4 C 0 km/h
1330 09-06-2003 06:36:01 12.7 C 9.02 g/m*3 12.7 C 0 km/h
1331 09-06-2003 06:46:01 12.8 C 8.96 g/m*3 12.8 C 0 km/h
1332 09-06-2003 06:56:01 13.3 C 8.9 g/m*3 13.3 C 0 km/h
1333 09-06-2003 07:06:01 13.5 C 8.77 g/m*3 13.5 C 0 km/h
1334 09-06-2003 07:16:01 13.6 C 8.36 g/m*3 13.6 C 0 km/h
1335 09-06-2003 07:26:01 13.5 C 8.07 g/m*3 13.5 C 0 km/h
1336 09-06-2003 07:36:01 13.6 C 8.24 g/m*3 13.6 C 0 km/h
1337 09-06-2003 07:46:01 13.7 C 8.41 g/m*3 13.7 C 0 km/h
1338 09-06-2003 07:56:01 13.7 C 8.05 g/m*3 13.7 C 0 km/h
1339 09-06-2003 08:06:01 13.8 C 7.98 g/m*3 13.8 C 0 km/h
1340 09-06-2003 08:16:01 13.9 C 7.79 g/m*3 13.9 C 0 km/h
1341 09-06-2003 08:26:01 14.1 C 7.77 g/m*3 14.1 C 0 km/h
1342 09-06-2003 08:36:01 14.4 C 7.42 g/m*3 14.4 C 0 km/h
1343 09-06-2003 08:46:01 14.4 C 7.42 g/m*3 14.4 C 0 km/h
1344 09-06-2003 08:56:01 14.7 C 7.3 g/m*3 14.7 C 0 km/h
1345 09-06-2003 09:06:01 14.8 C 6.97 g/m*3 14.8 C 0 km/h
1346 09-06-2003 09:16:01 15.2 C 7.01 g/m*3 15.2 C 0 km/h
1347 09-06-2003 09:26:01 15.4 C 6.96 g/m*3 15.4 C 0 km/h
1348 09-06-2003 09:36:01 15.6 C 6.92 g/m*3 15.6 C 0 km/h
1349 09-06-2003 09:46:01 16 C 6.95 g/m*3 16 C 0 km/h
1350 09-06-2003 09:56:01 16.4 C 7.26 g/m*3 16.4 C 0 km/h
Sensor: Nr:Datum:Temp:Abs-Feuchte:Windchill:Wind:
Aussen-T/F 1351 09-06-2003 10:06:00 16.6 C 6.92 g/m*3 16.6 C 0 km/h
1352 09-06-2003 10:16:00 16.9 C 7.19 g/m*3 16.9 C 0 km/h
1353 09-06-2003 10:26:00 17.4 C 6.97 g/m*3 17.4 C 0 km/h
1354 09-06-2003 10:36:08 17.5 C 6.86 g/m*3 17.5 C 0 km/h
1355 09-06-2003 10:46:08 18.1 C 7.26 g/m*3 18.1 C 0 km/h
1356 09-06-2003 10:56:01 18.3 C 7.19 g/m*3 18.3 C 0 km/h
1357 09-06-2003 11:06:01 18.4 C 6.76 g/m*3 18.4 C 0 km/h
1358 09-06-2003 11:16:01 18.9 C 6.97 g/m*3 18.9 C 0 km/h
1359 09-06-2003 11:26:01 19 C 7.01 g/m*3 19 C 0 km/h
1360 09-06-2003 11:36:01 19.3 C 6.97 g/m*3 19.3 C 0 km/h
1361 09-06-2003 11:46:01 20.3 C 7.56 g/m*3 20.3 C 0 km/h
1362 09-06-2003 11:56:01 20 C 7.09 g/m*3 20 C 0 km/h
1363 09-06-2003 12:06:01 20.5 C 6.94 g/m*3 20.5 C 0 km/h
1364 09-06-2003 12:16:01 21.3 C 6.9 g/m*3 21.3 C 0 km/h
1365 09-06-2003 12:26:01 21.8 C 6.91 g/m*3 21.8 C 0 km/h
1366 09-06-2003 12:36:01 21.6 C 6.83 g/m*3 21.6 C 0 km/h
1367 09-06-2003 12:46:01 23.1 C 6.61 g/m*3 23.1 C 0 km/h
1368 09-06-2003 12:56:01 23.1 C 6.82 g/m*3 23.1 C 0 km/h
1369 09-06-2003 13:06:01 24.2 C 6.82 g/m*3 24.2 C 0 km/h
1370 09-06-2003 13:16:01 24.4 C 6.68 g/m*3 24.4 C 0 km/h
1371 09-06-2003 13:26:01 23.7 C 6.63 g/m*3 23.7 C 0 km/h
1372 09-06-2003 13:36:53 23.8 C 6.67 g/m*3 23.8 C 0 km/h
1373 09-06-2003 13:46:53 24.7 C 6.79 g/m*3 24.7 C 0 km/h
1374 09-06-2003 13:56:53 24.1 C 6.78 g/m*3 24.1 C 0 km/h
1375 09-06-2003 14:06:01 24.2 C 7.26 g/m*3 24.2 C 0 km/h
Sensor: Nr:Datum:Temp:Abs-Feuchte:Windchill:Wind:
Aussen-T/F 1376 09-06-2003 14:16:01 24.5 C 7.16 g/m*3 24.5 C 0 km/h
1377 09-06-2003 14:26:01 24.4 C 6.9 g/m*3 24.4 C 0 km/h
1378 09-06-2003 14:36:01 25.3 C 7.49 g/m*3 25.3 C 0 km/h
1379 09-06-2003 14:46:01 24.5 C 7.16 g/m*3 24.5 C 0 km/h
1380 09-06-2003 14:56:01 25.9 C 7.75 g/m*3 25.9 C 0 km/h
1381 09-06-2003 15:06:01 25.1 C 6.94 g/m*3 25.1 C 0 km/h
1382 09-06-2003 15:16:01 25.8 C 7.22 g/m*3 25.8 C 0 km/h
1383 09-06-2003 15:26:01 26 C 7.3 g/m*3 26 C 0 km/h
1384 09-06-2003 15:36:01 26.4 C 6.97 g/m*3 26.4 C 0 km/h
1385 09-06-2003 15:46:01 26.2 C 6.89 g/m*3 26.2 C 0 km/h
1386 09-06-2003 15:56:01 26.1 C 6.61 g/m*3 26.1 C 0 km/h
1387 09-06-2003 16:06:00 26.4 C 7.47 g/m*3 26.4 C 0 km/h
1388 09-06-2003 16:16:00 26.7 C 7.59 g/m*3 26.7 C 0 km/h
1389 09-06-2003 16:26:00 28.4 C 7.78 g/m*3 28.4 C 0 km/h
1390 09-06-2003 16:36:01 28.6 C 7.03 g/m*3 28.6 C 0 km/h
1391 09-06-2003 16:46:01 28.2 C 6.6 g/m*3 28.2 C 0 km/h
1392 09-06-2003 16:56:01 27.8 C 6.72 g/m*3 27.8 C 0 km/h
1393 09-06-2003 17:06:02 28.3 C 7.19 g/m*3 28.3 C 0 km/h
1394 09-06-2003 17:16:00 27.6 C 6.92 g/m*3 27.6 C 0 km/h
1395 09-06-2003 17:16:02 27.6 C 6.92 g/m*3 27.6 C 0 km/h
1396 09-06-2003 17:26:00 28.7 C 7.06 g/m*3 28.7 C 0 km/h
1397 09-06-2003 17:36:00 28.4 C 6.67 g/m*3 28.4 C 0 km/h
1398 09-06-2003 17:46:00 27.8 C 6.99 g/m*3 27.8 C 0 km/h
1399 09-06-2003 17:56:00 27.8 C 6.99 g/m*3 27.8 C 0 km/h
1400 09-06-2003 18:06:01 27.5 C 6.35 g/m*3 27.5 C 0 km/h
Sensor: Nr:Datum:Temp:Abs-Feuchte:Windchill:Wind:
Aussen-T/F 1401 09-06-2003 18:16:01 28 C 7.07 g/m*3 28 C 0 km/h
1402 09-06-2003 18:26:01 27.9 C 6.22 g/m*3 27.9 C 0 km/h
1403 09-06-2003 18:36:01 28.5 C 6.15 g/m*3 28.5 C 0 km/h
1404 09-06-2003 18:46:01 28.4 C 6.67 g/m*3 28.4 C 0 km/h
1405 09-06-2003 18:56:01 28.4 C 7.78 g/m*3 28.4 C 0 km/h
1406 09-06-2003 19:06:01 28.3 C 7.74 g/m*3 28.3 C 0 km/h
1407 09-06-2003 19:16:01 28.5 C 7.83 g/m*3 28.5 C 0 km/h
1408 09-06-2003 19:26:01 27.6 C 7.71 g/m*3 27.6 C 0 km/h
1409 09-06-2003 19:36:02 27.3 C 8.63 g/m*3 27.3 C 0 km/h
1410 09-06-2003 19:46:02 27.1 C 8.28 g/m*3 27.1 C 0 km/h
1411 09-06-2003 19:56:02 26.6 C 8.81 g/m*3 26.6 C 0 km/h
1412 09-06-2003 20:06:02 25.9 C 8.96 g/m*3 25.9 C 0 km/h
1413 09-06-2003 20:26:02 24.1 C 8.97 g/m*3 24.1 C 0 km/h
1414 09-06-2003 20:36:01 23.8 C 9.03 g/m*3 23.8 C 0 km/h
1415 09-06-2003 20:46:01 23.8 C 9.03 g/m*3 23.8 C 0 km/h
1416 09-06-2003 20:56:01 23.8 C 9.25 g/m*3 23.8 C 0 km/h
1417 09-06-2003 21:06:01 23.4 C 9.46 g/m*3 23.4 C 0 km/h
1418 09-06-2003 21:16:01 22.4 C 8.74 g/m*3 22.4 C 0 km/h
1419 09-06-2003 21:26:01 21.8 C 8.83 g/m*3 21.8 C 0 km/h
1420 09-06-2003 21:36:00 21.5 C 8.49 g/m*3 21.5 C 0 km/h
1421 09-06-2003 21:46:00 20.6 C 8.41 g/m*3 20.6 C 0 km/h
1422 09-06-2003 21:56:00 20.3 C 8.27 g/m*3 20.3 C 0 km/h
1423 09-06-2003 22:06:01 19.9 C 8.42 g/m*3 19.9 C 0 km/h
1424 09-06-2003 22:16:01 19.9 C 8.25 g/m*3 19.9 C 0 km/h
1425 09-06-2003 22:26:01 19.4 C 8.51 g/m*3 19.4 C 0 km/h
Sensor: Nr:Datum:Temp:Abs-Feuchte:Windchill:Wind:
Aussen-T/F 1426 09-06-2003 22:36:39 19.3 C 8.63 g/m*3 19.3 C 0 km/h
1427 09-06-2003 22:47:01 19 C 8.47 g/m*3 19 C 0 km/h
1428 09-06-2003 22:57:01 18.8 C 8.54 g/m*3 18.8 C 0 km/h
1429 09-06-2003 23:07:01 18.5 C 8.39 g/m*3 18.5 C 0 km/h
1430 09-06-2003 23:17:01 18.3 C 8.6 g/m*3 18.3 C 0 km/h
1431 09-06-2003 23:27:01 18.1 C 8.65 g/m*3 18.1 C 0 km/h
1432 09-06-2003 23:37:01 17.8 C 8.8 g/m*3 17.8 C 0 km/h
1433 09-06-2003 23:47:01 17.8 C 8.8 g/m*3 17.8 C 0 km/h
1434 09-06-2003 23:57:01 17.2 C 8.79 g/m*3 17.2 C 0 km/h
1435 10-06-2003 00:07:01 17.3 C 8.99 g/m*3 17.3 C 0 km/h
1436 10-06-2003 00:17:01 17.1 C 9.03 g/m*3 17.1 C 0 km/h
1437 10-06-2003 00:27:01 16.8 C 8.86 g/m*3 16.8 C 0 km/h
1438 10-06-2003 00:37:01 16.7 C 8.95 g/m*3 16.7 C 0 km/h
1439 10-06-2003 00:47:01 16.5 C 8.85 g/m*3 16.5 C 0 km/h
1440 10-06-2003 00:57:01 16.3 C 9.02 g/m*3 16.3 C 0 km/h
1441 10-06-2003 01:07:01 16.2 C 9.24 g/m*3 16.2 C 0 km/h
1442 10-06-2003 01:17:01 15.9 C 9.21 g/m*3 15.9 C 0 km/h
1443 10-06-2003 01:27:01 15.8 C 9.29 g/m*3 15.8 C 0 km/h
1444 10-06-2003 01:37:01 15.6 C 9.31 g/m*3 15.6 C 0 km/h
1445 10-06-2003 01:47:01 15.5 C 9.52 g/m*3 15.5 C 0 km/h
1446 10-06-2003 01:57:01 15.3 C 9.4 g/m*3 15.3 C 0 km/h
1447 10-06-2003 02:07:01 15.3 C 9.53 g/m*3 15.3 C 0 km/h
1448 10-06-2003 02:17:01 15.2 C 9.35 g/m*3 15.2 C 0 km/h
1449 10-06-2003 02:27:01 15.2 C 9.61 g/m*3 15.2 C 0 km/h
1450 10-06-2003 02:37:01 15 C 9.36 g/m*3 15 C 0 km/h
Sensor: Nr:Datum:Temp:Abs-Feuchte:Windchill:Wind:
Aussen-T/F 1451 10-06-2003 02:47:01 14.9 C 9.43 g/m*3 14.9 C 0 km/h
1452 10-06-2003 02:57:01 14.8 C 9.75 g/m*3 14.8 C 0 km/h
1453 10-06-2003 03:07:01 14.8 C 9.75 g/m*3 14.8 C 0 km/h
1454 10-06-2003 03:17:01 14.7 C 9.82 g/m*3 14.7 C 0 km/h
1455 10-06-2003 03:27:01 14.6 C 9.64 g/m*3 14.6 C 0 km/h
1456 10-06-2003 03:37:01 14.5 C 9.58 g/m*3 14.5 C 0 km/h
1457 10-06-2003 03:47:01 14.3 C 9.46 g/m*3 14.3 C 0 km/h
1458 10-06-2003 03:57:01 14.2 C 9.52 g/m*3 14.2 C 0 km/h
1459 10-06-2003 04:07:01 14.2 C 9.52 g/m*3 14.2 C 0 km/h
1460 10-06-2003 04:17:01 13.9 C 9.47 g/m*3 13.9 C 0 km/h
1461 10-06-2003 04:27:01 13.8 C 9.41 g/m*3 13.8 C 0 km/h
1462 10-06-2003 04:37:01 13.6 C 9.3 g/m*3 13.6 C 0 km/h
1463 10-06-2003 04:47:01 13.6 C 9.53 g/m*3 13.6 C 0 km/h
1464 10-06-2003 04:57:01 13.5 C 9.36 g/m*3 13.5 C 0 km/h
1465 10-06-2003 05:07:01 13.5 C 9.36 g/m*3 13.5 C 0 km/h
1466 10-06-2003 05:17:01 13.4 C 9.65 g/m*3 13.4 C 0 km/h
1467 10-06-2003 05:27:01 13.5 C 9.59 g/m*3 13.5 C 0 km/h
1468 10-06-2003 05:37:01 13.5 C 9.59 g/m*3 13.5 C 0 km/h
1469 10-06-2003 05:47:01 13.5 C 9.47 g/m*3 13.5 C 0 km/h
1470 10-06-2003 05:57:01 13.4 C 9.42 g/m*3 13.4 C 0 km/h
1471 10-06-2003 06:07:01 13.4 C 9.42 g/m*3 13.4 C 0 km/h
1472 10-06-2003 06:17:01 13.4 C 9.53 g/m*3 13.4 C 0 km/h
1473 10-06-2003 06:27:01 13.4 C 9.42 g/m*3 13.4 C 0 km/h
1474 10-06-2003 06:37:01 13.6 C 9.65 g/m*3 13.6 C 0 km/h
1475 10-06-2003 06:47:01 13.9 C 9.71 g/m*3 13.9 C 0 km/h
Sensor: Nr:Datum:Temp:Abs-Feuchte:Windchill:Wind:
Aussen-T/F 1476 10-06-2003 06:57:01 14.3 C 9.83 g/m*3 14.3 C 0 km/h
1477 10-06-2003 07:07:01 14.4 C 9.77 g/m*3 14.4 C 0 km/h
1478 10-06-2003 07:17:01 14.3 C 9.83 g/m*3 14.3 C 0 km/h
1479 10-06-2003 07:27:01 14.4 C 9.89 g/m*3 14.4 C 0 km/h
1480 10-06-2003 07:37:01 14.6 C 9.89 g/m*3 14.6 C 0 km/h
1481 10-06-2003 07:47:01 14.9 C 9.94 g/m*3 14.9 C 0 km/h
1482 10-06-2003 07:57:01 15.1 C 9.93 g/m*3 15.1 C 0 km/h
1483 10-06-2003 08:07:01 15.4 C 9.72 g/m*3 15.4 C 0 km/h
1484 10-06-2003 08:17:01 16.1 C 9.87 g/m*3 16.1 C 0 km/h
1485 10-06-2003 08:27:01 16.7 C 9.95 g/m*3 16.7 C 0 km/h
1486 10-06-2003 08:37:01 17.2 C 10.1 g/m*3 17.2 C 0 km/h
1487 10-06-2003 08:47:01 17.8 C 10.17 g/m*3 17.8 C 0 km/h
1488 10-06-2003 08:57:01 18.4 C 10.22 g/m*3 18.4 C 0 km/h
1489 10-06-2003 09:07:02 18.9 C 10.21 g/m*3 18.9 C 0 km/h
1490 10-06-2003 09:17:02 19.2 C 9.56 g/m*3 19.2 C 0 km/h
1491 10-06-2003 09:27:02 19.4 C 9.84 g/m*3 19.4 C 0 km/h
1492 10-06-2003 09:37:01 20.1 C 10.08 g/m*3 20.1 C 0 km/h
1493 10-06-2003 09:47:01 20.8 C 9.96 g/m*3 20.8 C 0 km/h
1494 10-06-2003 09:57:01 21.8 C 10.17 g/m*3 21.8 C 0 km/h
1495 10-06-2003 10:07:01 22.6 C 9.84 g/m*3 22.6 C 0 km/h
1496 10-06-2003 10:17:01 22.8 C 9.75 g/m*3 22.8 C 0 km/h
1497 10-06-2003 10:27:01 23.2 C 9.56 g/m*3 23.2 C 0 km/h
1498 10-06-2003 10:37:01 24 C 10.01 g/m*3 24 C 0 km/h
1499 10-06-2003 10:47:01 24 C 11.1 g/m*3 24 C 0 km/h
1500 10-06-2003 10:57:01 24.2 C 9.9 g/m*3 24.2 C 0 km/h
Sensor: Nr:Datum:Temp:Abs-Feuchte:Windchill:Wind:
Aussen-T/F 1501 10-06-2003 11:07:00 25.1 C 10.65 g/m*3 25.1 C 0 km/h
1502 10-06-2003 11:17:00 25.3 C 11 g/m*3 25.3 C 0 km/h
1503 10-06-2003 11:27:00 25.5 C 11.13 g/m*3 25.5 C 0 km/h
1504 10-06-2003 11:37:01 25.9 C 11.62 g/m*3 25.9 C 0 km/h
1505 10-06-2003 11:47:01 26.6 C 12.33 g/m*3 26.6 C 0 km/h
1506 10-06-2003 11:57:01 27.6 C 12.77 g/m*3 27.6 C 0 km/h
1507 10-06-2003 12:07:02 28.5 C 11.18 g/m*3 28.5 C 0 km/h
1508 10-06-2003 12:17:02 29.2 C 11.91 g/m*3 29.2 C 0 km/h
1509 10-06-2003 12:27:02 29.2 C 10.74 g/m*3 29.2 C 0 km/h
1510 10-06-2003 12:37:01 30.1 C 12.2 g/m*3 30.1 C 0 km/h
1511 10-06-2003 12:47:01 30.6 C 10.96 g/m*3 30.6 C 0 km/h
1512 10-06-2003 12:57:01 31.2 C 10.67 g/m*3 31.2 C 0 km/h
1513 10-06-2003 13:07:01 31.2 C 10.67 g/m*3 31.2 C 0 km/h
1514 10-06-2003 13:17:01 31.4 C 10.14 g/m*3 31.4 C 0 km/h
1515 10-06-2003 13:27:01 31.9 C 9.4 g/m*3 31.9 C 0 km/h
1516 10-06-2003 13:37:02 32.1 C 9.5 g/m*3 32.1 C 0 km/h
1517 10-06-2003 13:47:02 32 C 9.45 g/m*3 32 C 0 km/h
1518 10-06-2003 13:57:02 32 C 10.13 g/m*3 32 C 0 km/h
1519 10-06-2003 14:07:01 31.8 C 10.35 g/m*3 31.8 C 0 km/h
1520 10-06-2003 14:17:01 31.9 C 10.41 g/m*3 31.9 C 0 km/h
1521 10-06-2003 14:27:01 32 C 10.13 g/m*3 32 C 0 km/h
1522 10-06-2003 14:37:01 32.1 C 11.54 g/m*3 32.1 C 0 km/h
1523 10-06-2003 14:47:01 32 C 10.8 g/m*3 32 C 0 km/h
1524 10-06-2003 14:57:01 32 C 10.8 g/m*3 32 C 0 km/h
1525 10-06-2003 15:07:01 32.2 C 10.58 g/m*3 32.2 C 0 km/h
Sensor: Nr:Datum:Temp:Abs-Feuchte:Windchill:Wind:
Aussen-T/F 1526 10-06-2003 15:17:01 32.4 C 10.35 g/m*3 32.4 C 0 km/h
1527 10-06-2003 15:27:01 32.3 C 10.63 g/m*3 32.3 C 0 km/h
1528 10-06-2003 15:37:01 32.3 C 10.98 g/m*3 32.3 C 0 km/h
1529 10-06-2003 15:47:01 32.3 C 12.35 g/m*3 32.3 C 0 km/h
1530 10-06-2003 15:57:01 32 C 13.17 g/m*3 32 C 0 km/h
1531 10-06-2003 16:07:02 31.6 C 13.55 g/m*3 31.6 C 0 km/h
1532 10-06-2003 16:17:02 31.3 C 13.98 g/m*3 31.3 C 0 km/h
1533 10-06-2003 16:27:02 30.9 C 14.32 g/m*3 30.9 C 0 km/h
1534 10-06-2003 16:37:01 30.5 C 14.64 g/m*3 30.5 C 0 km/h
1535 10-06-2003 16:47:01 30.1 C 13.72 g/m*3 30.1 C 0 km/h
1536 10-06-2003 16:57:01 30.2 C 14.1 g/m*3 30.2 C 0 km/h
1537 10-06-2003 17:07:02 30.3 C 14.49 g/m*3 30.3 C 0 km/h
1538 10-06-2003 17:17:02 30.4 C 13.94 g/m*3 30.4 C 0 km/h
1539 10-06-2003 17:27:02 30.9 C 13.37 g/m*3 30.9 C 0 km/h
1540 10-06-2003 17:37:02 30.9 C 14.64 g/m*3 30.9 C 0 km/h
1541 10-06-2003 17:47:02 30.2 C 14.71 g/m*3 30.2 C 0 km/h
1542 10-06-2003 17:57:02 29.2 C 15.1 g/m*3 29.2 C 0 km/h
1543 10-06-2003 18:07:02 28 C 14.96 g/m*3 28 C 0 km/h
1544 10-06-2003 18:17:02 26.6 C 15.1 g/m*3 26.6 C 0 km/h
1545 10-06-2003 18:27:02 25.5 C 15.86 g/m*3 25.5 C 0 km/h
1546 10-06-2003 18:37:02 25.1 C 15.51 g/m*3 25.1 C 0 km/h
1547 10-06-2003 18:47:02 25 C 15.42 g/m*3 25 C 0 km/h
1548 10-06-2003 18:57:02 25.3 C 15.22 g/m*3 25.3 C 0 km/h
1549 10-06-2003 19:07:02 24.8 C 16.84 g/m*3 24.8 C 0 km/h
1550 10-06-2003 19:17:02 21.3 C 13.61 g/m*3 21.3 C 0 km/h
Sensor: Nr:Datum:Temp:Abs-Feuchte:Windchill:Wind:
Aussen-T/F 1551 10-06-2003 19:27:02 19.9 C 15.29 g/m*3 19.9 C 0 km/h
1552 10-06-2003 19:37:02 19.9 C 15.63 g/m*3 19.9 C 0 km/h
1553 10-06-2003 19:47:02 19.8 C 15.71 g/m*3 19.8 C 0 km/h
1554 10-06-2003 19:57:01 19.7 C 15.62 g/m*3 19.7 C 0 km/h
1555 10-06-2003 20:07:33 19.5 C 15.44 g/m*3 19.5 C 0 km/h
1556 10-06-2003 20:17:07 20.1 C 15.99 g/m*3 20.1 C 0 km/h
1557 10-06-2003 20:27:01 20 C 15.9 g/m*3 20 C 0 km/h
1558 10-06-2003 20:37:01 20.3 C 16.18 g/m*3 20.3 C 0 km/h
1559 10-06-2003 20:47:01 20.6 C 16.47 g/m*3 20.6 C 0 km/h
1560 10-06-2003 20:57:01 20.4 C 16.28 g/m*3 20.4 C 0 km/h
1561 10-06-2003 21:07:01 20.1 C 15.82 g/m*3 20.1 C 0 km/h
1562 10-06-2003 21:17:01 20.1 C 15.99 g/m*3 20.1 C 0 km/h
1563 10-06-2003 21:27:01 19.8 C 15.71 g/m*3 19.8 C 0 km/h
1564 10-06-2003 21:37:01 19.7 C 15.62 g/m*3 19.7 C 0 km/h
1565 10-06-2003 21:47:01 19.7 C 15.62 g/m*3 19.7 C 0 km/h
1566 10-06-2003 21:57:01 19.6 C 15.53 g/m*3 19.6 C 0 km/h
1567 10-06-2003 22:08:01 19.5 C 15.27 g/m*3 19.5 C 0 km/h
1568 10-06-2003 22:18:01 19.5 C 15.27 g/m*3 19.5 C 0 km/h
1569 10-06-2003 22:28:01 19.5 C 15.27 g/m*3 19.5 C 0 km/h
1570 10-06-2003 22:38:01 19.5 C 15.27 g/m*3 19.5 C 0 km/h
1571 10-06-2003 22:48:01 19.4 C 15.18 g/m*3 19.4 C 0 km/h
1572 10-06-2003 22:58:01 19.3 C 15.09 g/m*3 19.3 C 0 km/h
1573 10-06-2003 23:08:01 19.2 C 15.01 g/m*3 19.2 C 0 km/h
1574 10-06-2003 23:18:01 19.3 C 15.09 g/m*3 19.3 C 0 km/h
1575 10-06-2003 23:28:01 19.1 C 14.92 g/m*3 19.1 C 0 km/h
Sensor: Nr:Datum:Temp:Abs-Feuchte:Windchill:Wind:
Aussen-T/F 1576 10-06-2003 23:38:01 19.1 C 14.92 g/m*3 19.1 C 0 km/h
1577 10-06-2003 23:48:01 19.2 C 15.01 g/m*3 19.2 C 0 km/h
1578 10-06-2003 23:58:01 19.2 C 15.01 g/m*3 19.2 C 0 km/h
1579 11-06-2003 00:08:01 19.2 C 15.01 g/m*3 19.2 C 0 km/h
1580 11-06-2003 00:18:01 19.2 C 14.84 g/m*3 19.2 C 0 km/h
1581 11-06-2003 00:28:01 19.1 C 14.75 g/m*3 19.1 C 0 km/h
1582 11-06-2003 00:38:01 19.3 C 14.93 g/m*3 19.3 C 0 km/h
1583 11-06-2003 00:48:01 19.2 C 14.68 g/m*3 19.2 C 0 km/h
1584 11-06-2003 00:58:01 19.2 C 14.68 g/m*3 19.2 C 0 km/h
1585 11-06-2003 01:08:01 19.1 C 14.59 g/m*3 19.1 C 0 km/h
1586 11-06-2003 01:18:01 19.1 C 14.59 g/m*3 19.1 C 0 km/h
1587 11-06-2003 01:28:01 19.1 C 14.75 g/m*3 19.1 C 0 km/h
1588 11-06-2003 01:38:01 19.2 C 14.84 g/m*3 19.2 C 0 km/h
1589 11-06-2003 01:48:01 19.3 C 14.93 g/m*3 19.3 C 0 km/h
1590 11-06-2003 01:58:01 19 C 14.67 g/m*3 19 C 0 km/h
1591 11-06-2003 02:08:01 18.9 C 14.74 g/m*3 18.9 C 0 km/h
1592 11-06-2003 02:18:01 18.9 C 14.74 g/m*3 18.9 C 0 km/h
1593 11-06-2003 02:28:01 18.8 C 14.66 g/m*3 18.8 C 0 km/h
1594 11-06-2003 02:38:01 18.8 C 14.66 g/m*3 18.8 C 0 km/h
1595 11-06-2003 02:48:01 18.9 C 14.74 g/m*3 18.9 C 0 km/h
1596 11-06-2003 02:58:01 18.9 C 14.74 g/m*3 18.9 C 0 km/h
1597 11-06-2003 03:08:01 18.9 C 14.74 g/m*3 18.9 C 0 km/h
1598 11-06-2003 03:18:01 18.9 C 14.74 g/m*3 18.9 C 0 km/h
1599 11-06-2003 03:28:01 18.9 C 14.74 g/m*3 18.9 C 0 km/h
1600 11-06-2003 03:38:01 18.9 C 14.74 g/m*3 18.9 C 0 km/h
Sensor: Nr:Datum:Temp:Abs-Feuchte:Windchill:Wind:
Aussen-T/F 1601 11-06-2003 03:48:01 18.9 C 14.74 g/m*3 18.9 C 0 km/h
1602 11-06-2003 03:58:01 18.8 C 14.66 g/m*3 18.8 C 0 km/h
1603 11-06-2003 04:08:01 18.8 C 14.66 g/m*3 18.8 C 0 km/h
1604 11-06-2003 04:18:01 18.8 C 14.66 g/m*3 18.8 C 0 km/h
1605 11-06-2003 04:28:01 18.7 C 14.57 g/m*3 18.7 C 0 km/h
1606 11-06-2003 04:38:01 18.6 C 14.48 g/m*3 18.6 C 0 km/h
1607 11-06-2003 04:48:01 18.6 C 14.48 g/m*3 18.6 C 0 km/h
1608 11-06-2003 04:58:01 18.6 C 14.48 g/m*3 18.6 C 0 km/h
1609 11-06-2003 05:08:01 18.6 C 14.48 g/m*3 18.6 C 0 km/h
1610 11-06-2003 05:18:01 18.7 C 14.57 g/m*3 18.7 C 0 km/h
1611 11-06-2003 05:28:01 18.8 C 14.66 g/m*3 18.8 C 0 km/h
1612 11-06-2003 05:38:01 19 C 14.67 g/m*3 19 C 0 km/h
1613 11-06-2003 05:48:01 18.9 C 14.58 g/m*3 18.9 C 0 km/h
1614 11-06-2003 05:58:01 19.3 C 14.76 g/m*3 19.3 C 0 km/h
1615 11-06-2003 06:08:01 19.2 C 14.51 g/m*3 19.2 C 0 km/h
1616 11-06-2003 06:18:01 19.2 C 14.51 g/m*3 19.2 C 0 km/h
1617 11-06-2003 06:28:01 19.2 C 14.51 g/m*3 19.2 C 0 km/h
1618 11-06-2003 06:38:01 19.3 C 14.6 g/m*3 19.3 C 0 km/h
1619 11-06-2003 06:48:01 19.3 C 14.6 g/m*3 19.3 C 0 km/h
1620 11-06-2003 06:58:01 19.4 C 14.52 g/m*3 19.4 C 0 km/h
1621 11-06-2003 07:08:01 19.6 C 14.69 g/m*3 19.6 C 0 km/h
1622 11-06-2003 07:18:01 19.7 C 14.77 g/m*3 19.7 C 0 km/h
1623 11-06-2003 07:28:01 19.7 C 14.77 g/m*3 19.7 C 0 km/h
1624 11-06-2003 07:38:01 19.7 C 14.77 g/m*3 19.7 C 0 km/h
1625 11-06-2003 07:48:01 19.9 C 14.6 g/m*3 19.9 C 0 km/h
Sensor: Nr:Datum:Temp:Abs-Feuchte:Windchill:Wind:
Aussen-T/F 1626 11-06-2003 07:58:01 20 C 14.52 g/m*3 20 C 0 km/h
1627 11-06-2003 08:08:02 20.1 C 14.6 g/m*3 20.1 C 0 km/h
1628 11-06-2003 08:18:02 20.1 C 14.6 g/m*3 20.1 C 0 km/h
1629 11-06-2003 08:28:02 20.5 C 14.77 g/m*3 20.5 C 0 km/h
1630 11-06-2003 08:58:02 20.9 C 14.39 g/m*3 20.9 C 0 km/h
1631 11-06-2003 09:08:01 21.4 C 14.25 g/m*3 21.4 C 0 km/h
1632 11-06-2003 09:08:02 21.4 C 14.25 g/m*3 21.4 C 0 km/h
1633 11-06-2003 09:18:01 21.7 C 14.5 g/m*3 21.7 C 0 km/h
1634 11-06-2003 09:28:01 22 C 13.78 g/m*3 22 C 0 km/h
1635 11-06-2003 09:38:01 22.4 C 13.7 g/m*3 22.4 C 0 km/h
1636 11-06-2003 09:48:01 22.7 C 13.54 g/m*3 22.7 C 0 km/h
1637 11-06-2003 09:58:01 22.5 C 13.38 g/m*3 22.5 C 0 km/h
1638 11-06-2003 10:08:01 22.8 C 13.41 g/m*3 22.8 C 0 km/h
1639 11-06-2003 10:18:01 22.7 C 13.54 g/m*3 22.7 C 0 km/h
1640 11-06-2003 10:28:01 23 C 13.77 g/m*3 23 C 0 km/h
1641 11-06-2003 10:38:01 23.5 C 13.53 g/m*3 23.5 C 0 km/h
1642 11-06-2003 10:48:01 24.2 C 12.98 g/m*3 24.2 C 0 km/h
1643 11-06-2003 10:58:01 24.7 C 13.13 g/m*3 24.7 C 0 km/h
1644 11-06-2003 11:08:01 25.1 C 12.5 g/m*3 25.1 C 0 km/h
1645 11-06-2003 11:18:01 25.6 C 11.67 g/m*3 25.6 C 0 km/h
1646 11-06-2003 11:28:01 25.3 C 11.71 g/m*3 25.3 C 0 km/h
1647 11-06-2003 11:38:01 25.6 C 11.67 g/m*3 25.6 C 0 km/h
1648 11-06-2003 11:48:01 25.1 C 10.88 g/m*3 25.1 C 0 km/h
1649 11-06-2003 11:58:01 26.1 C 11.26 g/m*3 26.1 C 0 km/h
1650 11-06-2003 12:08:01 25.9 C 10.65 g/m*3 25.9 C 0 km/h
Sensor: Nr:Datum:Temp:Abs-Feuchte:Windchill:Wind:
Aussen-T/F 1651 11-06-2003 12:18:01 26.2 C 10.59 g/m*3 26.2 C 0 km/h
1652 11-06-2003 12:28:01 27.5 C 10.58 g/m*3 27.5 C 0 km/h
1653 11-06-2003 12:38:01 26.9 C 9.47 g/m*3 26.9 C 0 km/h
1654 11-06-2003 12:48:01 27.3 C 9.16 g/m*3 27.3 C 0 km/h
1655 11-06-2003 12:58:01 26.9 C 8.7 g/m*3 26.9 C 0 km/h
1656 11-06-2003 13:08:01 27.7 C 8.83 g/m*3 27.7 C 0 km/h
1657 11-06-2003 13:18:01 28.8 C 9.38 g/m*3 28.8 C 0 km/h
1658 11-06-2003 13:28:01 27.8 C 8.61 g/m*3 27.8 C 0 km/h
1659 11-06-2003 13:38:00 28.9 C 9.14 g/m*3 28.9 C 0 km/h
1660 11-06-2003 13:48:00 28.3 C 9.12 g/m*3 28.3 C 0 km/h
1661 11-06-2003 13:58:00 28 C 8.43 g/m*3 28 C 0 km/h
1662 11-06-2003 14:08:01 27.7 C 8.83 g/m*3 27.7 C 0 km/h
1663 11-06-2003 14:18:01 28.1 C 9.57 g/m*3 28.1 C 0 km/h
1664 11-06-2003 14:28:01 28.3 C 9.4 g/m*3 28.3 C 0 km/h
1665 11-06-2003 14:38:00 27.9 C 9.47 g/m*3 27.9 C 0 km/h
1666 11-06-2003 14:48:00 28.1 C 9.3 g/m*3 28.1 C 0 km/h
1667 11-06-2003 15:08:01 29.3 C 9.34 g/m*3 29.3 C 0 km/h
1668 11-06-2003 15:18:01 29.4 C 9.1 g/m*3 29.4 C 0 km/h
1669 11-06-2003 15:28:01 29.5 C 9.15 g/m*3 29.5 C 0 km/h
1670 11-06-2003 15:38:01 29.2 C 9.29 g/m*3 29.2 C 0 km/h
1671 11-06-2003 15:48:01 29.6 C 9.2 g/m*3 29.6 C 0 km/h
1672 11-06-2003 15:58:01 29.5 C 8.85 g/m*3 29.5 C 0 km/h
1673 11-06-2003 16:08:01 29.5 C 8.85 g/m*3 29.5 C 0 km/h
1674 11-06-2003 16:18:01 29.6 C 8.9 g/m*3 29.6 C 0 km/h
1675 11-06-2003 16:28:01 30 C 9.4 g/m*3 30 C 0 km/h
Sensor: Nr:Datum:Temp:Abs-Feuchte:Windchill:Wind:
Aussen-T/F 1676 11-06-2003 16:38:02 30.1 C 9.15 g/m*3 30.1 C 0 km/h
1677 11-06-2003 16:48:02 30.3 C 9.25 g/m*3 30.3 C 0 km/h
1678 11-06-2003 16:58:02 30.6 C 9.4 g/m*3 30.6 C 0 km/h
1679 11-06-2003 17:08:01 30.8 C 8.86 g/m*3 30.8 C 0 km/h
1680 11-06-2003 17:18:01 30.3 C 8.94 g/m*3 30.3 C 0 km/h
1681 11-06-2003 17:28:01 30.1 C 9.15 g/m*3 30.1 C 0 km/h
1682 11-06-2003 17:38:02 30.1 C 9.45 g/m*3 30.1 C 0 km/h
1683 11-06-2003 17:48:02 30 C 9.1 g/m*3 30 C 0 km/h
1684 11-06-2003 17:58:02 30 C 8.79 g/m*3 30 C 0 km/h
1685 11-06-2003 18:08:02 30.1 C 9.15 g/m*3 30.1 C 0 km/h
1686 11-06-2003 18:18:02 30 C 8.79 g/m*3 30 C 0 km/h
1687 11-06-2003 18:28:02 29.7 C 8.95 g/m*3 29.7 C 0 km/h
1688 11-06-2003 18:38:01 29.4 C 9.39 g/m*3 29.4 C 0 km/h
1689 11-06-2003 18:48:01 30 C 9.4 g/m*3 30 C 0 km/h
1690 11-06-2003 18:58:01 29.9 C 9.35 g/m*3 29.9 C 0 km/h
1691 11-06-2003 19:08:00 30 C 9.4 g/m*3 30 C 0 km/h
1692 11-06-2003 19:18:00 30 C 9.4 g/m*3 30 C 0 km/h
1693 11-06-2003 19:28:00 30 C 10.31 g/m*3 30 C 0 km/h
1694 11-06-2003 19:37:44 30.3 C 10.48 g/m*3 30.3 C 0 km/h
1695 11-06-2003 19:43:44 29.7 C 9.85 g/m*3 29.7 C 0 km/h
1696 11-06-2003 19:49:44 29.9 C 10.56 g/m*3 29.9 C 0 km/h
1697 11-06-2003 19:55:44 29 C 10.63 g/m*3 29 C 0 km/h
1698 11-06-2003 20:01:01 29.2 C 11.03 g/m*3 29.2 C 0 km/h
1699 11-06-2003 20:07:01 29.1 C 10.97 g/m*3 29.1 C 0 km/h
1700 11-06-2003 20:13:01 29 C 11.2 g/m*3 29 C 0 km/h
Sensor: Nr:Datum:Temp:Abs-Feuchte:Windchill:Wind:
Aussen-T/F 1701 11-06-2003 20:19:01 29 C 11.2 g/m*3 29 C 0 km/h
1702 11-06-2003 20:25:01 28.4 C 11.12 g/m*3 28.4 C 0 km/h
1703 11-06-2003 20:31:01 28.2 C 11.27 g/m*3 28.2 C 0 km/h
1704 11-06-2003 20:37:02 28 C 11.42 g/m*3 28 C 0 km/h
1705 11-06-2003 20:43:02 27.5 C 11.38 g/m*3 27.5 C 0 km/h
1706 11-06-2003 20:49:02 27.3 C 11.51 g/m*3 27.3 C 0 km/h
1707 11-06-2003 20:55:02 27.3 C 11.77 g/m*3 27.3 C 0 km/h
1708 11-06-2003 21:01:02 26.8 C 11.71 g/m*3 26.8 C 0 km/h
1709 11-06-2003 21:07:02 26.4 C 12.2 g/m*3 26.4 C 0 km/h
1710 11-06-2003 21:19:02 25.6 C 12.62 g/m*3 25.6 C 0 km/h
1711 11-06-2003 21:25:02 25.1 C 12.27 g/m*3 25.1 C 0 km/h
1712 11-06-2003 21:31:02 24.8 C 12.29 g/m*3 24.8 C 0 km/h
1713 11-06-2003 21:37:01 24.4 C 12.24 g/m*3 24.4 C 0 km/h
1714 11-06-2003 21:43:01 23.9 C 12.11 g/m*3 23.9 C 0 km/h
1715 11-06-2003 21:49:01 23.6 C 12.34 g/m*3 23.6 C 0 km/h
1716 11-06-2003 21:55:01 23.5 C 12.48 g/m*3 23.5 C 0 km/h
1717 11-06-2003 22:01:01 23.5 C 12.69 g/m*3 23.5 C 0 km/h
1718 11-06-2003 22:08:02 23.2 C 12.27 g/m*3 23.2 C 0 km/h
1719 11-06-2003 22:14:02 22.9 C 12.06 g/m*3 22.9 C 0 km/h
1720 11-06-2003 22:20:02 22.7 C 11.92 g/m*3 22.7 C 0 km/h
1721 11-06-2003 22:26:02 22.5 C 11.98 g/m*3 22.5 C 0 km/h
1722 11-06-2003 22:32:02 22.1 C 11.91 g/m*3 22.1 C 0 km/h
1723 11-06-2003 22:38:02 22 C 12.23 g/m*3 22 C 0 km/h
1724 11-06-2003 22:44:02 21.9 C 11.96 g/m*3 21.9 C 0 km/h
1725 11-06-2003 22:50:02 21.9 C 11.96 g/m*3 21.9 C 0 km/h
Sensor: Nr:Datum:Temp:Abs-Feuchte:Windchill:Wind:
Aussen-T/F 1726 11-06-2003 22:56:02 21.7 C 12.02 g/m*3 21.7 C 0 km/h
1727 11-06-2003 23:02:02 21.6 C 12.14 g/m*3 21.6 C 0 km/h
1728 11-06-2003 23:08:02 21.6 C 12.14 g/m*3 21.6 C 0 km/h
1729 11-06-2003 23:14:02 21.6 C 12.14 g/m*3 21.6 C 0 km/h
1730 11-06-2003 23:20:02 21.6 C 11.95 g/m*3 21.6 C 0 km/h
1731 11-06-2003 23:26:02 21.6 C 11.95 g/m*3 21.6 C 0 km/h
1732 11-06-2003 23:32:02 21.6 C 11.95 g/m*3 21.6 C 0 km/h
1733 11-06-2003 23:38:02 21.3 C 12.12 g/m*3 21.3 C 0 km/h
1734 11-06-2003 23:44:02 21.2 C 12.05 g/m*3 21.2 C 0 km/h
1735 11-06-2003 23:50:02 21 C 11.91 g/m*3 21 C 0 km/h
1736 11-06-2003 23:56:02 20.8 C 12.13 g/m*3 20.8 C 0 km/h
1737 12-06-2003 00:02:02 20.7 C 12.06 g/m*3 20.7 C 0 km/h
1738 12-06-2003 00:08:02 20.6 C 12.17 g/m*3 20.6 C 0 km/h
1739 12-06-2003 00:14:02 20.4 C 12.03 g/m*3 20.4 C 0 km/h
1740 12-06-2003 00:20:02 20.4 C 12.03 g/m*3 20.4 C 0 km/h
1741 12-06-2003 00:26:02 20.3 C 11.96 g/m*3 20.3 C 0 km/h
1742 12-06-2003 00:32:02 20.1 C 12.17 g/m*3 20.1 C 0 km/h
1743 12-06-2003 00:38:02 20 C 12.1 g/m*3 20 C 0 km/h
1744 12-06-2003 00:44:02 19.8 C 12.3 g/m*3 19.8 C 0 km/h
1745 12-06-2003 00:50:02 19.6 C 12.32 g/m*3 19.6 C 0 km/h
1746 12-06-2003 00:56:02 19.5 C 12.25 g/m*3 19.5 C 0 km/h
1747 12-06-2003 01:02:02 19.5 C 12.25 g/m*3 19.5 C 0 km/h
1748 12-06-2003 01:08:02 19.5 C 12.25 g/m*3 19.5 C 0 km/h
1749 12-06-2003 01:14:02 19.4 C 12.18 g/m*3 19.4 C 0 km/h
1750 12-06-2003 01:20:02 19.3 C 12.11 g/m*3 19.3 C 0 km/h
Sensor: Nr:Datum:Temp:Abs-Feuchte:Windchill:Wind:
Aussen-T/F 1751 12-06-2003 01:26:02 19.3 C 12.11 g/m*3 19.3 C 0 km/h
1752 12-06-2003 01:32:02 19.2 C 12.04 g/m*3 19.2 C 0 km/h
1753 12-06-2003 01:38:02 19.2 C 12.2 g/m*3 19.2 C 0 km/h
1754 12-06-2003 01:44:02 19 C 12.22 g/m*3 19 C 0 km/h
1755 12-06-2003 01:50:02 19 C 12.39 g/m*3 19 C 0 km/h
1756 12-06-2003 01:56:02 18.7 C 12.33 g/m*3 18.7 C 0 km/h
1757 12-06-2003 02:02:02 18.7 C 12.33 g/m*3 18.7 C 0 km/h
1758 12-06-2003 02:08:02 18.5 C 12.34 g/m*3 18.5 C 0 km/h
1759 12-06-2003 02:14:02 18.5 C 12.34 g/m*3 18.5 C 0 km/h
1760 12-06-2003 02:20:02 18.4 C 12.27 g/m*3 18.4 C 0 km/h
1761 12-06-2003 02:26:02 18.4 C 12.27 g/m*3 18.4 C 0 km/h
1762 12-06-2003 02:32:02 18.2 C 12.28 g/m*3 18.2 C 0 km/h
1763 12-06-2003 02:38:02 18.2 C 12.28 g/m*3 18.2 C 0 km/h
1764 12-06-2003 02:44:02 18 C 12.13 g/m*3 18 C 0 km/h
1765 12-06-2003 02:50:02 18.1 C 12.21 g/m*3 18.1 C 0 km/h
1766 12-06-2003 02:56:02 18 C 12.13 g/m*3 18 C 0 km/h
1767 12-06-2003 03:02:02 18 C 12.13 g/m*3 18 C 0 km/h
1768 12-06-2003 03:08:02 18 C 12.13 g/m*3 18 C 0 km/h
1769 12-06-2003 03:14:02 17.9 C 12.21 g/m*3 17.9 C 0 km/h
1770 12-06-2003 03:20:02 17.9 C 12.21 g/m*3 17.9 C 0 km/h
1771 12-06-2003 03:26:02 17.8 C 12.29 g/m*3 17.8 C 0 km/h
1772 12-06-2003 03:32:02 17.7 C 12.22 g/m*3 17.7 C 0 km/h
1773 12-06-2003 03:38:02 17.6 C 12.15 g/m*3 17.6 C 0 km/h
1774 12-06-2003 03:44:02 17.5 C 12.23 g/m*3 17.5 C 0 km/h
1775 12-06-2003 03:50:02 17.4 C 12.15 g/m*3 17.4 C 0 km/h
Sensor: Nr:Datum:Temp:Abs-Feuchte:Windchill:Wind:
Aussen-T/F 1776 12-06-2003 03:56:02 17.3 C 11.93 g/m*3 17.3 C 0 km/h
1777 12-06-2003 04:02:02 17.5 C 12.08 g/m*3 17.5 C 0 km/h
1778 12-06-2003 04:08:02 17.4 C 12.15 g/m*3 17.4 C 0 km/h
1779 12-06-2003 04:14:02 17.4 C 12.15 g/m*3 17.4 C 0 km/h
1780 12-06-2003 04:20:02 17.3 C 12.08 g/m*3 17.3 C 0 km/h
1781 12-06-2003 04:26:02 17.2 C 11.86 g/m*3 17.2 C 0 km/h
1782 12-06-2003 04:32:02 17.2 C 11.86 g/m*3 17.2 C 0 km/h
1783 12-06-2003 04:38:02 17.2 C 11.86 g/m*3 17.2 C 0 km/h
1784 12-06-2003 04:44:02 17 C 11.72 g/m*3 17 C 0 km/h
1785 12-06-2003 04:50:02 17 C 11.72 g/m*3 17 C 0 km/h
1786 12-06-2003 04:56:02 16.9 C 11.94 g/m*3 16.9 C 0 km/h
1787 12-06-2003 05:02:02 16.9 C 12.08 g/m*3 16.9 C 0 km/h
1788 12-06-2003 05:08:02 16.7 C 11.94 g/m*3 16.7 C 0 km/h
1789 12-06-2003 05:14:02 16.7 C 11.94 g/m*3 16.7 C 0 km/h
1790 12-06-2003 05:20:02 16.7 C 11.94 g/m*3 16.7 C 0 km/h
1791 12-06-2003 05:26:02 16.7 C 11.94 g/m*3 16.7 C 0 km/h
1792 12-06-2003 05:32:02 16.7 C 11.94 g/m*3 16.7 C 0 km/h
1793 12-06-2003 05:38:02 16.6 C 12.01 g/m*3 16.6 C 0 km/h
1794 12-06-2003 05:44:02 16.6 C 11.87 g/m*3 16.6 C 0 km/h
1795 12-06-2003 05:50:02 16.6 C 11.87 g/m*3 16.6 C 0 km/h
1796 12-06-2003 05:56:02 16.7 C 12.08 g/m*3 16.7 C 0 km/h
1797 12-06-2003 06:02:02 16.8 C 12.01 g/m*3 16.8 C 0 km/h
1798 12-06-2003 06:08:02 16.9 C 12.08 g/m*3 16.9 C 0 km/h
1799 12-06-2003 06:14:02 16.9 C 11.94 g/m*3 16.9 C 0 km/h
1800 12-06-2003 06:20:02 17 C 12.01 g/m*3 17 C 0 km/h
Sensor: Nr:Datum:Temp:Abs-Feuchte:Windchill:Wind:
Aussen-T/F 1801 12-06-2003 06:26:02 16.9 C 12.08 g/m*3 16.9 C 0 km/h
1802 12-06-2003 06:32:02 16.8 C 12.01 g/m*3 16.8 C 0 km/h
1803 12-06-2003 06:38:02 16.8 C 12.01 g/m*3 16.8 C 0 km/h
1804 12-06-2003 06:44:02 16.7 C 11.94 g/m*3 16.7 C 0 km/h
1805 12-06-2003 06:50:02 16.7 C 11.94 g/m*3 16.7 C 0 km/h
1806 12-06-2003 06:56:02 16.8 C 12.15 g/m*3 16.8 C 0 km/h
1807 12-06-2003 07:02:02 16.8 C 12.15 g/m*3 16.8 C 0 km/h
1808 12-06-2003 07:08:02 17 C 12.15 g/m*3 17 C 0 km/h
1809 12-06-2003 07:14:02 17.1 C 12.23 g/m*3 17.1 C 0 km/h
1810 12-06-2003 07:20:02 17.2 C 12.3 g/m*3 17.2 C 0 km/h
1811 12-06-2003 07:26:02 17.3 C 12.23 g/m*3 17.3 C 0 km/h
1812 12-06-2003 07:32:01 17.4 C 12.15 g/m*3 17.4 C 0 km/h
1813 12-06-2003 07:38:01 17.4 C 12.15 g/m*3 17.4 C 0 km/h
1814 12-06-2003 07:44:01 17.6 C 12.3 g/m*3 17.6 C 0 km/h
1815 12-06-2003 07:50:01 17.5 C 12.23 g/m*3 17.5 C 0 km/h
1816 12-06-2003 07:56:01 17.7 C 12.22 g/m*3 17.7 C 0 km/h
1817 12-06-2003 08:02:00 18 C 12.29 g/m*3 18 C 0 km/h
1818 12-06-2003 08:08:00 18.1 C 12.36 g/m*3 18.1 C 0 km/h
1819 12-06-2003 08:14:00 18.3 C 12.51 g/m*3 18.3 C 0 km/h
1820 12-06-2003 08:20:00 18.5 C 12.5 g/m*3 18.5 C 0 km/h
1821 12-06-2003 08:26:00 18.6 C 12.57 g/m*3 18.6 C 0 km/h
1822 12-06-2003 08:32:01 18.7 C 12.49 g/m*3 18.7 C 0 km/h
1823 12-06-2003 08:38:01 18.8 C 12.4 g/m*3 18.8 C 0 km/h
1824 12-06-2003 08:44:01 19 C 12.39 g/m*3 19 C 0 km/h
1825 12-06-2003 08:50:01 19.2 C 12.53 g/m*3 19.2 C 0 km/h
Sensor: Nr:Datum:Temp:Abs-Feuchte:Windchill:Wind:
Aussen-T/F 1826 12-06-2003 08:56:01 19.4 C 12.51 g/m*3 19.4 C 0 km/h
1827 12-06-2003 09:02:01 19.6 C 12.49 g/m*3 19.6 C 0 km/h
1828 12-06-2003 09:08:01 19.9 C 12.54 g/m*3 19.9 C 0 km/h
1829 12-06-2003 09:14:01 20.3 C 12.49 g/m*3 20.3 C 0 km/h
1830 12-06-2003 09:20:01 20.8 C 12.86 g/m*3 20.8 C 0 km/h
1831 12-06-2003 09:26:01 21.2 C 12.6 g/m*3 21.2 C 0 km/h
1832 12-06-2003 09:32:02 21.5 C 12.07 g/m*3 21.5 C 0 km/h
1833 12-06-2003 09:38:02 22 C 12.03 g/m*3 22 C 0 km/h
1834 12-06-2003 09:44:02 22.3 C 12.05 g/m*3 22.3 C 0 km/h
1835 12-06-2003 09:50:02 22.7 C 11.92 g/m*3 22.7 C 0 km/h
1836 12-06-2003 09:56:02 22.9 C 12.06 g/m*3 22.9 C 0 km/h
1837 12-06-2003 10:02:02 23.4 C 11.99 g/m*3 23.4 C 0 km/h
1838 12-06-2003 10:08:02 23.8 C 12.05 g/m*3 23.8 C 0 km/h
1839 12-06-2003 10:14:02 24.1 C 12.25 g/m*3 24.1 C 0 km/h
1840 12-06-2003 10:20:02 24.1 C 11.6 g/m*3 24.1 C 0 km/h
1841 12-06-2003 10:26:02 24.4 C 12.46 g/m*3 24.4 C 0 km/h
1842 12-06-2003 10:32:01 24.8 C 12.97 g/m*3 24.8 C 0 km/h
1843 12-06-2003 10:38:01 25 C 12.2 g/m*3 25 C 0 km/h
1844 12-06-2003 10:44:01 25.3 C 12.17 g/m*3 25.3 C 0 km/h
1845 12-06-2003 10:50:01 25.7 C 12.45 g/m*3 25.7 C 0 km/h
1846 12-06-2003 10:56:01 26 C 12.17 g/m*3 26 C 0 km/h
1847 12-06-2003 11:02:02 26.3 C 12.63 g/m*3 26.3 C 0 km/h
1848 12-06-2003 11:08:02 26.6 C 12.59 g/m*3 26.6 C 0 km/h
1849 12-06-2003 11:14:02 26.7 C 11.9 g/m*3 26.7 C 0 km/h
1850 12-06-2003 11:20:02 27 C 12.1 g/m*3 27 C 0 km/h
Sensor: Nr:Datum:Temp:Abs-Feuchte:Windchill:Wind:
Aussen-T/F 1851 12-06-2003 11:26:02 27.2 C 12.49 g/m*3 27.2 C 0 km/h
1852 12-06-2003 11:32:01 27.5 C 12.7 g/m*3 27.5 C 0 km/h
1853 12-06-2003 11:38:01 27.9 C 12.44 g/m*3 27.9 C 0 km/h
1854 12-06-2003 11:44:01 27.9 C 12.17 g/m*3 27.9 C 0 km/h
1855 12-06-2003 11:50:01 28.6 C 11.8 g/m*3 28.6 C 0 km/h
1856 12-06-2003 11:56:01 29 C 12.35 g/m*3 29 C 0 km/h
1857 12-06-2003 12:02:02 29.5 C 11.81 g/m*3 29.5 C 0 km/h
1858 12-06-2003 12:08:02 29.7 C 11.34 g/m*3 29.7 C 0 km/h
1859 12-06-2003 12:14:02 30 C 10.61 g/m*3 30 C 0 km/h
1860 12-06-2003 12:20:02 30.4 C 10.85 g/m*3 30.4 C 0 km/h
1861 12-06-2003 12:26:02 30.6 C 10.34 g/m*3 30.6 C 0 km/h
1862 12-06-2003 12:32:01 30.9 C 10.5 g/m*3 30.9 C 0 km/h
1863 12-06-2003 12:38:01 31 C 10.56 g/m*3 31 C 0 km/h
1864 12-06-2003 12:44:01 30.9 C 9.55 g/m*3 30.9 C 0 km/h
1865 12-06-2003 12:50:01 30.6 C 9.4 g/m*3 30.6 C 0 km/h
1866 12-06-2003 12:56:01 31 C 9.28 g/m*3 31 C 0 km/h
1867 12-06-2003 13:02:01 31.5 C 8.88 g/m*3 31.5 C 0 km/h
1868 12-06-2003 13:08:01 31.6 C 8.26 g/m*3 31.6 C 0 km/h
1869 12-06-2003 13:14:01 32 C 8.44 g/m*3 32 C 0 km/h
1870 12-06-2003 13:20:01 32.2 C 8.53 g/m*3 32.2 C 0 km/h
1871 12-06-2003 13:26:01 31.6 C 9.58 g/m*3 31.6 C 0 km/h
1872 12-06-2003 13:32:01 32 C 9.11 g/m*3 32 C 0 km/h
1873 12-06-2003 13:38:01 31.9 C 8.73 g/m*3 31.9 C 0 km/h
1874 12-06-2003 13:44:01 32.3 C 8.58 g/m*3 32.3 C 0 km/h
1875 12-06-2003 13:50:01 31.9 C 8.73 g/m*3 31.9 C 0 km/h
Sensor: Nr:Datum:Temp:Abs-Feuchte:Windchill:Wind:
Aussen-T/F 1876 12-06-2003 13:56:01 31.7 C 8.97 g/m*3 31.7 C 0 km/h
1877 12-06-2003 14:02:02 31.5 C 8.88 g/m*3 31.5 C 0 km/h
1878 12-06-2003 14:08:02 31.3 C 9.43 g/m*3 31.3 C 0 km/h
1879 12-06-2003 14:14:02 31.5 C 9.86 g/m*3 31.5 C 0 km/h
1880 12-06-2003 14:20:02 31.8 C 10.02 g/m*3 31.8 C 0 km/h
1881 12-06-2003 14:26:02 31.9 C 9.74 g/m*3 31.9 C 0 km/h
1882 12-06-2003 14:32:01 31.8 C 9.69 g/m*3 31.8 C 0 km/h
1883 12-06-2003 14:38:01 31.8 C 9.35 g/m*3 31.8 C 0 km/h
1884 12-06-2003 14:44:01 31.8 C 9.69 g/m*3 31.8 C 0 km/h
1885 12-06-2003 14:50:01 32 C 9.79 g/m*3 32 C 0 km/h
1886 12-06-2003 14:56:01 32 C 9.79 g/m*3 32 C 0 km/h
1887 12-06-2003 15:02:02 32.3 C 9.6 g/m*3 32.3 C 0 km/h
1888 12-06-2003 15:08:02 32 C 9.11 g/m*3 32 C 0 km/h
1889 12-06-2003 15:14:02 32 C 9.79 g/m*3 32 C 0 km/h
1890 12-06-2003 15:20:02 31.8 C 9.35 g/m*3 31.8 C 0 km/h
1891 12-06-2003 15:26:02 32.1 C 10.18 g/m*3 32.1 C 0 km/h
1892 12-06-2003 15:32:01 32.1 C 9.84 g/m*3 32.1 C 0 km/h
1893 12-06-2003 15:38:01 32 C 9.45 g/m*3 32 C 0 km/h
1894 12-06-2003 15:44:01 32.1 C 9.84 g/m*3 32.1 C 0 km/h
1895 12-06-2003 15:50:01 32.3 C 9.6 g/m*3 32.3 C 0 km/h
1896 12-06-2003 15:56:01 32.5 C 9.71 g/m*3 32.5 C 0 km/h
1897 12-06-2003 16:02:01 32.8 C 9.51 g/m*3 32.8 C 0 km/h
1898 12-06-2003 16:08:01 32.8 C 9.16 g/m*3 32.8 C 0 km/h
1899 12-06-2003 16:14:01 32.8 C 9.16 g/m*3 32.8 C 0 km/h
1900 12-06-2003 16:20:01 32.5 C 9.71 g/m*3 32.5 C 0 km/h
Sensor: Nr:Datum:Temp:Abs-Feuchte:Windchill:Wind:
Aussen-T/F 1901 12-06-2003 16:26:01 32 C 10.47 g/m*3 32 C 0 km/h
1902 12-06-2003 16:32:20 31.5 C 10.52 g/m*3 31.5 C 0 km/h
1903 12-06-2003 16:38:20 31 C 11.2 g/m*3 31 C 0 km/h
1904 12-06-2003 16:44:20 30.6 C 11.59 g/m*3 30.6 C 0 km/h
1905 12-06-2003 16:50:20 29.7 C 12.23 g/m*3 29.7 C 0 km/h
1906 12-06-2003 16:56:45 27.4 C 13.94 g/m*3 27.4 C 0 km/h
1907 12-06-2003 17:02:45 24.2 C 16.06 g/m*3 24.2 C 0 km/h
1908 12-06-2003 17:08:45 23.1 C 16.54 g/m*3 23.1 C 0 km/h
1909 12-06-2003 17:14:01 22.9 C 16.96 g/m*3 22.9 C 0 km/h
1910 12-06-2003 17:20:01 23.1 C 17.78 g/m*3 23.1 C 0 km/h
1911 12-06-2003 17:26:01 23.4 C 17.87 g/m*3 23.4 C 0 km/h
1912 12-06-2003 17:32:21 23.8 C 17.85 g/m*3 23.8 C 0 km/h
1913 12-06-2003 17:38:21 24.1 C 17.29 g/m*3 24.1 C 0 km/h
1914 12-06-2003 17:50:02 24.4 C 17.36 g/m*3 24.4 C 0 km/h
1915 12-06-2003 17:56:02 24.4 C 16.91 g/m*3 24.4 C 0 km/h
1916 12-06-2003 18:03:02 24.5 C 17.46 g/m*3 24.5 C 0 km/h
1917 12-06-2003 18:09:02 25.1 C 17.59 g/m*3 25.1 C 0 km/h
1918 12-06-2003 18:15:02 25.4 C 17.42 g/m*3 25.4 C 0 km/h
1919 12-06-2003 18:21:02 25.4 C 17.42 g/m*3 25.4 C 0 km/h
1920 12-06-2003 18:27:02 25.7 C 17.72 g/m*3 25.7 C 0 km/h
1921 12-06-2003 18:33:02 25.8 C 17.82 g/m*3 25.8 C 0 km/h
1922 12-06-2003 18:39:02 25.6 C 17.14 g/m*3 25.6 C 0 km/h
1923 12-06-2003 18:45:02 25.3 C 17.32 g/m*3 25.3 C 0 km/h
1924 12-06-2003 18:51:02 25.2 C 17.23 g/m*3 25.2 C 0 km/h
1925 12-06-2003 18:57:02 24.9 C 16.71 g/m*3 24.9 C 0 km/h
Sensor: Nr:Datum:Temp:Abs-Feuchte:Windchill:Wind:
Aussen-T/F 1926 12-06-2003 19:03:02 24.8 C 17.3 g/m*3 24.8 C 0 km/h
1927 12-06-2003 19:09:02 24.6 C 16.43 g/m*3 24.6 C 0 km/h
1928 12-06-2003 19:15:02 24.6 C 16.66 g/m*3 24.6 C 0 km/h
1929 12-06-2003 19:21:02 24.5 C 16.56 g/m*3 24.5 C 0 km/h
1930 12-06-2003 19:27:02 24 C 16.32 g/m*3 24 C 0 km/h
1931 12-06-2003 19:33:02 23.6 C 16.16 g/m*3 23.6 C 0 km/h
1932 12-06-2003 19:39:02 23.3 C 15.47 g/m*3 23.3 C 0 km/h
1933 12-06-2003 19:45:02 23.2 C 15.38 g/m*3 23.2 C 0 km/h
1934 12-06-2003 19:51:02 22.9 C 15.33 g/m*3 22.9 C 0 km/h
1935 12-06-2003 19:57:02 22.8 C 15.24 g/m*3 22.8 C 0 km/h
1936 12-06-2003 20:03:02 23.2 C 15.8 g/m*3 23.2 C 0 km/h
1937 12-06-2003 20:09:02 23.2 C 15.8 g/m*3 23.2 C 0 km/h
1938 12-06-2003 20:15:02 23.3 C 15.89 g/m*3 23.3 C 0 km/h
1939 12-06-2003 20:21:02 23.2 C 15.8 g/m*3 23.2 C 0 km/h
1940 12-06-2003 20:27:02 23.1 C 15.92 g/m*3 23.1 C 0 km/h
1941 12-06-2003 20:33:02 23.2 C 16.22 g/m*3 23.2 C 0 km/h
1942 12-06-2003 20:39:02 23.1 C 16.33 g/m*3 23.1 C 0 km/h
1943 12-06-2003 20:45:02 23.1 C 16.33 g/m*3 23.1 C 0 km/h
1944 12-06-2003 20:51:02 23 C 16.24 g/m*3 23 C 0 km/h
1945 12-06-2003 20:57:02 23 C 16.24 g/m*3 23 C 0 km/h
1946 12-06-2003 21:03:02 22.8 C 16.26 g/m*3 22.8 C 0 km/h
1947 12-06-2003 21:09:02 22.6 C 16.27 g/m*3 22.6 C 0 km/h
1948 12-06-2003 21:15:02 22.5 C 16.38 g/m*3 22.5 C 0 km/h
1949 12-06-2003 21:21:02 22.4 C 16.28 g/m*3 22.4 C 0 km/h
1950 12-06-2003 21:27:02 22.5 C 16.58 g/m*3 22.5 C 0 km/h
Sensor: Nr:Datum:Temp:Abs-Feuchte:Windchill:Wind:
Aussen-T/F 1951 12-06-2003 21:33:02 22.5 C 16.98 g/m*3 22.5 C 0 km/h
1952 12-06-2003 21:39:02 22 C 16.89 g/m*3 22 C 0 km/h
1953 12-06-2003 21:45:02 21.8 C 17.08 g/m*3 21.8 C 0 km/h
1954 12-06-2003 21:51:02 21.3 C 16.78 g/m*3 21.3 C 0 km/h
1955 12-06-2003 21:57:02 21.4 C 17.06 g/m*3 21.4 C 0 km/h
1956 12-06-2003 22:03:02 21.1 C 16.77 g/m*3 21.1 C 0 km/h
1957 12-06-2003 22:09:02 20.8 C 16.48 g/m*3 20.8 C 0 km/h
1958 12-06-2003 22:15:02 20.7 C 16.38 g/m*3 20.7 C 0 km/h
1959 12-06-2003 22:21:02 20.8 C 16.48 g/m*3 20.8 C 0 km/h
1960 12-06-2003 22:27:02 20.7 C 16.38 g/m*3 20.7 C 0 km/h
1961 12-06-2003 22:33:02 20.6 C 16.29 g/m*3 20.6 C 0 km/h
1962 12-06-2003 22:39:02 20.4 C 16.1 g/m*3 20.4 C 0 km/h
1963 12-06-2003 22:45:02 20.4 C 16.1 g/m*3 20.4 C 0 km/h
1964 12-06-2003 22:57:02 20.1 C 15.82 g/m*3 20.1 C 0 km/h
1965 12-06-2003 23:03:02 20 C 15.55 g/m*3 20 C 0 km/h
1966 12-06-2003 23:09:02 20 C 15.55 g/m*3 20 C 0 km/h
1967 12-06-2003 23:15:02 20 C 15.55 g/m*3 20 C 0 km/h
1968 12-06-2003 23:21:02 19.9 C 15.63 g/m*3 19.9 C 0 km/h
1969 12-06-2003 23:27:02 19.9 C 15.63 g/m*3 19.9 C 0 km/h
1970 12-06-2003 23:33:02 20 C 15.55 g/m*3 20 C 0 km/h
1971 12-06-2003 23:39:02 19.9 C 15.63 g/m*3 19.9 C 0 km/h
1972 12-06-2003 23:45:02 19.9 C 15.63 g/m*3 19.9 C 0 km/h
1973 12-06-2003 23:51:02 19.8 C 15.54 g/m*3 19.8 C 0 km/h
1974 12-06-2003 23:57:02 19.8 C 15.54 g/m*3 19.8 C 0 km/h
1975 13-06-2003 00:03:02 19.8 C 15.54 g/m*3 19.8 C 0 km/h
Sensor: Nr:Datum:Temp:Abs-Feuchte:Windchill:Wind:
Aussen-T/F 1976 13-06-2003 00:09:02 19.8 C 15.54 g/m*3 19.8 C 0 km/h
1977 13-06-2003 00:15:02 19.8 C 15.54 g/m*3 19.8 C 0 km/h
1978 13-06-2003 00:21:02 19.7 C 15.45 g/m*3 19.7 C 0 km/h
1979 13-06-2003 00:27:02 19.7 C 15.45 g/m*3 19.7 C 0 km/h
1980 13-06-2003 00:33:02 19.7 C 15.45 g/m*3 19.7 C 0 km/h
1981 13-06-2003 00:39:02 19.7 C 15.79 g/m*3 19.7 C 0 km/h
1982 13-06-2003 00:45:02 19.7 C 15.45 g/m*3 19.7 C 0 km/h
1983 13-06-2003 00:51:02 19.5 C 15.27 g/m*3 19.5 C 0 km/h
1984 13-06-2003 00:57:02 19.5 C 15.27 g/m*3 19.5 C 0 km/h
1985 13-06-2003 01:03:02 19.4 C 15.02 g/m*3 19.4 C 0 km/h
1986 13-06-2003 01:09:02 19.3 C 14.93 g/m*3 19.3 C 0 km/h
1987 13-06-2003 01:15:02 19.3 C 14.93 g/m*3 19.3 C 0 km/h
1988 13-06-2003 01:21:02 19.2 C 14.84 g/m*3 19.2 C 0 km/h
1989 13-06-2003 01:27:02 19 C 14.5 g/m*3 19 C 0 km/h
1990 13-06-2003 01:33:02 18.9 C 14.42 g/m*3 18.9 C 0 km/h
1991 13-06-2003 01:39:02 18.7 C 13.93 g/m*3 18.7 C 0 km/h
1992 13-06-2003 01:45:02 18.6 C 13.85 g/m*3 18.6 C 0 km/h
1993 13-06-2003 01:51:02 18.5 C 13.77 g/m*3 18.5 C 0 km/h
1994 13-06-2003 01:57:02 18.4 C 13.68 g/m*3 18.4 C 0 km/h
1995 13-06-2003 02:03:02 18.3 C 13.6 g/m*3 18.3 C 0 km/h
1996 13-06-2003 02:09:02 18.2 C 13.37 g/m*3 18.2 C 0 km/h
1997 13-06-2003 02:15:02 18.2 C 13.37 g/m*3 18.2 C 0 km/h
1998 13-06-2003 02:21:02 18.2 C 13.37 g/m*3 18.2 C 0 km/h
1999 13-06-2003 02:27:02 18.1 C 13.13 g/m*3 18.1 C 0 km/h
2000 13-06-2003 02:33:02 18 C 12.75 g/m*3 18 C 0 km/h
Sensor: Nr:Datum:Temp:Abs-Feuchte:Windchill:Wind:
Aussen-T/F 2001 13-06-2003 02:39:02 17.9 C 12.98 g/m*3 17.9 C 0 km/h
2002 13-06-2003 02:45:02 17.6 C 12.75 g/m*3 17.6 C 0 km/h
2003 13-06-2003 02:51:02 17.5 C 12.67 g/m*3 17.5 C 0 km/h
2004 13-06-2003 02:57:02 17.4 C 12.6 g/m*3 17.4 C 0 km/h
2005 13-06-2003 03:03:02 17.3 C 12.52 g/m*3 17.3 C 0 km/h
2006 13-06-2003 03:09:02 17.4 C 12.45 g/m*3 17.4 C 0 km/h
2007 13-06-2003 03:15:02 17.2 C 12.45 g/m*3 17.2 C 0 km/h
2008 13-06-2003 03:21:02 17.2 C 12.3 g/m*3 17.2 C 0 km/h
2009 13-06-2003 03:27:02 17 C 12.15 g/m*3 17 C 0 km/h
2010 13-06-2003 03:33:02 16.9 C 12.37 g/m*3 16.9 C 0 km/h
2011 13-06-2003 03:39:02 16.9 C 12.37 g/m*3 16.9 C 0 km/h
2012 13-06-2003 03:45:02 16.8 C 12.3 g/m*3 16.8 C 0 km/h
2013 13-06-2003 03:51:02 16.7 C 12.22 g/m*3 16.7 C 0 km/h
2014 13-06-2003 03:57:02 16.7 C 12.22 g/m*3 16.7 C 0 km/h
2015 13-06-2003 04:03:02 16.7 C 12.36 g/m*3 16.7 C 0 km/h
2016 13-06-2003 04:09:02 16.7 C 12.36 g/m*3 16.7 C 0 km/h
2017 13-06-2003 04:15:02 16.7 C 12.22 g/m*3 16.7 C 0 km/h
2018 13-06-2003 04:21:02 16.8 C 12.01 g/m*3 16.8 C 0 km/h
2019 13-06-2003 04:27:02 16.8 C 12.01 g/m*3 16.8 C 0 km/h
2020 13-06-2003 04:33:02 16.6 C 12.01 g/m*3 16.6 C 0 km/h
2021 13-06-2003 04:39:02 16.6 C 11.87 g/m*3 16.6 C 0 km/h
2022 13-06-2003 04:45:02 16.6 C 11.87 g/m*3 16.6 C 0 km/h
2023 13-06-2003 04:51:02 16.7 C 11.8 g/m*3 16.7 C 0 km/h
2024 13-06-2003 04:57:02 16.7 C 11.8 g/m*3 16.7 C 0 km/h
2025 13-06-2003 05:03:02 16.6 C 11.87 g/m*3 16.6 C 0 km/h
Sensor: Nr:Datum:Temp:Abs-Feuchte:Windchill:Wind:
Aussen-T/F 2026 13-06-2003 05:09:02 16.6 C 11.87 g/m*3 16.6 C 0 km/h
2027 13-06-2003 05:15:02 16.6 C 11.72 g/m*3 16.6 C 0 km/h
2028 13-06-2003 05:21:02 16.6 C 11.58 g/m*3 16.6 C 0 km/h
2029 13-06-2003 05:27:02 16.6 C 11.58 g/m*3 16.6 C 0 km/h
2030 13-06-2003 05:33:02 16.6 C 11.72 g/m*3 16.6 C 0 km/h
2031 13-06-2003 05:39:02 16.6 C 11.58 g/m*3 16.6 C 0 km/h
2032 13-06-2003 05:45:02 16.5 C 11.65 g/m*3 16.5 C 0 km/h
2033 13-06-2003 05:51:02 16.6 C 11.72 g/m*3 16.6 C 0 km/h
2034 13-06-2003 05:57:02 16.6 C 11.58 g/m*3 16.6 C 0 km/h
2035 13-06-2003 06:03:02 16.7 C 11.65 g/m*3 16.7 C 0 km/h
2036 13-06-2003 06:09:02 16.7 C 11.8 g/m*3 16.7 C 0 km/h
2037 13-06-2003 06:15:02 16.7 C 11.8 g/m*3 16.7 C 0 km/h
2038 13-06-2003 06:21:02 16.6 C 11.72 g/m*3 16.6 C 0 km/h
2039 13-06-2003 06:27:02 16.6 C 11.87 g/m*3 16.6 C 0 km/h
2040 13-06-2003 06:33:02 16.6 C 11.87 g/m*3 16.6 C 0 km/h
2041 13-06-2003 06:39:02 16.6 C 11.87 g/m*3 16.6 C 0 km/h
2042 13-06-2003 06:45:02 16.7 C 11.94 g/m*3 16.7 C 0 km/h
2043 13-06-2003 06:51:02 16.8 C 12.01 g/m*3 16.8 C 0 km/h
2044 13-06-2003 06:57:02 16.9 C 12.23 g/m*3 16.9 C 0 km/h
2045 13-06-2003 07:03:02 17 C 12.15 g/m*3 17 C 0 km/h
2046 13-06-2003 07:09:02 17 C 12.15 g/m*3 17 C 0 km/h
2047 13-06-2003 07:15:02 17.1 C 12.23 g/m*3 17.1 C 0 km/h
2048 13-06-2003 07:21:02 17.2 C 12.15 g/m*3 17.2 C 0 km/h
2049 13-06-2003 07:27:02 17.3 C 12.23 g/m*3 17.3 C 0 km/h
2050 13-06-2003 07:33:00 17.4 C 12.15 g/m*3 17.4 C 0 km/h
Sensor: Nr:Datum:Temp:Abs-Feuchte:Windchill:Wind:
Aussen-T/F 2051 13-06-2003 07:39:00 17.6 C 12.3 g/m*3 17.6 C 0 km/h
2052 13-06-2003 07:45:00 17.5 C 12.08 g/m*3 17.5 C 0 km/h
2053 13-06-2003 07:51:00 17.7 C 12.07 g/m*3 17.7 C 0 km/h
2054 13-06-2003 07:57:00 17.7 C 11.77 g/m*3 17.7 C 0 km/h
2055 13-06-2003 08:03:01 17.6 C 11.7 g/m*3 17.6 C 0 km/h
2056 13-06-2003 08:09:01 17.6 C 11.85 g/m*3 17.6 C 0 km/h
2057 13-06-2003 08:15:01 17.9 C 11.91 g/m*3 17.9 C 0 km/h
2058 13-06-2003 08:21:01 18 C 11.52 g/m*3 18 C 0 km/h
2059 13-06-2003 08:27:01 18.2 C 11.66 g/m*3 18.2 C 0 km/h
2060 13-06-2003 08:39:01 18.6 C 11.78 g/m*3 18.6 C 0 km/h
2061 13-06-2003 08:45:01 18.6 C 11.78 g/m*3 18.6 C 0 km/h
2062 13-06-2003 08:51:01 18.8 C 11.92 g/m*3 18.8 C 0 km/h
2063 13-06-2003 08:57:01 19.1 C 11.97 g/m*3 19.1 C 0 km/h
2064 13-06-2003 09:03:01 19.4 C 11.85 g/m*3 19.4 C 0 km/h
2065 13-06-2003 09:09:01 19.6 C 11.65 g/m*3 19.6 C 0 km/h
2066 13-06-2003 09:15:01 19.2 C 11.54 g/m*3 19.2 C 0 km/h
2067 13-06-2003 09:21:01 19.3 C 11.78 g/m*3 19.3 C 0 km/h
2068 13-06-2003 09:27:01 19.6 C 12.15 g/m*3 19.6 C 0 km/h
2069 13-06-2003 09:33:01 19.8 C 11.79 g/m*3 19.8 C 0 km/h
2070 13-06-2003 09:39:01 20 C 11.75 g/m*3 20 C 0 km/h
2071 13-06-2003 09:45:01 19.9 C 11.51 g/m*3 19.9 C 0 km/h
2072 13-06-2003 09:51:01 19.7 C 11.38 g/m*3 19.7 C 0 km/h
2073 13-06-2003 09:57:01 19.8 C 11.44 g/m*3 19.8 C 0 km/h
2074 13-06-2003 10:09:55 20.5 C 11.74 g/m*3 20.5 C 0 km/h
2075 13-06-2003 10:15:03 20.8 C 11.59 g/m*3 20.8 C 0 km/h
Sensor: Nr:Datum:Temp:Abs-Feuchte:Windchill:Wind:
Aussen-T/F 2076 13-06-2003 10:21:03 21.6 C 12.14 g/m*3 21.6 C 0 km/h
2077 13-06-2003 10:27:03 21.8 C 11.7 g/m*3 21.8 C 0 km/h
2078 13-06-2003 10:33:01 21.6 C 11.57 g/m*3 21.6 C 0 km/h
2079 13-06-2003 10:39:01 21.7 C 11.45 g/m*3 21.7 C 0 km/h
2080 13-06-2003 10:45:01 21.9 C 11.58 g/m*3 21.9 C 0 km/h
2081 13-06-2003 10:51:01 22.5 C 12.18 g/m*3 22.5 C 0 km/h
2082 13-06-2003 10:57:01 22.5 C 11.58 g/m*3 22.5 C 0 km/h
2083 13-06-2003 11:03:01 22.7 C 11.72 g/m*3 22.7 C 0 km/h
2084 13-06-2003 11:09:01 22.9 C 11.85 g/m*3 22.9 C 0 km/h
2085 13-06-2003 11:15:01 23.4 C 11.99 g/m*3 23.4 C 0 km/h
2086 13-06-2003 11:21:01 22.9 C 11.85 g/m*3 22.9 C 0 km/h
2087 13-06-2003 11:27:01 23.2 C 11.85 g/m*3 23.2 C 0 km/h
2088 13-06-2003 11:33:01 23.6 C 12.34 g/m*3 23.6 C 0 km/h
2089 13-06-2003 11:39:01 23.1 C 11.37 g/m*3 23.1 C 0 km/h
2090 13-06-2003 11:45:01 23.7 C 12.19 g/m*3 23.7 C 0 km/h
2091 13-06-2003 11:51:01 23.5 C 11.42 g/m*3 23.5 C 0 km/h
2092 13-06-2003 11:57:01 23.5 C 11.84 g/m*3 23.5 C 0 km/h
2093 13-06-2003 12:03:02 23.6 C 11.7 g/m*3 23.6 C 0 km/h
2094 13-06-2003 12:09:02 24.4 C 11.79 g/m*3 24.4 C 0 km/h
2095 13-06-2003 12:15:02 25.2 C 12.57 g/m*3 25.2 C 0 km/h
2096 13-06-2003 12:21:02 25.9 C 12.1 g/m*3 25.9 C 0 km/h
2097 13-06-2003 12:27:02 25.1 C 11.34 g/m*3 25.1 C 0 km/h
2098 13-06-2003 12:33:01 25.7 C 11.49 g/m*3 25.7 C 0 km/h
2099 13-06-2003 12:39:01 25.9 C 11.14 g/m*3 25.9 C 0 km/h
2100 13-06-2003 12:45:01 25.3 C 11 g/m*3 25.3 C 0 km/h
Sensor: Nr:Datum:Temp:Abs-Feuchte:Windchill:Wind:
Aussen-T/F 2101 13-06-2003 12:51:01 26.9 C 11.52 g/m*3 26.9 C 0 km/h
2102 13-06-2003 12:57:01 27.7 C 11.23 g/m*3 27.7 C 0 km/h
2103 13-06-2003 13:03:01 28.5 C 11.74 g/m*3 28.5 C 0 km/h
2104 13-06-2003 13:09:01 28.3 C 10.78 g/m*3 28.3 C 0 km/h
2105 13-06-2003 13:15:01 28.3 C 10.78 g/m*3 28.3 C 0 km/h
2106 13-06-2003 13:21:01 28.3 C 9.95 g/m*3 28.3 C 0 km/h
2107 13-06-2003 13:27:01 27.9 C 11.09 g/m*3 27.9 C 0 km/h
2108 13-06-2003 13:33:01 27.8 C 10.49 g/m*3 27.8 C 0 km/h
2109 13-06-2003 13:39:01 27.8 C 10.22 g/m*3 27.8 C 0 km/h
2110 13-06-2003 13:45:01 28.6 C 10.4 g/m*3 28.6 C 0 km/h
2111 13-06-2003 13:51:01 26.7 C 10.38 g/m*3 26.7 C 0 km/h
2112 13-06-2003 13:57:01 26.3 C 10.4 g/m*3 26.3 C 0 km/h
2113 13-06-2003 14:03:02 26.8 C 10.18 g/m*3 26.8 C 0 km/h
2114 13-06-2003 14:09:02 27.4 C 9.74 g/m*3 27.4 C 0 km/h
2115 13-06-2003 14:15:02 27.5 C 10.05 g/m*3 27.5 C 0 km/h
2116 13-06-2003 14:21:02 27.5 C 10.05 g/m*3 27.5 C 0 km/h
2117 13-06-2003 14:27:02 27.4 C 10 g/m*3 27.4 C 0 km/h
2118 13-06-2003 14:33:01 27.9 C 10.82 g/m*3 27.9 C 0 km/h
2119 13-06-2003 14:39:01 27.9 C 10.01 g/m*3 27.9 C 0 km/h
2120 13-06-2003 14:45:01 28.5 C 10.06 g/m*3 28.5 C 0 km/h
2121 13-06-2003 14:51:01 28.9 C 10 g/m*3 28.9 C 0 km/h
2122 13-06-2003 14:57:01 28.3 C 9.68 g/m*3 28.3 C 0 km/h
2123 13-06-2003 15:03:01 28.9 C 10 g/m*3 28.9 C 0 km/h
2124 13-06-2003 15:09:01 28.4 C 9.73 g/m*3 28.4 C 0 km/h
2125 13-06-2003 15:15:01 28.8 C 9.94 g/m*3 28.8 C 0 km/h
Sensor: Nr:Datum:Temp:Abs-Feuchte:Windchill:Wind:
Aussen-T/F 2126 13-06-2003 15:21:01 29.3 C 9.34 g/m*3 29.3 C 0 km/h
2127 13-06-2003 15:27:01 29.7 C 9.55 g/m*3 29.7 C 0 km/h
2128 13-06-2003 15:33:01 30.3 C 9.55 g/m*3 30.3 C 0 km/h
2129 13-06-2003 15:39:01 30.4 C 9.3 g/m*3 30.4 C 0 km/h
2130 13-06-2003 15:45:01 30.6 C 9.4 g/m*3 30.6 C 0 km/h
2131 13-06-2003 15:51:01 30.9 C 9.23 g/m*3 30.9 C 0 km/h
2132 13-06-2003 15:57:01 30.4 C 8.68 g/m*3 30.4 C 0 km/h
2133 13-06-2003 16:03:01 30.6 C 8.46 g/m*3 30.6 C 0 km/h
2134 13-06-2003 16:09:01 30.3 C 8.94 g/m*3 30.3 C 0 km/h
2135 13-06-2003 16:15:01 30.1 C 8.54 g/m*3 30.1 C 0 km/h
2136 13-06-2003 16:21:01 30.1 C 8.84 g/m*3 30.1 C 0 km/h
2137 13-06-2003 16:27:01 30.3 C 9.25 g/m*3 30.3 C 0 km/h
2138 13-06-2003 16:33:00 31 C 8.64 g/m*3 31 C 0 km/h
2139 13-06-2003 16:39:00 31.2 C 8.09 g/m*3 31.2 C 0 km/h
2140 13-06-2003 16:45:00 30.8 C 8.23 g/m*3 30.8 C 0 km/h
2141 13-06-2003 16:51:00 30.6 C 7.83 g/m*3 30.6 C 0 km/h
2142 13-06-2003 16:57:00 30.8 C 8.23 g/m*3 30.8 C 0 km/h
2143 13-06-2003 17:03:08 30.8 C 8.23 g/m*3 30.8 C 0 km/h
2144 13-06-2003 17:09:08 30.6 C 8.14 g/m*3 30.6 C 0 km/h
2145 13-06-2003 17:15:08 30.3 C 7.7 g/m*3 30.3 C 0 km/h
2146 13-06-2003 17:21:08 30.6 C 7.83 g/m*3 30.6 C 0 km/h
2147 13-06-2003 17:27:02 31 C 8 g/m*3 31 C 0 km/h
2148 13-06-2003 17:33:00 31 C 7.68 g/m*3 31 C 0 km/h
2149 13-06-2003 17:39:00 30 C 7.58 g/m*3 30 C 0 km/h
2150 13-06-2003 17:45:00 30.3 C 8.01 g/m*3 30.3 C 0 km/h
Sensor: Nr:Datum:Temp:Abs-Feuchte:Windchill:Wind:
Aussen-T/F 2151 13-06-2003 17:51:00 30.4 C 8.37 g/m*3 30.4 C 0 km/h
2152 13-06-2003 17:57:00 30.9 C 7.96 g/m*3 30.9 C 0 km/h
2153 13-06-2003 18:03:01 30.7 C 7.56 g/m*3 30.7 C 0 km/h
2154 13-06-2003 18:09:01 30.4 C 7.75 g/m*3 30.4 C 0 km/h
2155 13-06-2003 18:15:01 30.4 C 7.75 g/m*3 30.4 C 0 km/h
2156 13-06-2003 18:21:01 30.4 C 8.06 g/m*3 30.4 C 0 km/h
2157 13-06-2003 18:27:01 31 C 7.36 g/m*3 31 C 0 km/h
2158 13-06-2003 18:33:01 31.3 C 7.48 g/m*3 31.3 C 0 km/h
2159 13-06-2003 18:39:01 31.4 C 7.19 g/m*3 31.4 C 0 km/h
2160 13-06-2003 18:45:01 31.3 C 7.15 g/m*3 31.3 C 0 km/h
2161 13-06-2003 18:51:01 30.7 C 7.24 g/m*3 30.7 C 0 km/h
2162 13-06-2003 18:57:01 30.5 C 7.17 g/m*3 30.5 C 0 km/h
2163 13-06-2003 19:03:01 30.6 C 7.2 g/m*3 30.6 C 0 km/h
2164 13-06-2003 19:09:01 30.4 C 7.44 g/m*3 30.4 C 0 km/h
2165 13-06-2003 19:15:01 30.4 C 7.75 g/m*3 30.4 C 0 km/h
2166 13-06-2003 19:21:01 30.4 C 7.75 g/m*3 30.4 C 0 km/h
2167 13-06-2003 19:27:01 30 C 7.28 g/m*3 30 C 0 km/h
2168 13-06-2003 19:33:00 30 C 7.28 g/m*3 30 C 0 km/h
2169 13-06-2003 19:39:00 30.4 C 7.75 g/m*3 30.4 C 0 km/h
2170 13-06-2003 19:45:00 30.4 C 7.13 g/m*3 30.4 C 0 km/h
2171 13-06-2003 19:51:00 30.3 C 7.4 g/m*3 30.3 C 0 km/h
2172 13-06-2003 19:57:00 30.1 C 7.32 g/m*3 30.1 C 0 km/h
2173 13-06-2003 20:03:00 29.8 C 7.2 g/m*3 29.8 C 0 km/h
2174 13-06-2003 20:09:00 29.2 C 7.55 g/m*3 29.2 C 0 km/h
2175 13-06-2003 20:15:00 29.1 C 7.22 g/m*3 29.1 C 0 km/h
Sensor: Nr:Datum:Temp:Abs-Feuchte:Windchill:Wind:
Aussen-T/F 2176 13-06-2003 20:21:00 28.5 C 6.99 g/m*3 28.5 C 0 km/h
2177 13-06-2003 20:27:00 28.1 C 7.11 g/m*3 28.1 C 0 km/h
2178 13-06-2003 20:33:02 28.1 C 8.75 g/m*3 28.1 C 0 km/h
2179 13-06-2003 20:39:02 28.1 C 9.57 g/m*3 28.1 C 0 km/h
2180 13-06-2003 20:45:02 27.7 C 9.9 g/m*3 27.7 C 0 km/h
2181 13-06-2003 20:51:02 27.1 C 9.83 g/m*3 27.1 C 0 km/h
2182 13-06-2003 20:57:02 26.3 C 9.41 g/m*3 26.3 C 0 km/h
2183 13-06-2003 21:03:01 25.1 C 9.49 g/m*3 25.1 C 0 km/h
2184 13-06-2003 21:09:01 24.6 C 9.45 g/m*3 24.6 C 0 km/h
2185 13-06-2003 21:15:01 24 C 8.92 g/m*3 24 C 0 km/h
2186 13-06-2003 21:21:01 23.4 C 8.83 g/m*3 23.4 C 0 km/h
2187 13-06-2003 21:27:01 23 C 8.84 g/m*3 23 C 0 km/h
2188 13-06-2003 21:33:01 22.8 C 8.53 g/m*3 22.8 C 0 km/h
2189 13-06-2003 21:39:01 22.4 C 8.54 g/m*3 22.4 C 0 km/h
2190 13-06-2003 21:45:01 22.1 C 8.2 g/m*3 22.1 C 0 km/h
2191 13-06-2003 21:51:01 21.8 C 8.63 g/m*3 21.8 C 0 km/h
2192 13-06-2003 21:57:01 21.6 C 8.53 g/m*3 21.6 C 0 km/h
2193 13-06-2003 22:04:01 21.3 C 8.57 g/m*3 21.3 C 0 km/h
2194 13-06-2003 22:10:01 21.1 C 9.21 g/m*3 21.1 C 0 km/h
2195 13-06-2003 22:16:01 21.2 C 8.9 g/m*3 21.2 C 0 km/h
2196 13-06-2003 22:22:01 20.9 C 8.74 g/m*3 20.9 C 0 km/h
2197 13-06-2003 22:28:01 20.8 C 9.05 g/m*3 20.8 C 0 km/h
2198 13-06-2003 22:34:01 20.6 C 9.13 g/m*3 20.6 C 0 km/h
2199 13-06-2003 22:40:01 20.3 C 8.79 g/m*3 20.3 C 0 km/h
2200 13-06-2003 22:46:01 20.4 C 9.02 g/m*3 20.4 C 0 km/h
Sensor: Nr:Datum:Temp:Abs-Feuchte:Windchill:Wind:
Aussen-T/F 2201 13-06-2003 22:52:01 20.2 C 8.92 g/m*3 20.2 C 0 km/h
2202 13-06-2003 22:58:01 20 C 8.99 g/m*3 20 C 0 km/h
2203 13-06-2003 23:04:01 20.1 C 9.21 g/m*3 20.1 C 0 km/h
2204 13-06-2003 23:10:01 19.7 C 9 g/m*3 19.7 C 0 km/h
2205 13-06-2003 23:16:01 19.6 C 8.95 g/m*3 19.6 C 0 km/h
2206 13-06-2003 23:22:01 19.6 C 9.12 g/m*3 19.6 C 0 km/h
2207 13-06-2003 23:28:01 19.5 C 9.23 g/m*3 19.5 C 0 km/h
2208 13-06-2003 23:34:01 19.5 C 9.06 g/m*3 19.5 C 0 km/h
2209 13-06-2003 23:40:01 19.5 C 8.73 g/m*3 19.5 C 0 km/h
2210 13-06-2003 23:46:01 19.4 C 8.84 g/m*3 19.4 C 0 km/h
2211 13-06-2003 23:52:01 19.2 C 8.74 g/m*3 19.2 C 0 km/h
2212 13-06-2003 23:58:01 19.1 C 8.85 g/m*3 19.1 C 0 km/h
2213 14-06-2003 00:04:01 19 C 9.29 g/m*3 19 C 0 km/h
2214 14-06-2003 00:10:01 18.7 C 8.81 g/m*3 18.7 C 0 km/h
2215 14-06-2003 00:16:01 18.7 C 8.97 g/m*3 18.7 C 0 km/h
2216 14-06-2003 00:22:01 18.6 C 8.91 g/m*3 18.6 C 0 km/h
2217 14-06-2003 00:34:01 18.5 C 9.18 g/m*3 18.5 C 0 km/h
2218 14-06-2003 00:40:01 18.3 C 9.07 g/m*3 18.3 C 0 km/h
2219 14-06-2003 00:46:01 18.1 C 9.12 g/m*3 18.1 C 0 km/h
2220 14-06-2003 00:52:01 18 C 9.22 g/m*3 18 C 0 km/h
2221 14-06-2003 00:58:01 17.7 C 9.35 g/m*3 17.7 C 0 km/h
2222 14-06-2003 01:04:01 17.7 C 9.35 g/m*3 17.7 C 0 km/h
2223 14-06-2003 01:10:01 17.6 C 9.45 g/m*3 17.6 C 0 km/h
2224 14-06-2003 01:16:01 17.4 C 9.19 g/m*3 17.4 C 0 km/h
2225 14-06-2003 01:22:01 17.3 C 9.28 g/m*3 17.3 C 0 km/h
Sensor: Nr:Datum:Temp:Abs-Feuchte:Windchill:Wind:
Aussen-T/F 2226 14-06-2003 01:28:01 17.2 C 9.23 g/m*3 17.2 C 0 km/h
2227 14-06-2003 01:34:01 17.1 C 9.32 g/m*3 17.1 C 0 km/h
2228 14-06-2003 01:40:01 17 C 9.26 g/m*3 17 C 0 km/h
2229 14-06-2003 01:46:01 16.9 C 9.35 g/m*3 16.9 C 0 km/h
2230 14-06-2003 01:52:01 16.9 C 9.49 g/m*3 16.9 C 0 km/h
2231 14-06-2003 01:58:01 16.8 C 9.44 g/m*3 16.8 C 0 km/h
2232 14-06-2003 02:04:01 16.8 C 9.44 g/m*3 16.8 C 0 km/h
2233 14-06-2003 02:10:01 16.6 C 9.32 g/m*3 16.6 C 0 km/h
2234 14-06-2003 02:16:01 16.6 C 9.46 g/m*3 16.6 C 0 km/h
2235 14-06-2003 02:22:01 16.4 C 9.35 g/m*3 16.4 C 0 km/h
2236 14-06-2003 02:28:01 16.2 C 9.38 g/m*3 16.2 C 0 km/h
2237 14-06-2003 02:34:01 16.3 C 9.43 g/m*3 16.3 C 0 km/h
2238 14-06-2003 02:40:01 16.2 C 9.38 g/m*3 16.2 C 0 km/h
2239 14-06-2003 02:46:01 16.1 C 9.46 g/m*3 16.1 C 0 km/h
2240 14-06-2003 02:52:01 15.9 C 9.34 g/m*3 15.9 C 0 km/h
2241 14-06-2003 02:58:01 15.9 C 9.62 g/m*3 15.9 C 0 km/h
2242 14-06-2003 03:04:01 15.8 C 9.69 g/m*3 15.8 C 0 km/h
2243 14-06-2003 03:10:01 15.6 C 9.44 g/m*3 15.6 C 0 km/h
2244 14-06-2003 03:16:01 15.4 C 9.46 g/m*3 15.4 C 0 km/h
2245 14-06-2003 03:22:01 15.4 C 9.46 g/m*3 15.4 C 0 km/h
2246 14-06-2003 03:28:01 15.4 C 9.46 g/m*3 15.4 C 0 km/h
2247 14-06-2003 03:34:01 15.3 C 9.66 g/m*3 15.3 C 0 km/h
2248 14-06-2003 03:40:01 15.3 C 9.53 g/m*3 15.3 C 0 km/h
2249 14-06-2003 03:46:01 15.3 C 9.53 g/m*3 15.3 C 0 km/h
2250 14-06-2003 03:52:01 15.4 C 9.59 g/m*3 15.4 C 0 km/h
Sensor: Nr:Datum:Temp:Abs-Feuchte:Windchill:Wind:
Aussen-T/F 2251 14-06-2003 03:58:01 15.3 C 9.53 g/m*3 15.3 C 0 km/h
2252 14-06-2003 04:04:01 15.2 C 9.48 g/m*3 15.2 C 0 km/h
2253 14-06-2003 04:10:01 15.1 C 9.29 g/m*3 15.1 C 0 km/h
2254 14-06-2003 04:16:01 15.1 C 9.42 g/m*3 15.1 C 0 km/h
2255 14-06-2003 04:22:01 15 C 9.36 g/m*3 15 C 0 km/h
2256 14-06-2003 04:28:01 15 C 9.36 g/m*3 15 C 0 km/h
2257 14-06-2003 04:34:01 15 C 9.49 g/m*3 15 C 0 km/h
2258 14-06-2003 04:40:01 14.8 C 9.5 g/m*3 14.8 C 0 km/h
2259 14-06-2003 04:46:01 14.8 C 9.5 g/m*3 14.8 C 0 km/h
2260 14-06-2003 04:52:01 14.6 C 9.39 g/m*3 14.6 C 0 km/h
2261 14-06-2003 04:58:01 14.5 C 9.58 g/m*3 14.5 C 0 km/h
2262 14-06-2003 05:04:01 14.4 C 9.52 g/m*3 14.4 C 0 km/h
2263 14-06-2003 05:10:01 14.5 C 9.58 g/m*3 14.5 C 0 km/h
2264 14-06-2003 05:16:01 14.5 C 9.58 g/m*3 14.5 C 0 km/h
2265 14-06-2003 05:22:01 14.4 C 9.64 g/m*3 14.4 C 0 km/h
2266 14-06-2003 05:28:01 14.4 C 9.52 g/m*3 14.4 C 0 km/h
2267 14-06-2003 05:34:01 14.3 C 9.58 g/m*3 14.3 C 0 km/h
2268 14-06-2003 05:40:01 14.3 C 9.58 g/m*3 14.3 C 0 km/h
2269 14-06-2003 05:46:01 14.4 C 9.64 g/m*3 14.4 C 0 km/h
2270 14-06-2003 05:52:01 14.4 C 9.64 g/m*3 14.4 C 0 km/h
2271 14-06-2003 05:58:01 14.5 C 9.58 g/m*3 14.5 C 0 km/h
2272 14-06-2003 06:04:01 14.5 C 9.7 g/m*3 14.5 C 0 km/h
2273 14-06-2003 06:10:01 14.5 C 9.7 g/m*3 14.5 C 0 km/h
2274 14-06-2003 06:16:01 14.5 C 9.83 g/m*3 14.5 C 0 km/h
2275 14-06-2003 06:22:01 14.4 C 9.89 g/m*3 14.4 C 0 km/h
Sensor: Nr:Datum:Temp:Abs-Feuchte:Windchill:Wind:
Aussen-T/F 2276 14-06-2003 06:28:01 14.5 C 9.95 g/m*3 14.5 C 0 km/h
2277 14-06-2003 06:34:01 14.5 C 9.95 g/m*3 14.5 C 0 km/h
2278 14-06-2003 06:40:01 14.5 C 9.95 g/m*3 14.5 C 0 km/h
2279 14-06-2003 06:46:01 14.5 C 9.95 g/m*3 14.5 C 0 km/h
2280 14-06-2003 06:52:01 14.5 C 9.95 g/m*3 14.5 C 0 km/h
2281 14-06-2003 06:58:01 14.5 C 9.95 g/m*3 14.5 C 0 km/h
2282 14-06-2003 07:04:01 14.6 C 10.01 g/m*3 14.6 C 0 km/h
2283 14-06-2003 07:10:01 14.6 C 10.01 g/m*3 14.6 C 0 km/h
2284 14-06-2003 07:16:01 14.5 C 9.95 g/m*3 14.5 C 0 km/h
2285 14-06-2003 07:22:01 14.7 C 10.07 g/m*3 14.7 C 0 km/h
2286 14-06-2003 07:28:01 14.7 C 10.07 g/m*3 14.7 C 0 km/h
2287 14-06-2003 07:34:01 14.8 C 10.01 g/m*3 14.8 C 0 km/h
2288 14-06-2003 07:40:01 14.9 C 10.07 g/m*3 14.9 C 0 km/h
2289 14-06-2003 07:46:01 15 C 10 g/m*3 15 C 0 km/h
2290 14-06-2003 07:52:01 15.2 C 10.12 g/m*3 15.2 C 0 km/h
2291 14-06-2003 07:58:01 15.4 C 10.12 g/m*3 15.4 C 0 km/h
2292 14-06-2003 08:04:01 15.7 C 10.17 g/m*3 15.7 C 0 km/h
2293 14-06-2003 08:10:01 15.9 C 10.16 g/m*3 15.9 C 0 km/h
2294 14-06-2003 08:16:01 16.2 C 10.07 g/m*3 16.2 C 0 km/h
2295 14-06-2003 08:22:01 16.5 C 10.11 g/m*3 16.5 C 0 km/h
2296 14-06-2003 08:28:01 16.8 C 10.01 g/m*3 16.8 C 0 km/h
2297 14-06-2003 08:34:01 17 C 9.98 g/m*3 17 C 0 km/h
2298 14-06-2003 08:40:01 17.1 C 9.9 g/m*3 17.1 C 0 km/h
2299 14-06-2003 08:46:01 17.4 C 10.08 g/m*3 17.4 C 0 km/h
2300 14-06-2003 08:52:01 17.7 C 10.26 g/m*3 17.7 C 0 km/h
Sensor: Nr:Datum:Temp:Abs-Feuchte:Windchill:Wind:
Aussen-T/F 2301 14-06-2003 08:58:01 18.2 C 10.41 g/m*3 18.2 C 0 km/h
2302 14-06-2003 09:04:01 18.5 C 10.44 g/m*3 18.5 C 0 km/h
2303 14-06-2003 09:10:01 18.7 C 10.57 g/m*3 18.7 C 0 km/h
2304 14-06-2003 09:16:01 18.9 C 10.53 g/m*3 18.9 C 0 km/h
2305 14-06-2003 09:22:01 19.2 C 10.55 g/m*3 19.2 C 0 km/h
2306 14-06-2003 09:28:01 19.5 C 10.57 g/m*3 19.5 C 0 km/h
2307 14-06-2003 09:34:01 19.8 C 10.42 g/m*3 19.8 C 0 km/h
2308 14-06-2003 09:40:01 20.2 C 10.14 g/m*3 20.2 C 0 km/h
2309 14-06-2003 09:46:01 20.5 C 10.32 g/m*3 20.5 C 0 km/h
2310 14-06-2003 09:52:01 21.1 C 10.5 g/m*3 21.1 C 0 km/h
2311 14-06-2003 09:58:01 21.6 C 10.43 g/m*3 21.6 C 0 km/h
2312 14-06-2003 10:04:00 21.9 C 10.03 g/m*3 21.9 C 0 km/h
2313 14-06-2003 10:10:00 22.2 C 10.01 g/m*3 22.2 C 0 km/h
2314 14-06-2003 10:16:00 22.7 C 10.3 g/m*3 22.7 C 0 km/h
2315 14-06-2003 10:22:00 23.4 C 10.3 g/m*3 23.4 C 0 km/h
2316 14-06-2003 10:28:00 23.7 C 10.05 g/m*3 23.7 C 0 km/h
2317 14-06-2003 10:34:01 23.9 C 10.38 g/m*3 23.9 C 0 km/h
2318 14-06-2003 10:40:01 24.1 C 10.5 g/m*3 24.1 C 0 km/h
2319 14-06-2003 10:46:01 24 C 10.23 g/m*3 24 C 0 km/h
2320 14-06-2003 10:52:01 23.8 C 10.11 g/m*3 23.8 C 0 km/h
2321 14-06-2003 10:58:01 23.7 C 10.48 g/m*3 23.7 C 0 km/h
2322 14-06-2003 11:04:01 24.3 C 10.4 g/m*3 24.3 C 0 km/h
2323 14-06-2003 11:10:01 25.1 C 10.65 g/m*3 25.1 C 0 km/h
2324 14-06-2003 11:16:01 25.7 C 10.77 g/m*3 25.7 C 0 km/h
2325 14-06-2003 11:22:01 26 C 10.47 g/m*3 26 C 0 km/h
Sensor: Nr:Datum:Temp:Abs-Feuchte:Windchill:Wind:
Aussen-T/F 2326 14-06-2003 11:28:01 26.3 C 10.15 g/m*3 26.3 C 0 km/h
2327 14-06-2003 11:34:02 26.3 C 10.15 g/m*3 26.3 C 0 km/h
2328 14-06-2003 11:40:02 26.4 C 10.46 g/m*3 26.4 C 0 km/h
2329 14-06-2003 11:46:02 26.5 C 11.01 g/m*3 26.5 C 0 km/h
2330 14-06-2003 11:52:02 26.4 C 11.45 g/m*3 26.4 C 0 km/h
2331 14-06-2003 11:58:02 26.3 C 11.39 g/m*3 26.3 C 0 km/h
2332 14-06-2003 12:04:01 26 C 10.47 g/m*3 26 C 0 km/h
2333 14-06-2003 12:10:01 25.3 C 11 g/m*3 25.3 C 0 km/h
2334 14-06-2003 12:16:01 24.7 C 12.22 g/m*3 24.7 C 0 km/h
2335 14-06-2003 12:22:01 24 C 12.62 g/m*3 24 C 0 km/h
2336 14-06-2003 12:28:01 23.5 C 12.27 g/m*3 23.5 C 0 km/h
2337 14-06-2003 12:34:01 23.1 C 12.82 g/m*3 23.1 C 0 km/h
2338 14-06-2003 12:40:01 22.8 C 13 g/m*3 22.8 C 0 km/h
2339 14-06-2003 12:46:01 22.5 C 12.78 g/m*3 22.5 C 0 km/h
2340 14-06-2003 12:52:01 22.2 C 12.96 g/m*3 22.2 C 0 km/h
2341 14-06-2003 12:58:01 21.9 C 13.12 g/m*3 21.9 C 0 km/h
2342 14-06-2003 13:04:03 21.8 C 13.24 g/m*3 21.8 C 0 km/h
2343 14-06-2003 13:10:03 21 C 12.09 g/m*3 21 C 0 km/h
2344 14-06-2003 13:16:01 20.7 C 11.88 g/m*3 20.7 C 0 km/h
2345 14-06-2003 13:22:01 20.2 C 11.89 g/m*3 20.2 C 0 km/h
2346 14-06-2003 13:28:01 19.5 C 12.42 g/m*3 19.5 C 0 km/h
2347 14-06-2003 13:34:02 18.9 C 12.47 g/m*3 18.9 C 0 km/h
2348 14-06-2003 13:40:02 18.3 C 12.2 g/m*3 18.3 C 0 km/h
2349 14-06-2003 13:46:02 17.8 C 12.45 g/m*3 17.8 C 0 km/h
2350 14-06-2003 13:52:02 17.4 C 12.45 g/m*3 17.4 C 0 km/h
Sensor: Nr:Datum:Temp:Abs-Feuchte:Windchill:Wind:
Aussen-T/F 2351 14-06-2003 13:58:02 17.2 C 12.45 g/m*3 17.2 C 0 km/h
2352 14-06-2003 14:04:02 17 C 12.59 g/m*3 17 C 0 km/h
2353 14-06-2003 14:10:02 16.6 C 12.43 g/m*3 16.6 C 0 km/h
2354 14-06-2003 14:16:02 16.8 C 12.72 g/m*3 16.8 C 0 km/h
2355 14-06-2003 14:22:02 17 C 12.88 g/m*3 17 C 0 km/h
2356 14-06-2003 14:28:02 17.3 C 13.26 g/m*3 17.3 C 0 km/h
2357 14-06-2003 14:34:02 17.6 C 13.5 g/m*3 17.6 C 0 km/h
2358 14-06-2003 14:40:02 18.6 C 14.17 g/m*3 18.6 C 0 km/h
2359 14-06-2003 14:46:02 18.8 C 14.01 g/m*3 18.8 C 0 km/h
2360 14-06-2003 14:52:02 18.8 C 13.37 g/m*3 18.8 C 0 km/h
2361 14-06-2003 14:58:02 19 C 13.36 g/m*3 19 C 0 km/h
2362 14-06-2003 15:04:01 19.6 C 14.01 g/m*3 19.6 C 0 km/h
2363 14-06-2003 15:10:01 20 C 14 g/m*3 20 C 0 km/h
2364 14-06-2003 15:16:01 20.4 C 14.15 g/m*3 20.4 C 0 km/h
2365 14-06-2003 15:22:01 20.7 C 14.04 g/m*3 20.7 C 0 km/h
2366 14-06-2003 15:28:01 21 C 13.56 g/m*3 21 C 0 km/h
2367 14-06-2003 15:34:00 21.2 C 13.16 g/m*3 21.2 C 0 km/h
2368 14-06-2003 15:40:00 21.3 C 13.61 g/m*3 21.3 C 0 km/h
2369 14-06-2003 15:46:00 21.6 C 13.09 g/m*3 21.6 C 0 km/h
2370 14-06-2003 15:52:00 21.8 C 13.24 g/m*3 21.8 C 0 km/h
2371 14-06-2003 15:58:00 22 C 13.39 g/m*3 22 C 0 km/h
2372 14-06-2003 16:04:01 22.2 C 13.15 g/m*3 22.2 C 0 km/h
2373 14-06-2003 16:10:01 22.4 C 13.11 g/m*3 22.4 C 0 km/h
2374 14-06-2003 16:16:01 23.3 C 12.75 g/m*3 23.3 C 0 km/h
2375 14-06-2003 16:22:01 23.3 C 12.34 g/m*3 23.3 C 0 km/h
Sensor: Nr:Datum:Temp:Abs-Feuchte:Windchill:Wind:
Aussen-T/F 2376 14-06-2003 16:28:01 23.4 C 12.41 g/m*3 23.4 C 0 km/h
2377 14-06-2003 16:34:02 24.7 C 12.68 g/m*3 24.7 C 0 km/h
2378 14-06-2003 16:40:02 24.6 C 12.6 g/m*3 24.6 C 0 km/h
2379 14-06-2003 16:46:02 23.9 C 12.33 g/m*3 23.9 C 0 km/h
2380 14-06-2003 16:52:02 23.3 C 11.92 g/m*3 23.3 C 0 km/h
2381 14-06-2003 16:58:02 22.8 C 11.99 g/m*3 22.8 C 0 km/h
2382 14-06-2003 17:04:02 22.8 C 12.4 g/m*3 22.8 C 0 km/h
2383 14-06-2003 17:10:02 22.9 C 12.47 g/m*3 22.9 C 0 km/h
2384 14-06-2003 17:16:02 22.9 C 12.47 g/m*3 22.9 C 0 km/h
2385 14-06-2003 17:22:02 23.3 C 12.55 g/m*3 23.3 C 0 km/h
2386 14-06-2003 17:28:02 23.8 C 12.91 g/m*3 23.8 C 0 km/h
2387 14-06-2003 17:34:01 24.1 C 12.03 g/m*3 24.1 C 0 km/h
2388 14-06-2003 17:40:01 24.3 C 11.95 g/m*3 24.3 C 0 km/h
2389 14-06-2003 17:46:01 24.3 C 12.39 g/m*3 24.3 C 0 km/h
2390 14-06-2003 17:52:01 23.7 C 11.98 g/m*3 23.7 C 0 km/h
2391 14-06-2003 17:58:01 23.5 C 12.27 g/m*3 23.5 C 0 km/h
2392 14-06-2003 18:04:01 24.2 C 12.76 g/m*3 24.2 C 0 km/h
2393 14-06-2003 18:10:01 24.1 C 12.25 g/m*3 24.1 C 0 km/h
2394 14-06-2003 18:16:01 23.7 C 12.62 g/m*3 23.7 C 0 km/h
2395 14-06-2003 18:22:01 23.7 C 12.62 g/m*3 23.7 C 0 km/h
2396 14-06-2003 18:28:01 23.7 C 13.26 g/m*3 23.7 C 0 km/h
2397 14-06-2003 18:34:01 23.7 C 13.69 g/m*3 23.7 C 0 km/h
2398 14-06-2003 18:40:01 23.3 C 13.59 g/m*3 23.3 C 0 km/h
2399 14-06-2003 18:46:01 23 C 13.57 g/m*3 23 C 0 km/h
2400 14-06-2003 18:52:01 22.7 C 13.74 g/m*3 22.7 C 0 km/h
Sensor: Nr:Datum:Temp:Abs-Feuchte:Windchill:Wind:
Aussen-T/F 2401 14-06-2003 18:58:01 22.5 C 13.58 g/m*3 22.5 C 0 km/h
2402 14-06-2003 19:04:02 22 C 13.2 g/m*3 22 C 0 km/h
2403 14-06-2003 19:10:02 21.6 C 13.47 g/m*3 21.6 C 0 km/h
2404 14-06-2003 19:16:02 21.4 C 13.5 g/m*3 21.4 C 0 km/h
2405 14-06-2003 19:22:02 21.4 C 13.5 g/m*3 21.4 C 0 km/h
2406 14-06-2003 19:28:02 21.6 C 13.66 g/m*3 21.6 C 0 km/h
2407 14-06-2003 19:34:02 21.7 C 13.73 g/m*3 21.7 C 0 km/h
2408 14-06-2003 19:40:02 21.8 C 13.81 g/m*3 21.8 C 0 km/h
2409 14-06-2003 19:46:02 21.7 C 13.73 g/m*3 21.7 C 0 km/h
2410 14-06-2003 19:52:02 21.7 C 13.93 g/m*3 21.7 C 0 km/h
2411 14-06-2003 19:58:02 21.4 C 13.87 g/m*3 21.4 C 0 km/h
2412 14-06-2003 20:04:00 21.3 C 13.79 g/m*3 21.3 C 0 km/h
2413 14-06-2003 20:10:00 21.3 C 13.98 g/m*3 21.3 C 0 km/h
2414 14-06-2003 20:16:00 21.1 C 13.63 g/m*3 21.1 C 0 km/h
2415 14-06-2003 20:22:00 20.9 C 13.48 g/m*3 20.9 C 0 km/h
2416 14-06-2003 20:28:00 20.8 C 13.58 g/m*3 20.8 C 0 km/h
2417 14-06-2003 20:34:00 20.6 C 13.24 g/m*3 20.6 C 0 km/h
2418 14-06-2003 20:40:00 20.4 C 13.27 g/m*3 20.4 C 0 km/h
2419 14-06-2003 20:46:00 20.4 C 13.27 g/m*3 20.4 C 0 km/h
2420 14-06-2003 20:52:00 20.3 C 13.19 g/m*3 20.3 C 0 km/h
2421 14-06-2003 20:58:00 20.2 C 13.29 g/m*3 20.2 C 0 km/h
2422 14-06-2003 21:04:02 20.2 C 13.29 g/m*3 20.2 C 0 km/h
2423 14-06-2003 21:10:02 20.1 C 13.39 g/m*3 20.1 C 0 km/h
2424 14-06-2003 21:16:02 20.1 C 13.21 g/m*3 20.1 C 0 km/h
2425 14-06-2003 21:22:02 20.1 C 13.21 g/m*3 20.1 C 0 km/h
Sensor: Nr:Datum:Temp:Abs-Feuchte:Windchill:Wind:
Aussen-T/F 2426 14-06-2003 21:28:02 20.1 C 13.21 g/m*3 20.1 C 0 km/h
2427 14-06-2003 21:34:00 20 C 13.31 g/m*3 20 C 0 km/h
2428 14-06-2003 21:40:00 20 C 13.31 g/m*3 20 C 0 km/h
2429 14-06-2003 21:46:00 19.9 C 13.4 g/m*3 19.9 C 0 km/h
2430 14-06-2003 21:52:00 19.9 C 13.4 g/m*3 19.9 C 0 km/h
2431 14-06-2003 21:58:00 19.8 C 13.32 g/m*3 19.8 C 0 km/h
2432 14-06-2003 22:04:01 19.8 C 13.32 g/m*3 19.8 C 0 km/h
2433 14-06-2003 22:10:01 19.8 C 13.32 g/m*3 19.8 C 0 km/h
2434 14-06-2003 22:16:01 19.5 C 13.26 g/m*3 19.5 C 0 km/h
2435 14-06-2003 22:22:01 19.4 C 13.18 g/m*3 19.4 C 0 km/h
2436 14-06-2003 22:28:01 19.3 C 13.1 g/m*3 19.3 C 0 km/h
2437 14-06-2003 22:35:02 19.3 C 12.94 g/m*3 19.3 C 0 km/h
2438 14-06-2003 22:41:02 19.3 C 12.94 g/m*3 19.3 C 0 km/h
2439 14-06-2003 22:47:02 19.3 C 13.1 g/m*3 19.3 C 0 km/h
2440 14-06-2003 22:53:02 19.2 C 13.19 g/m*3 19.2 C 0 km/h
2441 14-06-2003 22:59:02 19.1 C 12.95 g/m*3 19.1 C 0 km/h
2442 14-06-2003 23:05:02 19.1 C 12.79 g/m*3 19.1 C 0 km/h
2443 14-06-2003 23:11:02 18.9 C 12.8 g/m*3 18.9 C 0 km/h
2444 14-06-2003 23:17:02 18.8 C 12.72 g/m*3 18.8 C 0 km/h
2445 14-06-2003 23:23:02 18.8 C 12.72 g/m*3 18.8 C 0 km/h
2446 14-06-2003 23:29:02 18.7 C 12.81 g/m*3 18.7 C 0 km/h
2447 14-06-2003 23:35:02 18.6 C 12.73 g/m*3 18.6 C 0 km/h
2448 14-06-2003 23:41:02 18.5 C 12.66 g/m*3 18.5 C 0 km/h
2449 14-06-2003 23:47:02 18.3 C 12.51 g/m*3 18.3 C 0 km/h
2450 14-06-2003 23:53:02 18.2 C 12.43 g/m*3 18.2 C 0 km/h
Sensor: Nr:Datum:Temp:Abs-Feuchte:Windchill:Wind:
Aussen-T/F 2451 14-06-2003 23:59:02 18.1 C 12.36 g/m*3 18.1 C 0 km/h
2452 15-06-2003 00:05:02 18 C 12.13 g/m*3 18 C 0 km/h
2453 15-06-2003 00:11:02 18 C 11.98 g/m*3 18 C 0 km/h
2454 15-06-2003 00:17:02 18 C 11.98 g/m*3 18 C 0 km/h
2455 15-06-2003 00:23:02 17.9 C 11.91 g/m*3 17.9 C 0 km/h
2456 15-06-2003 00:29:02 17.8 C 11.99 g/m*3 17.8 C 0 km/h
2457 15-06-2003 00:35:02 17.7 C 11.92 g/m*3 17.7 C 0 km/h
2458 15-06-2003 00:41:02 17.6 C 11.85 g/m*3 17.6 C 0 km/h
2459 15-06-2003 00:47:02 17.5 C 11.93 g/m*3 17.5 C 0 km/h
2460 15-06-2003 00:53:02 17.4 C 11.86 g/m*3 17.4 C 0 km/h
2461 15-06-2003 00:59:02 17.4 C 11.86 g/m*3 17.4 C 0 km/h
2462 15-06-2003 01:05:02 17.2 C 11.72 g/m*3 17.2 C 0 km/h
2463 15-06-2003 01:11:02 17.2 C 11.72 g/m*3 17.2 C 0 km/h
2464 15-06-2003 01:17:02 17.3 C 11.79 g/m*3 17.3 C 0 km/h
2465 15-06-2003 01:23:02 17.3 C 11.79 g/m*3 17.3 C 0 km/h
2466 15-06-2003 01:29:02 17.4 C 11.86 g/m*3 17.4 C 0 km/h
2467 15-06-2003 01:35:02 17.4 C 11.86 g/m*3 17.4 C 0 km/h
2468 15-06-2003 01:41:02 17.5 C 11.93 g/m*3 17.5 C 0 km/h
2469 15-06-2003 01:47:02 17.5 C 11.93 g/m*3 17.5 C 0 km/h
2470 15-06-2003 01:53:02 17.3 C 11.79 g/m*3 17.3 C 0 km/h
2471 15-06-2003 01:59:02 17.2 C 11.57 g/m*3 17.2 C 0 km/h
2472 15-06-2003 02:11:02 16.9 C 11.65 g/m*3 16.9 C 0 km/h
2473 15-06-2003 02:17:02 16.8 C 11.58 g/m*3 16.8 C 0 km/h
2474 15-06-2003 02:23:02 16.8 C 11.72 g/m*3 16.8 C 0 km/h
2475 15-06-2003 02:29:02 16.6 C 11.58 g/m*3 16.6 C 0 km/h
Sensor: Nr:Datum:Temp:Abs-Feuchte:Windchill:Wind:
Aussen-T/F 2476 15-06-2003 02:35:02 16.6 C 11.44 g/m*3 16.6 C 0 km/h
2477 15-06-2003 02:41:02 16.6 C 11.3 g/m*3 16.6 C 0 km/h
2478 15-06-2003 02:47:02 16.6 C 11.16 g/m*3 16.6 C 0 km/h
2479 15-06-2003 02:53:02 16.7 C 11.23 g/m*3 16.7 C 0 km/h
2480 15-06-2003 02:59:02 16.6 C 11.16 g/m*3 16.6 C 0 km/h
2481 15-06-2003 03:05:02 16.4 C 11.17 g/m*3 16.4 C 0 km/h
2482 15-06-2003 03:11:02 16.2 C 10.89 g/m*3 16.2 C 0 km/h
2483 15-06-2003 03:17:02 16.1 C 10.83 g/m*3 16.1 C 0 km/h
2484 15-06-2003 03:23:02 16 C 10.9 g/m*3 16 C 0 km/h
2485 15-06-2003 03:29:02 15.8 C 10.9 g/m*3 15.8 C 0 km/h
2486 15-06-2003 03:35:02 15.7 C 10.97 g/m*3 15.7 C 0 km/h
2487 15-06-2003 03:41:02 15.6 C 10.91 g/m*3 15.6 C 0 km/h
2488 15-06-2003 03:47:02 15.6 C 10.91 g/m*3 15.6 C 0 km/h
2489 15-06-2003 03:53:02 15.6 C 10.91 g/m*3 15.6 C 0 km/h
2490 15-06-2003 03:59:02 15.7 C 10.97 g/m*3 15.7 C 0 km/h
2491 15-06-2003 04:05:02 15.8 C 10.9 g/m*3 15.8 C 0 km/h
2492 15-06-2003 04:11:02 15.9 C 10.97 g/m*3 15.9 C 0 km/h
2493 15-06-2003 04:17:02 16 C 10.76 g/m*3 16 C 0 km/h
2494 15-06-2003 04:23:02 16 C 10.63 g/m*3 16 C 0 km/h
2495 15-06-2003 04:29:02 16 C 10.63 g/m*3 16 C 0 km/h
2496 15-06-2003 04:35:02 16 C 10.63 g/m*3 16 C 0 km/h
2497 15-06-2003 04:41:02 15.9 C 10.7 g/m*3 15.9 C 0 km/h
2498 15-06-2003 04:47:02 15.8 C 10.77 g/m*3 15.8 C 0 km/h
2499 15-06-2003 04:53:02 15.7 C 10.84 g/m*3 15.7 C 0 km/h
2500 15-06-2003 04:59:02 15.6 C 10.77 g/m*3 15.6 C 0 km/h
Sensor: Nr:Datum:Temp:Abs-Feuchte:Windchill:Wind:
Aussen-T/F 2501 15-06-2003 05:05:02 15.5 C 10.71 g/m*3 15.5 C 0 km/h
2502 15-06-2003 05:11:02 15.4 C 10.64 g/m*3 15.4 C 0 km/h
2503 15-06-2003 05:17:02 15.4 C 10.77 g/m*3 15.4 C 0 km/h
2504 15-06-2003 05:23:02 15.2 C 10.64 g/m*3 15.2 C 0 km/h
2505 15-06-2003 05:29:02 15.1 C 10.58 g/m*3 15.1 C 0 km/h
2506 15-06-2003 05:35:02 15 C 10.51 g/m*3 15 C 0 km/h
2507 15-06-2003 05:41:02 15 C 10.51 g/m*3 15 C 0 km/h
2508 15-06-2003 05:47:02 15 C 10.51 g/m*3 15 C 0 km/h
2509 15-06-2003 05:53:02 14.9 C 10.71 g/m*3 14.9 C 0 km/h
2510 15-06-2003 05:59:02 14.9 C 10.58 g/m*3 14.9 C 0 km/h
2511 15-06-2003 06:05:02 14.8 C 10.51 g/m*3 14.8 C 0 km/h
2512 15-06-2003 06:11:02 14.9 C 10.58 g/m*3 14.9 C 0 km/h
2513 15-06-2003 06:17:02 14.9 C 10.58 g/m*3 14.9 C 0 km/h
2514 15-06-2003 06:23:02 14.9 C 10.58 g/m*3 14.9 C 0 km/h
2515 15-06-2003 06:29:02 14.9 C 10.58 g/m*3 14.9 C 0 km/h
2516 15-06-2003 06:35:02 15 C 10.64 g/m*3 15 C 0 km/h
2517 15-06-2003 06:41:02 15.1 C 10.45 g/m*3 15.1 C 0 km/h
2518 15-06-2003 06:47:02 15.1 C 10.58 g/m*3 15.1 C 0 km/h
2519 15-06-2003 06:53:02 15.1 C 10.45 g/m*3 15.1 C 0 km/h
2520 15-06-2003 06:59:02 15.2 C 10.64 g/m*3 15.2 C 0 km/h
2521 15-06-2003 07:05:02 15.2 C 10.64 g/m*3 15.2 C 0 km/h
2522 15-06-2003 07:11:02 15.3 C 10.58 g/m*3 15.3 C 0 km/h
2523 15-06-2003 07:17:02 15.4 C 10.64 g/m*3 15.4 C 0 km/h
2524 15-06-2003 07:23:02 15.6 C 10.64 g/m*3 15.6 C 0 km/h
2525 15-06-2003 07:29:02 15.6 C 10.64 g/m*3 15.6 C 0 km/h
Sensor: Nr:Datum:Temp:Abs-Feuchte:Windchill:Wind:
Aussen-T/F 2526 15-06-2003 07:35:02 15.6 C 10.51 g/m*3 15.6 C 0 km/h
2527 15-06-2003 07:41:02 15.6 C 10.51 g/m*3 15.6 C 0 km/h
2528 15-06-2003 07:47:02 15.8 C 10.63 g/m*3 15.8 C 0 km/h
2529 15-06-2003 07:53:02 15.9 C 10.7 g/m*3 15.9 C 0 km/h
2530 15-06-2003 07:59:02 16 C 10.63 g/m*3 16 C 0 km/h
2531 15-06-2003 08:05:02 16.2 C 10.76 g/m*3 16.2 C 0 km/h
2532 15-06-2003 08:11:02 16.3 C 10.68 g/m*3 16.3 C 0 km/h
2533 15-06-2003 08:17:02 16.4 C 10.89 g/m*3 16.4 C 0 km/h
2534 15-06-2003 08:23:02 16.5 C 10.81 g/m*3 16.5 C 0 km/h
2535 15-06-2003 08:29:02 16.6 C 10.88 g/m*3 16.6 C 0 km/h
2536 15-06-2003 08:35:02 16.7 C 10.94 g/m*3 16.7 C 0 km/h
2537 15-06-2003 08:41:02 16.9 C 10.93 g/m*3 16.9 C 0 km/h
2538 15-06-2003 08:47:02 17.1 C 11.06 g/m*3 17.1 C 0 km/h
2539 15-06-2003 08:53:02 17.3 C 10.9 g/m*3 17.3 C 0 km/h
2540 15-06-2003 08:59:02 17.6 C 10.8 g/m*3 17.6 C 0 km/h
2541 15-06-2003 09:05:02 17.8 C 11.08 g/m*3 17.8 C 0 km/h
2542 15-06-2003 09:11:02 17.9 C 10.99 g/m*3 17.9 C 0 km/h
2543 15-06-2003 09:17:02 18.3 C 11.1 g/m*3 18.3 C 0 km/h
2544 15-06-2003 09:23:02 18.6 C 11.14 g/m*3 18.6 C 0 km/h
2545 15-06-2003 09:29:02 18.9 C 11.34 g/m*3 18.9 C 0 km/h
2546 15-06-2003 09:35:01 19.1 C 10.98 g/m*3 19.1 C 0 km/h
2547 15-06-2003 09:41:01 19.4 C 11.18 g/m*3 19.4 C 0 km/h
2548 15-06-2003 09:47:01 19.7 C 10.87 g/m*3 19.7 C 0 km/h
2549 15-06-2003 09:53:01 19.9 C 11 g/m*3 19.9 C 0 km/h
2550 15-06-2003 09:59:01 20.3 C 10.73 g/m*3 20.3 C 0 km/h
Sensor: Nr:Datum:Temp:Abs-Feuchte:Windchill:Wind:
Aussen-T/F 2551 15-06-2003 10:05:02 20.5 C 10.68 g/m*3 20.5 C 0 km/h
2552 15-06-2003 10:11:02 20.8 C 10.86 g/m*3 20.8 C 0 km/h
2553 15-06-2003 10:17:02 21.1 C 10.69 g/m*3 21.1 C 0 km/h
2554 15-06-2003 10:23:02 21.6 C 10.81 g/m*3 21.6 C 0 km/h
2555 15-06-2003 10:29:02 22 C 10.87 g/m*3 22 C 0 km/h
2556 15-06-2003 10:35:02 21.8 C 10.55 g/m*3 21.8 C 0 km/h
2557 15-06-2003 10:41:02 22.3 C 10.86 g/m*3 22.3 C 0 km/h
2558 15-06-2003 10:47:02 22.7 C 11.11 g/m*3 22.7 C 0 km/h
2559 15-06-2003 10:53:02 22.5 C 10.39 g/m*3 22.5 C 0 km/h
2560 15-06-2003 10:59:02 23 C 10.69 g/m*3 23 C 0 km/h
2561 15-06-2003 11:05:01 23.1 C 10.34 g/m*3 23.1 C 0 km/h
2562 15-06-2003 11:11:01 23.4 C 10.3 g/m*3 23.4 C 0 km/h
2563 15-06-2003 11:17:01 23.4 C 10.09 g/m*3 23.4 C 0 km/h
2564 15-06-2003 11:23:01 24 C 10.23 g/m*3 24 C 0 km/h
2565 15-06-2003 11:29:01 23.8 C 10.11 g/m*3 23.8 C 0 km/h
2566 15-06-2003 11:35:01 24.3 C 10.18 g/m*3 24.3 C 0 km/h
2567 15-06-2003 11:41:01 24.7 C 10.19 g/m*3 24.7 C 0 km/h
2568 15-06-2003 11:47:01 24.9 C 10.07 g/m*3 24.9 C 0 km/h
2569 15-06-2003 11:53:01 25.1 C 9.49 g/m*3 25.1 C 0 km/h
2570 15-06-2003 11:59:01 25.9 C 10.41 g/m*3 25.9 C 0 km/h
2571 15-06-2003 12:05:01 26.7 C 9.62 g/m*3 26.7 C 0 km/h
2572 15-06-2003 12:11:01 26.6 C 9.31 g/m*3 26.6 C 0 km/h
2573 15-06-2003 12:17:01 26.5 C 9.76 g/m*3 26.5 C 0 km/h
2574 15-06-2003 12:23:01 27.2 C 9.63 g/m*3 27.2 C 0 km/h
2575 15-06-2003 12:29:01 27.4 C 9.74 g/m*3 27.4 C 0 km/h
Sensor: Nr:Datum:Temp:Abs-Feuchte:Windchill:Wind:
Aussen-T/F 2576 15-06-2003 12:35:01 27.3 C 9.94 g/m*3 27.3 C 0 km/h
2577 15-06-2003 12:41:01 27 C 9.01 g/m*3 27 C 0 km/h
2578 15-06-2003 12:47:01 27.7 C 9.09 g/m*3 27.7 C 0 km/h
2579 15-06-2003 12:53:01 28.8 C 8.81 g/m*3 28.8 C 0 km/h
2580 15-06-2003 12:59:01 27.5 C 9.79 g/m*3 27.5 C 0 km/h
2581 15-06-2003 13:05:00 28.3 C 8.85 g/m*3 28.3 C 0 km/h
2582 15-06-2003 13:11:00 27.5 C 9.26 g/m*3 27.5 C 0 km/h
2583 15-06-2003 13:17:00 26.7 C 9.11 g/m*3 26.7 C 0 km/h
2584 15-06-2003 13:23:00 26.4 C 9.46 g/m*3 26.4 C 0 km/h
2585 15-06-2003 13:29:00 26.3 C 9.9 g/m*3 26.3 C 0 km/h
2586 15-06-2003 13:35:02 26 C 9.49 g/m*3 26 C 0 km/h
2587 15-06-2003 13:41:02 25.8 C 10.83 g/m*3 25.8 C 0 km/h
2588 15-06-2003 13:47:02 25.7 C 11.01 g/m*3 25.7 C 0 km/h
2589 15-06-2003 13:53:02 27.2 C 9.37 g/m*3 27.2 C 0 km/h
2590 15-06-2003 13:59:02 26.9 C 9.73 g/m*3 26.9 C 0 km/h
2591 15-06-2003 14:05:01 27.2 C 9.37 g/m*3 27.2 C 0 km/h
2592 15-06-2003 14:11:01 27.3 C 10.2 g/m*3 27.3 C 0 km/h
2593 15-06-2003 14:17:01 27.2 C 9.89 g/m*3 27.2 C 0 km/h
2594 15-06-2003 14:23:01 27.3 C 10.47 g/m*3 27.3 C 0 km/h
2595 15-06-2003 14:29:01 27.1 C 10.35 g/m*3 27.1 C 0 km/h
2596 15-06-2003 14:35:01 27.1 C 11.13 g/m*3 27.1 C 0 km/h
2597 15-06-2003 14:41:01 27.6 C 10.11 g/m*3 27.6 C 0 km/h
2598 15-06-2003 14:47:01 28 C 10.33 g/m*3 28 C 0 km/h
2599 15-06-2003 14:53:01 29.3 C 9.93 g/m*3 29.3 C 0 km/h
2600 15-06-2003 14:59:01 30 C 9.7 g/m*3 30 C 0 km/h
Sensor: Nr:Datum:Temp:Abs-Feuchte:Windchill:Wind:
Aussen-T/F 2601 15-06-2003 15:05:02 29.9 C 9.95 g/m*3 29.9 C 0 km/h
2602 15-06-2003 15:11:02 30 C 9.7 g/m*3 30 C 0 km/h
2603 15-06-2003 15:17:02 29.9 C 9.65 g/m*3 29.9 C 0 km/h
2604 15-06-2003 15:23:02 29.6 C 9.5 g/m*3 29.6 C 0 km/h
2605 15-06-2003 15:29:02 29.3 C 9.34 g/m*3 29.3 C 0 km/h
2606 15-06-2003 15:35:02 29.4 C 9.39 g/m*3 29.4 C 0 km/h
2607 15-06-2003 15:41:02 29.8 C 9.3 g/m*3 29.8 C 0 km/h
2608 15-06-2003 15:47:02 30 C 9.4 g/m*3 30 C 0 km/h
2609 15-06-2003 15:53:02 30 C 9.4 g/m*3 30 C 0 km/h
2610 15-06-2003 15:59:02 30 C 9.4 g/m*3 30 C 0 km/h
2611 15-06-2003 16:05:02 30.2 C 9.2 g/m*3 30.2 C 0 km/h
2612 15-06-2003 16:11:02 30.1 C 9.45 g/m*3 30.1 C 0 km/h
2613 15-06-2003 16:17:02 30 C 9.1 g/m*3 30 C 0 km/h
2614 15-06-2003 16:23:02 30.3 C 9.55 g/m*3 30.3 C 0 km/h
2615 15-06-2003 16:29:02 30.3 C 9.55 g/m*3 30.3 C 0 km/h
2616 15-06-2003 16:35:01 30.9 C 9.23 g/m*3 30.9 C 0 km/h
2617 15-06-2003 16:41:01 30.6 C 9.4 g/m*3 30.6 C 0 km/h
2618 15-06-2003 16:47:01 30.1 C 9.15 g/m*3 30.1 C 0 km/h
2619 15-06-2003 16:53:01 29.3 C 9.34 g/m*3 29.3 C 0 km/h
2620 15-06-2003 16:59:01 29.2 C 9 g/m*3 29.2 C 0 km/h
2621 15-06-2003 17:05:00 28.4 C 8.9 g/m*3 28.4 C 0 km/h
2622 15-06-2003 17:11:00 28.8 C 9.09 g/m*3 28.8 C 0 km/h
2623 15-06-2003 17:17:00 29.5 C 9.15 g/m*3 29.5 C 0 km/h
2624 15-06-2003 17:23:00 28.9 C 9.43 g/m*3 28.9 C 0 km/h
2625 15-06-2003 17:29:00 28.9 C 8.86 g/m*3 28.9 C 0 km/h
Sensor: Nr:Datum:Temp:Abs-Feuchte:Windchill:Wind:
Aussen-T/F 2626 15-06-2003 17:35:01 29.4 C 9.69 g/m*3 29.4 C 0 km/h
2627 15-06-2003 17:41:01 30 C 10.31 g/m*3 30 C 0 km/h
2628 15-06-2003 17:47:01 30 C 10.31 g/m*3 30 C 0 km/h
2629 15-06-2003 17:53:01 30.1 C 10.06 g/m*3 30.1 C 0 km/h
2630 15-06-2003 17:59:01 30.4 C 9.3 g/m*3 30.4 C 0 km/h
2631 15-06-2003 18:05:01 30.4 C 8.68 g/m*3 30.4 C 0 km/h
2632 15-06-2003 18:11:01 30.5 C 9.03 g/m*3 30.5 C 0 km/h
2633 15-06-2003 18:17:01 30.6 C 10.02 g/m*3 30.6 C 0 km/h
2634 15-06-2003 18:23:01 30.6 C 9.4 g/m*3 30.6 C 0 km/h
2635 15-06-2003 18:29:01 30 C 9.1 g/m*3 30 C 0 km/h
2636 15-06-2003 18:35:01 29.9 C 8.75 g/m*3 29.9 C 0 km/h
2637 15-06-2003 18:41:01 30.1 C 10.06 g/m*3 30.1 C 0 km/h
2638 15-06-2003 18:47:01 30.2 C 10.12 g/m*3 30.2 C 0 km/h
2639 15-06-2003 18:53:01 30.3 C 9.25 g/m*3 30.3 C 0 km/h
2640 15-06-2003 18:59:01 30.3 C 9.25 g/m*3 30.3 C 0 km/h
2641 15-06-2003 19:05:01 30 C 8.49 g/m*3 30 C 0 km/h
2642 15-06-2003 19:11:01 29.5 C 9.74 g/m*3 29.5 C 0 km/h
2643 15-06-2003 19:17:01 29 C 9.48 g/m*3 29 C 0 km/h
2644 15-06-2003 19:23:01 28.4 C 9.73 g/m*3 28.4 C 0 km/h
2645 15-06-2003 19:29:01 28 C 11.42 g/m*3 28 C 0 km/h
2646 15-06-2003 19:35:01 27.4 C 11.31 g/m*3 27.4 C 0 km/h
2647 15-06-2003 19:41:01 26.9 C 11.52 g/m*3 26.9 C 0 km/h
2648 15-06-2003 19:47:01 26.5 C 11.51 g/m*3 26.5 C 0 km/h
2649 15-06-2003 19:53:01 26.1 C 11.75 g/m*3 26.1 C 0 km/h
2650 15-06-2003 19:59:01 25.8 C 12.04 g/m*3 25.8 C 0 km/h
Sensor: Nr:Datum:Temp:Abs-Feuchte:Windchill:Wind:
Aussen-T/F 2651 15-06-2003 20:05:01 25.5 C 12.07 g/m*3 25.5 C 0 km/h
2652 15-06-2003 20:11:01 25 C 11.51 g/m*3 25 C 0 km/h
2653 15-06-2003 20:17:01 24.9 C 11.45 g/m*3 24.9 C 0 km/h
2654 15-06-2003 20:23:01 24.5 C 11.64 g/m*3 24.5 C 0 km/h
2655 15-06-2003 20:29:01 24.3 C 11.29 g/m*3 24.3 C 0 km/h
2656 15-06-2003 20:50:00 23.4 C 11.14 g/m*3 23.4 C 0 km/h
2657 15-06-2003 21:12:02 23.3 C 11.29 g/m*3 23.3 C 0 km/h
2658 15-06-2003 21:34:00 22.6 C 11.05 g/m*3 22.6 C 0 km/h
2659 15-06-2003 21:56:00 22.6 C 10.25 g/m*3 22.6 C 0 km/h
2660 15-06-2003 22:32:11 22.4 C 10.33 g/m*3 22.4 C 0 km/h
2661 15-06-2003 22:54:11 22 C 10.09 g/m*3 22 C 0 km/h
2662 15-06-2003 23:16:11 21.4 C 9.94 g/m*3 21.4 C 0 km/h
2663 15-06-2003 23:38:11 20.7 C 9.72 g/m*3 20.7 C 0 km/h
2664 16-06-2003 00:00:11 20.4 C 10.26 g/m*3 20.4 C 0 km/h
2665 16-06-2003 00:22:11 19.8 C 10.25 g/m*3 19.8 C 0 km/h
2666 16-06-2003 00:44:11 19.4 C 10.18 g/m*3 19.4 C 0 km/h
2667 16-06-2003 01:06:11 19 C 9.78 g/m*3 19 C 0 km/h
2668 16-06-2003 01:28:11 18.5 C 9.81 g/m*3 18.5 C 0 km/h
2669 16-06-2003 01:50:11 18.4 C 10.07 g/m*3 18.4 C 0 km/h
2670 16-06-2003 02:12:11 18.6 C 10.03 g/m*3 18.6 C 0 km/h
2671 16-06-2003 02:34:11 18.4 C 9.59 g/m*3 18.4 C 0 km/h
2672 16-06-2003 03:18:11 17.4 C 9.63 g/m*3 17.4 C 0 km/h
2673 16-06-2003 03:40:11 17.3 C 9.72 g/m*3 17.3 C 0 km/h
2674 16-06-2003 04:02:11 17.2 C 9.96 g/m*3 17.2 C 0 km/h
2675 16-06-2003 04:24:11 16.8 C 9.87 g/m*3 16.8 C 0 km/h
Sensor: Nr:Datum:Temp:Abs-Feuchte:Windchill:Wind:
Aussen-T/F 2676 16-06-2003 04:46:11 16.3 C 9.57 g/m*3 16.3 C 0 km/h
2677 16-06-2003 05:08:11 15.8 C 9.42 g/m*3 15.8 C 0 km/h
2678 16-06-2003 05:30:11 15.6 C 9.31 g/m*3 15.6 C 0 km/h
2679 16-06-2003 05:52:11 15.5 C 9.39 g/m*3 15.5 C 0 km/h
2680 16-06-2003 06:14:11 15.3 C 9.4 g/m*3 15.3 C 0 km/h
2681 16-06-2003 06:36:11 15.2 C 9.48 g/m*3 15.2 C 0 km/h
2682 16-06-2003 06:58:11 15.3 C 9.92 g/m*3 15.3 C 0 km/h
2683 16-06-2003 07:20:11 15.6 C 10.11 g/m*3 15.6 C 0 km/h
2684 16-06-2003 07:42:11 15.6 C 9.97 g/m*3 15.6 C 0 km/h
2685 16-06-2003 08:04:11 16 C 9.81 g/m*3 16 C 0 km/h
2686 16-06-2003 08:26:11 16.5 C 9.69 g/m*3 16.5 C 0 km/h
2687 16-06-2003 08:48:11 17 C 9.84 g/m*3 17 C 0 km/h
2688 16-06-2003 09:10:11 17.7 C 9.96 g/m*3 17.7 C 0 km/h
2689 16-06-2003 09:32:11 18.5 C 10.28 g/m*3 18.5 C 0 km/h
2690 16-06-2003 09:54:11 19.7 C 9.68 g/m*3 19.7 C 0 km/h
2691 16-06-2003 10:16:11 20.8 C 9.42 g/m*3 20.8 C 0 km/h
2692 16-06-2003 10:38:11 21.7 C 8.77 g/m*3 21.7 C 0 km/h
2693 16-06-2003 11:00:11 22.8 C 8.74 g/m*3 22.8 C 0 km/h
2694 16-06-2003 11:22:11 23.7 C 7.91 g/m*3 23.7 C 0 km/h
2695 16-06-2003 11:44:11 23.9 C 7.36 g/m*3 23.9 C 0 km/h
2696 16-06-2003 12:06:11 24.8 C 6.83 g/m*3 24.8 C 0 km/h
2697 16-06-2003 12:28:11 25 C 6.22 g/m*3 25 C 0 km/h
2698 16-06-2003 12:50:11 26.9 C 7.17 g/m*3 26.9 C 0 km/h
2699 16-06-2003 13:12:11 26.6 C 5.79 g/m*3 26.6 C 0 km/h
2700 16-06-2003 13:34:11 27.5 C 5.82 g/m*3 27.5 C 0 km/h
Sensor: Nr:Datum:Temp:Abs-Feuchte:Windchill:Wind:
Aussen-T/F 2701 16-06-2003 13:56:11 28.5 C 5.87 g/m*3 28.5 C 0 km/h
2702 16-06-2003 14:18:11 27.9 C 5.68 g/m*3 27.9 C 0 km/h
2703 16-06-2003 14:40:11 28.1 C 5.74 g/m*3 28.1 C 0 km/h
2704 16-06-2003 15:02:11 27.3 C 6.02 g/m*3 27.3 C 0 km/h
2705 16-06-2003 15:24:11 29.2 C 6.1 g/m*3 29.2 C 0 km/h
2706 16-06-2003 15:24:25 29.2 C 6.1 g/m*3 29.2 C 0 km/h
2707 16-06-2003 15:46:25 29.3 C 6.42 g/m*3 29.3 C 0 km/h
2708 16-06-2003 16:08:25 29.7 C 6.27 g/m*3 29.7 C 0 km/h
2709 16-06-2003 16:30:25 29.4 C 5.87 g/m*3 29.4 C 0 km/h
2710 16-06-2003 16:52:25 29.6 C 6.23 g/m*3 29.6 C 0 km/h
2711 16-06-2003 17:14:25 30.6 C 6.26 g/m*3 30.6 C 0 km/h
2712 16-06-2003 17:36:25 30.4 C 6.51 g/m*3 30.4 C 0 km/h
2713 16-06-2003 17:58:25 30.1 C 6.71 g/m*3 30.1 C 0 km/h
2714 16-06-2003 18:20:25 30 C 6.67 g/m*3 30 C 0 km/h
2715 16-06-2003 18:42:25 30.4 C 6.51 g/m*3 30.4 C 0 km/h
2716 16-06-2003 19:04:25 30.1 C 7.01 g/m*3 30.1 C 0 km/h
2717 16-06-2003 19:26:25 30.5 C 6.85 g/m*3 30.5 C 0 km/h
2718 16-06-2003 19:48:25 30 C 6.37 g/m*3 30 C 0 km/h
2719 16-06-2003 20:10:25 29.2 C 7.55 g/m*3 29.2 C 0 km/h
2720 16-06-2003 20:32:25 28.5 C 7.27 g/m*3 28.5 C 0 km/h
2721 16-06-2003 20:54:25 27.8 C 9.41 g/m*3 27.8 C 0 km/h
2722 16-06-2003 21:16:25 25.9 C 9.2 g/m*3 25.9 C 0 km/h
2723 16-06-2003 21:38:25 23.1 C 8.89 g/m*3 23.1 C 0 km/h
2724 16-06-2003 22:00:25 22.7 C 9.29 g/m*3 22.7 C 0 km/h
2725 16-06-2003 22:22:25 21.5 C 8.86 g/m*3 21.5 C 0 km/h
Sensor: Nr:Datum:Temp:Abs-Feuchte:Windchill:Wind:
Aussen-T/F 2726 16-06-2003 22:44:25 20.9 C 9.11 g/m*3 20.9 C 0 km/h
2727 16-06-2003 23:06:25 20.7 C 9 g/m*3 20.7 C 0 km/h
2728 16-06-2003 23:28:25 20.2 C 9.62 g/m*3 20.2 C 0 km/h
2729 16-06-2003 23:50:25 19.7 C 9.34 g/m*3 19.7 C 0 km/h
2730 17-06-2003 00:12:25 19.1 C 9.34 g/m*3 19.1 C 0 km/h
2731 17-06-2003 00:34:25 18.8 C 9.5 g/m*3 18.8 C 0 km/h
2732 17-06-2003 00:56:25 18.2 C 9.48 g/m*3 18.2 C 0 km/h
2733 17-06-2003 01:18:25 17.4 C 9.63 g/m*3 17.4 C 0 km/h
2734 17-06-2003 01:40:25 17.3 C 9.58 g/m*3 17.3 C 0 km/h
2735 17-06-2003 02:02:25 16.8 C 9.72 g/m*3 16.8 C 0 km/h
2736 17-06-2003 02:24:25 16.2 C 9.65 g/m*3 16.2 C 0 km/h
2737 17-06-2003 02:46:25 16.3 C 9.85 g/m*3 16.3 C 0 km/h
2738 17-06-2003 03:08:25 16 C 10.08 g/m*3 16 C 0 km/h
2739 17-06-2003 03:30:25 15.5 C 9.78 g/m*3 15.5 C 0 km/h
2740 17-06-2003 03:52:25 15.2 C 9.73 g/m*3 15.2 C 0 km/h
2741 17-06-2003 04:14:25 15 C 9.75 g/m*3 15 C 0 km/h
2742 17-06-2003 04:36:25 14.6 C 9.64 g/m*3 14.6 C 0 km/h
2743 17-06-2003 04:58:25 14.5 C 9.7 g/m*3 14.5 C 0 km/h
2744 17-06-2003 05:20:25 14.3 C 9.46 g/m*3 14.3 C 0 km/h
2745 17-06-2003 05:42:25 14.2 C 9.52 g/m*3 14.2 C 0 km/h
2746 17-06-2003 06:04:25 14 C 9.41 g/m*3 14 C 0 km/h
2747 17-06-2003 06:26:25 14.1 C 9.59 g/m*3 14.1 C 0 km/h
2748 17-06-2003 06:48:25 14.2 C 9.77 g/m*3 14.2 C 0 km/h
2749 17-06-2003 07:10:25 14.4 C 9.77 g/m*3 14.4 C 0 km/h
2750 17-06-2003 07:32:25 14.8 C 9.88 g/m*3 14.8 C 0 km/h
Sensor: Nr:Datum:Temp:Abs-Feuchte:Windchill:Wind:
Aussen-T/F 2751 17-06-2003 07:54:25 15.3 C 9.92 g/m*3 15.3 C 0 km/h
2752 17-06-2003 08:16:25 15.6 C 9.97 g/m*3 15.6 C 0 km/h
2753 17-06-2003 08:38:25 16.4 C 10.05 g/m*3 16.4 C 0 km/h
2754 17-06-2003 09:00:25 17.2 C 10.1 g/m*3 17.2 C 0 km/h
2755 17-06-2003 09:22:25 17.9 C 10.08 g/m*3 17.9 C 0 km/h
2756 17-06-2003 09:44:25 19.7 C 10.02 g/m*3 19.7 C 0 km/h
2757 17-06-2003 10:06:25 20.8 C 9.6 g/m*3 20.8 C 0 km/h
2758 17-06-2003 10:28:25 22 C 9.32 g/m*3 22 C 0 km/h
2759 17-06-2003 10:50:25 23.6 C 9.78 g/m*3 23.6 C 0 km/h
2760 17-06-2003 11:12:25 24.6 C 9.45 g/m*3 24.6 C 0 km/h
2761 17-06-2003 11:34:25 25.4 C 9.42 g/m*3 25.4 C 0 km/h
2762 17-06-2003 11:56:25 26.4 C 9.21 g/m*3 26.4 C 0 km/h
2763 17-06-2003 12:18:25 28 C 9.52 g/m*3 28 C 0 km/h
2764 17-06-2003 12:40:25 28.8 C 8.81 g/m*3 28.8 C 0 km/h
2765 17-06-2003 13:02:25 30 C 8.79 g/m*3 30 C 0 km/h
2766 17-06-2003 13:24:25 29.4 C 7.93 g/m*3 29.4 C 0 km/h
2767 17-06-2003 13:46:25 30.5 C 9.35 g/m*3 30.5 C 0 km/h
2768 17-06-2003 14:08:25 31.3 C 7.48 g/m*3 31.3 C 0 km/h
2769 17-06-2003 14:30:25 30.3 C 8.32 g/m*3 30.3 C 0 km/h
2770 17-06-2003 14:52:25 30.3 C 8.32 g/m*3 30.3 C 0 km/h
2771 17-06-2003 15:14:25 30.6 C 8.14 g/m*3 30.6 C 0 km/h
2772 17-06-2003 15:36:25 31.2 C 7.76 g/m*3 31.2 C 0 km/h
2773 17-06-2003 15:58:25 31.7 C 7.31 g/m*3 31.7 C 0 km/h
2774 17-06-2003 16:20:25 31.4 C 7.85 g/m*3 31.4 C 0 km/h
2775 17-06-2003 16:42:25 32.3 C 7.55 g/m*3 32.3 C 0 km/h
Sensor: Nr:Datum:Temp:Abs-Feuchte:Windchill:Wind:
Aussen-T/F 2776 17-06-2003 17:04:25 32.7 C 7.71 g/m*3 32.7 C 0 km/h
2777 17-06-2003 17:26:25 32.1 C 7.47 g/m*3 32.1 C 0 km/h
2778 17-06-2003 17:48:25 32.8 C 7.4 g/m*3 32.8 C 0 km/h
2779 17-06-2003 18:10:25 32.3 C 7.2 g/m*3 32.3 C 0 km/h
2780 17-06-2003 18:32:25 32 C 9.11 g/m*3 32 C 0 km/h
2781 17-06-2003 18:54:25 31.5 C 10.52 g/m*3 31.5 C 0 km/h
2782 17-06-2003 19:16:25 30.1 C 10.98 g/m*3 30.1 C 0 km/h
2783 17-06-2003 19:38:25 28.9 C 11.14 g/m*3 28.9 C 0 km/h
2784 17-06-2003 20:00:25 27.5 C 11.11 g/m*3 27.5 C 0 km/h
2785 17-06-2003 20:22:25 27.1 C 10.87 g/m*3 27.1 C 0 km/h
2786 17-06-2003 20:44:25 26.1 C 10.28 g/m*3 26.1 C 0 km/h
2787 17-06-2003 21:06:25 25.4 C 10.83 g/m*3 25.4 C 0 km/h
2788 17-06-2003 21:28:25 24.5 C 10.52 g/m*3 24.5 C 0 km/h
2789 17-06-2003 21:50:25 22.9 C 11.24 g/m*3 22.9 C 0 km/h
2790 17-06-2003 22:12:25 20.4 C 13.09 g/m*3 20.4 C 0 km/h
2791 17-06-2003 22:34:25 20 C 13.31 g/m*3 20 C 0 km/h
2792 17-06-2003 22:56:25 20.3 C 13.01 g/m*3 20.3 C 0 km/h
2793 17-06-2003 23:18:25 19.9 C 12.89 g/m*3 19.9 C 0 km/h
2794 17-06-2003 23:40:25 20.1 C 12.52 g/m*3 20.1 C 0 km/h
2795 18-06-2003 00:02:25 20.2 C 12.76 g/m*3 20.2 C 0 km/h
2796 18-06-2003 00:24:25 19.7 C 12.57 g/m*3 19.7 C 0 km/h
2797 18-06-2003 00:46:25 19.5 C 12.42 g/m*3 19.5 C 0 km/h
2798 18-06-2003 01:08:25 19.3 C 12.27 g/m*3 19.3 C 0 km/h
2799 18-06-2003 01:30:25 19.3 C 12.44 g/m*3 19.3 C 0 km/h
2800 18-06-2003 01:52:25 19.1 C 12.62 g/m*3 19.1 C 0 km/h
Sensor: Nr:Datum:Temp:Abs-Feuchte:Windchill:Wind:
Aussen-T/F 2801 18-06-2003 02:14:25 18.7 C 12.65 g/m*3 18.7 C 0 km/h
2802 18-06-2003 02:36:25 18.7 C 12.81 g/m*3 18.7 C 0 km/h
2803 18-06-2003 02:58:25 18.8 C 12.88 g/m*3 18.8 C 0 km/h
2804 18-06-2003 03:20:25 18.5 C 12.66 g/m*3 18.5 C 0 km/h
2805 18-06-2003 03:42:25 18.4 C 12.9 g/m*3 18.4 C 0 km/h
2806 18-06-2003 04:04:25 18.5 C 12.82 g/m*3 18.5 C 0 km/h
2807 18-06-2003 04:26:25 18.8 C 12.88 g/m*3 18.8 C 0 km/h
2808 18-06-2003 04:48:25 18.2 C 13.06 g/m*3 18.2 C 0 km/h
2809 18-06-2003 05:10:25 18.5 C 12.97 g/m*3 18.5 C 0 km/h
2810 18-06-2003 05:32:25 18.6 C 12.73 g/m*3 18.6 C 0 km/h
2811 18-06-2003 05:54:25 17.7 C 13.28 g/m*3 17.7 C 0 km/h
2812 18-06-2003 06:16:25 17.6 C 13.35 g/m*3 17.6 C 0 km/h
2813 18-06-2003 06:38:25 17.5 C 12.67 g/m*3 17.5 C 0 km/h
2814 18-06-2003 07:00:25 17.6 C 12.6 g/m*3 17.6 C 0 km/h
2815 18-06-2003 07:22:25 17.7 C 12.52 g/m*3 17.7 C 0 km/h
2816 18-06-2003 07:44:25 17.8 C 12.14 g/m*3 17.8 C 0 km/h
2817 18-06-2003 08:06:25 17.8 C 12.14 g/m*3 17.8 C 0 km/h
2818 18-06-2003 08:28:25 17.7 C 12.07 g/m*3 17.7 C 0 km/h
2819 18-06-2003 08:50:25 17.8 C 12.14 g/m*3 17.8 C 0 km/h
2820 18-06-2003 09:12:25 18.3 C 12.04 g/m*3 18.3 C 0 km/h
2821 18-06-2003 09:34:25 18.6 C 11.94 g/m*3 18.6 C 0 km/h
2822 18-06-2003 09:56:25 18 C 11.67 g/m*3 18 C 0 km/h
2823 18-06-2003 10:18:25 18.4 C 11.8 g/m*3 18.4 C 0 km/h
2824 18-06-2003 10:40:25 19.9 C 11.85 g/m*3 19.9 C 0 km/h
2825 18-06-2003 11:02:25 20.2 C 11.37 g/m*3 20.2 C 0 km/h
Sensor: Nr:Datum:Temp:Abs-Feuchte:Windchill:Wind:
Aussen-T/F 2826 18-06-2003 11:24:25 19.9 C 11.68 g/m*3 19.9 C 0 km/h
2827 18-06-2003 11:46:25 19.7 C 11.55 g/m*3 19.7 C 0 km/h
2828 18-06-2003 12:08:25 19.9 C 11.85 g/m*3 19.9 C 0 km/h
2829 18-06-2003 12:30:25 19.9 C 12.2 g/m*3 19.9 C 0 km/h
2830 18-06-2003 12:52:25 21.7 C 11.06 g/m*3 21.7 C 0 km/h
2831 18-06-2003 13:14:25 22.8 C 10.77 g/m*3 22.8 C 0 km/h
2832 18-06-2003 13:36:25 22.5 C 10.79 g/m*3 22.5 C 0 km/h
2833 18-06-2003 13:58:25 23.1 C 10.75 g/m*3 23.1 C 0 km/h
2834 18-06-2003 14:20:25 22 C 10.67 g/m*3 22 C 0 km/h
2835 18-06-2003 14:42:25 21.3 C 11.56 g/m*3 21.3 C 0 km/h
2836 18-06-2003 15:04:25 21.9 C 11.77 g/m*3 21.9 C 0 km/h
2837 18-06-2003 15:26:25 23.1 C 11.78 g/m*3 23.1 C 0 km/h
2838 18-06-2003 15:48:25 20 C 12.44 g/m*3 20 C 0 km/h
2839 18-06-2003 16:10:25 20.9 C 14.93 g/m*3 20.9 C 0 km/h
2840 18-06-2003 16:32:25 20.4 C 14.15 g/m*3 20.4 C 0 km/h
2841 18-06-2003 16:54:25 20.1 C 13.91 g/m*3 20.1 C 0 km/h
2842 18-06-2003 17:16:25 22.5 C 13.78 g/m*3 22.5 C 0 km/h
2843 18-06-2003 17:38:25 24.3 C 12.17 g/m*3 24.3 C 0 km/h
2844 18-06-2003 18:00:25 25.8 C 11.07 g/m*3 25.8 C 0 km/h
2845 18-06-2003 18:22:25 25.7 C 10.77 g/m*3 25.7 C 0 km/h
2846 18-06-2003 18:44:25 26 C 10.47 g/m*3 26 C 0 km/h
2847 18-06-2003 19:06:25 24.3 C 11.95 g/m*3 24.3 C 0 km/h
2848 18-06-2003 19:28:25 25.5 C 9.47 g/m*3 25.5 C 0 km/h
2849 18-06-2003 19:50:25 24.3 C 10.4 g/m*3 24.3 C 0 km/h
2850 18-06-2003 20:12:25 23.5 C 10.15 g/m*3 23.5 C 0 km/h
Sensor: Nr:Datum:Temp:Abs-Feuchte:Windchill:Wind:
Aussen-T/F 2851 18-06-2003 20:34:25 23 C 10.48 g/m*3 23 C 0 km/h
2852 18-06-2003 20:56:25 22.7 C 10.71 g/m*3 22.7 C 0 km/h
2853 18-06-2003 21:18:25 22.2 C 10.8 g/m*3 22.2 C 0 km/h
2854 18-06-2003 21:40:25 21.9 C 11.19 g/m*3 21.9 C 0 km/h
2855 18-06-2003 22:02:25 21.5 C 10.94 g/m*3 21.5 C 0 km/h
2856 18-06-2003 22:24:25 21.2 C 10.75 g/m*3 21.2 C 0 km/h
2857 18-06-2003 22:46:25 20.8 C 11.05 g/m*3 20.8 C 0 km/h
2858 18-06-2003 23:08:25 20.5 C 10.85 g/m*3 20.5 C 0 km/h
2859 18-06-2003 23:30:25 20.2 C 10.84 g/m*3 20.2 C 0 km/h
2860 18-06-2003 23:52:25 19.8 C 10.93 g/m*3 19.8 C 0 km/h
2861 19-06-2003 00:14:25 19.6 C 11.14 g/m*3 19.6 C 0 km/h
2862 19-06-2003 00:36:25 19.6 C 10.8 g/m*3 19.6 C 0 km/h
2863 19-06-2003 00:58:25 19.5 C 10.91 g/m*3 19.5 C 0 km/h
2864 19-06-2003 01:20:25 19.2 C 11.05 g/m*3 19.2 C 0 km/h
2865 19-06-2003 01:42:25 19.1 C 10.98 g/m*3 19.1 C 0 km/h
2866 19-06-2003 02:04:25 19 C 11.08 g/m*3 19 C 0 km/h
2867 19-06-2003 02:26:25 18.4 C 11.48 g/m*3 18.4 C 0 km/h
2868 19-06-2003 02:48:25 18.5 C 10.92 g/m*3 18.5 C 0 km/h
2869 19-06-2003 03:10:25 18.6 C 10.82 g/m*3 18.6 C 0 km/h
2870 19-06-2003 03:32:25 18.5 C 10.44 g/m*3 18.5 C 0 km/h
2871 19-06-2003 03:54:25 18.5 C 9.81 g/m*3 18.5 C 0 km/h
2872 19-06-2003 04:16:25 18.4 C 9.59 g/m*3 18.4 C 0 km/h
2873 19-06-2003 04:38:25 17.9 C 9.92 g/m*3 17.9 C 0 km/h
2874 19-06-2003 05:00:25 17.8 C 10.32 g/m*3 17.8 C 0 km/h
2875 19-06-2003 05:22:25 17.9 C 10.23 g/m*3 17.9 C 0 km/h
Sensor: Nr:Datum:Temp:Abs-Feuchte:Windchill:Wind:
Aussen-T/F 2876 19-06-2003 05:44:25 18 C 10.14 g/m*3 18 C 0 km/h
2877 19-06-2003 06:06:25 18.2 C 9.79 g/m*3 18.2 C 0 km/h
2878 19-06-2003 06:28:25 18.3 C 9.69 g/m*3 18.3 C 0 km/h
2879 19-06-2003 06:50:25 18.2 C 9.95 g/m*3 18.2 C 0 km/h
2880 19-06-2003 07:12:25 18.4 C 10.07 g/m*3 18.4 C 0 km/h
2881 19-06-2003 07:34:25 18.5 C 10.13 g/m*3 18.5 C 0 km/h
2882 19-06-2003 07:56:25 18.7 C 10.25 g/m*3 18.7 C 0 km/h
2883 19-06-2003 08:18:25 18.9 C 10.37 g/m*3 18.9 C 0 km/h
2884 19-06-2003 08:40:25 19 C 10.43 g/m*3 19 C 0 km/h
2885 19-06-2003 09:02:25 19.5 C 10.74 g/m*3 19.5 C 0 km/h
2886 19-06-2003 09:24:25 19.9 C 11 g/m*3 19.9 C 0 km/h
2887 19-06-2003 09:46:25 19.6 C 10.97 g/m*3 19.6 C 0 km/h
2888 19-06-2003 10:08:25 19.4 C 11.35 g/m*3 19.4 C 0 km/h
2889 19-06-2003 10:30:25 20.2 C 11.89 g/m*3 20.2 C 0 km/h
2890 19-06-2003 10:52:25 20.6 C 11.28 g/m*3 20.6 C 0 km/h
2891 19-06-2003 11:14:25 21.2 C 11.49 g/m*3 21.2 C 0 km/h
2892 19-06-2003 11:36:25 20.8 C 11.23 g/m*3 20.8 C 0 km/h
2893 19-06-2003 11:58:25 20.9 C 11.66 g/m*3 20.9 C 0 km/h
2894 19-06-2003 12:20:25 20.9 C 11.66 g/m*3 20.9 C 0 km/h
2895 19-06-2003 12:42:25 21 C 11.36 g/m*3 21 C 0 km/h
2896 19-06-2003 13:04:25 21.2 C 11.49 g/m*3 21.2 C 0 km/h
2897 19-06-2003 13:26:25 22.6 C 11.25 g/m*3 22.6 C 0 km/h
2898 19-06-2003 13:48:25 21.7 C 11.64 g/m*3 21.7 C 0 km/h
2899 19-06-2003 14:10:25 22 C 11.65 g/m*3 22 C 0 km/h
2900 19-06-2003 14:32:25 22.7 C 11.72 g/m*3 22.7 C 0 km/h
Sensor: Nr:Datum:Temp:Abs-Feuchte:Windchill:Wind:
Aussen-T/F 2901 19-06-2003 14:54:25 22.8 C 11.58 g/m*3 22.8 C 0 km/h
2902 19-06-2003 15:16:25 23.4 C 10.51 g/m*3 23.4 C 0 km/h
2903 19-06-2003 15:38:25 24.2 C 10.12 g/m*3 24.2 C 0 km/h
2904 19-06-2003 16:00:25 24.6 C 10.35 g/m*3 24.6 C 0 km/h
2905 19-06-2003 16:22:25 24.4 C 10.68 g/m*3 24.4 C 0 km/h
2906 19-06-2003 16:44:25 24.4 C 10.46 g/m*3 24.4 C 0 km/h
2907 19-06-2003 17:06:25 24.4 C 10.68 g/m*3 24.4 C 0 km/h
2908 19-06-2003 17:28:25 23.7 C 10.48 g/m*3 23.7 C 0 km/h
2909 19-06-2003 17:50:25 23.9 C 11.47 g/m*3 23.9 C 0 km/h
2910 19-06-2003 18:12:25 23.9 C 12.11 g/m*3 23.9 C 0 km/h
2911 19-06-2003 18:34:25 23.6 C 12.12 g/m*3 23.6 C 0 km/h
2912 19-06-2003 18:56:25 23.3 C 12.13 g/m*3 23.3 C 0 km/h
2913 19-06-2003 19:18:25 23.1 C 12.2 g/m*3 23.1 C 0 km/h
2914 19-06-2003 19:40:25 22.7 C 12.32 g/m*3 22.7 C 0 km/h
2915 19-06-2003 20:02:25 22.5 C 12.18 g/m*3 22.5 C 0 km/h
2916 19-06-2003 20:24:25 22.3 C 12.24 g/m*3 22.3 C 0 km/h
2917 19-06-2003 20:46:25 22.1 C 11.52 g/m*3 22.1 C 0 km/h
2918 19-06-2003 21:08:25 21.9 C 11.96 g/m*3 21.9 C 0 km/h
2919 19-06-2003 21:30:25 21.8 C 11.7 g/m*3 21.8 C 0 km/h
2920 19-06-2003 21:52:25 21.8 C 11.9 g/m*3 21.8 C 0 km/h
2921 19-06-2003 22:14:25 21.1 C 11.79 g/m*3 21.1 C 0 km/h
2922 19-06-2003 22:36:25 20.6 C 12.35 g/m*3 20.6 C 0 km/h
2923 19-06-2003 22:58:25 20.5 C 12.28 g/m*3 20.5 C 0 km/h
2924 19-06-2003 23:20:25 20.1 C 12.52 g/m*3 20.1 C 0 km/h
2925 19-06-2003 23:42:25 20 C 12.44 g/m*3 20 C 0 km/h
Sensor: Nr:Datum:Temp:Abs-Feuchte:Windchill:Wind:
Aussen-T/F 2926 20-06-2003 00:04:25 20 C 12.44 g/m*3 20 C 0 km/h
2927 20-06-2003 00:26:25 20 C 12.44 g/m*3 20 C 0 km/h
2928 20-06-2003 01:10:25 20 C 12.44 g/m*3 20 C 0 km/h
2929 20-06-2003 01:32:25 19.9 C 12.54 g/m*3 19.9 C 0 km/h
2930 20-06-2003 01:54:25 19.9 C 12.71 g/m*3 19.9 C 0 km/h
2931 20-06-2003 02:16:25 19.9 C 12.71 g/m*3 19.9 C 0 km/h
2932 20-06-2003 02:38:25 19.7 C 12.57 g/m*3 19.7 C 0 km/h
2933 20-06-2003 03:00:25 19.1 C 12.95 g/m*3 19.1 C 0 km/h
2934 20-06-2003 03:22:25 19 C 13.04 g/m*3 19 C 0 km/h
2935 20-06-2003 03:44:25 19.1 C 12.95 g/m*3 19.1 C 0 km/h
2936 20-06-2003 04:06:25 18.4 C 13.05 g/m*3 18.4 C 0 km/h
2937 20-06-2003 04:28:25 18.8 C 12.24 g/m*3 18.8 C 0 km/h
2938 20-06-2003 04:50:25 18.9 C 11.99 g/m*3 18.9 C 0 km/h
2939 20-06-2003 05:12:25 18.5 C 11.71 g/m*3 18.5 C 0 km/h
2940 20-06-2003 05:34:25 18.6 C 11.14 g/m*3 18.6 C 0 km/h
2941 20-06-2003 05:56:25 18.5 C 10.92 g/m*3 18.5 C 0 km/h
2942 20-06-2003 06:18:25 18.3 C 11.26 g/m*3 18.3 C 0 km/h
2943 20-06-2003 06:40:25 18.5 C 11.08 g/m*3 18.5 C 0 km/h
2944 20-06-2003 07:02:25 18.4 C 11.01 g/m*3 18.4 C 0 km/h
2945 20-06-2003 07:24:25 18.5 C 11.39 g/m*3 18.5 C 0 km/h
2946 20-06-2003 07:46:25 17.5 C 8.8 g/m*3 17.5 C 0 km/h
2947 20-06-2003 08:08:25 17.5 C 8.65 g/m*3 17.5 C 0 km/h
2948 20-06-2003 08:30:25 17.6 C 8.55 g/m*3 17.6 C 0 km/h
2949 20-06-2003 08:52:25 17.5 C 8.5 g/m*3 17.5 C 0 km/h
2950 20-06-2003 09:14:25 17.9 C 8.55 g/m*3 17.9 C 0 km/h
Sensor: Nr:Datum:Temp:Abs-Feuchte:Windchill:Wind:
Aussen-T/F 2951 20-06-2003 09:36:25 18.3 C 8.29 g/m*3 18.3 C 0 km/h
2952 20-06-2003 09:58:25 18.7 C 8.33 g/m*3 18.7 C 0 km/h
2953 20-06-2003 10:20:25 19.8 C 8.88 g/m*3 19.8 C 0 km/h
2954 20-06-2003 10:42:25 19.9 C 8.59 g/m*3 19.9 C 0 km/h
2955 20-06-2003 11:04:25 20.4 C 8.49 g/m*3 20.4 C 0 km/h
2956 20-06-2003 11:26:25 21.4 C 8.44 g/m*3 21.4 C 0 km/h
2957 20-06-2003 11:48:25 22.1 C 8.2 g/m*3 22.1 C 0 km/h
2958 20-06-2003 12:10:25 22.7 C 7.27 g/m*3 22.7 C 0 km/h
2959 20-06-2003 12:32:25 22.5 C 7.59 g/m*3 22.5 C 0 km/h
2960 20-06-2003 12:54:25 23.2 C 7.28 g/m*3 23.2 C 0 km/h
2961 20-06-2003 13:16:25 23.4 C 6.73 g/m*3 23.4 C 0 km/h
2962 20-06-2003 13:38:25 23.1 C 6.41 g/m*3 23.1 C 0 km/h
2963 20-06-2003 14:00:25 24 C 6.53 g/m*3 24 C 0 km/h
2964 20-06-2003 14:22:25 25.1 C 6.48 g/m*3 25.1 C 0 km/h
2965 20-06-2003 14:44:25 23.9 C 6.71 g/m*3 23.9 C 0 km/h
2966 20-06-2003 15:06:25 25.7 C 7.18 g/m*3 25.7 C 0 km/h
2967 20-06-2003 15:28:25 25.2 C 5.82 g/m*3 25.2 C 0 km/h
2968 20-06-2003 15:50:25 24.2 C 6.16 g/m*3 24.2 C 0 km/h
2969 20-06-2003 16:12:25 25.4 C 6.59 g/m*3 25.4 C 0 km/h
2970 20-06-2003 16:34:25 25.5 C 6.39 g/m*3 25.5 C 0 km/h
2971 20-06-2003 16:56:25 25.5 C 6.87 g/m*3 25.5 C 0 km/h
2972 20-06-2003 17:18:25 25 C 6.45 g/m*3 25 C 0 km/h
2973 20-06-2003 17:40:25 25.2 C 6.52 g/m*3 25.2 C 0 km/h
2974 20-06-2003 18:02:25 25.4 C 6.36 g/m*3 25.4 C 0 km/h
2975 20-06-2003 18:24:25 24.8 C 6.15 g/m*3 24.8 C 0 km/h
Sensor: Nr:Datum:Temp:Abs-Feuchte:Windchill:Wind:
Aussen-T/F 2976 20-06-2003 18:46:25 25.1 C 6.02 g/m*3 25.1 C 0 km/h
2977 20-06-2003 19:08:25 24.3 C 5.97 g/m*3 24.3 C 0 km/h
2978 20-06-2003 19:30:25 23.8 C 6.24 g/m*3 23.8 C 0 km/h
2979 20-06-2003 19:52:25 22.6 C 6.43 g/m*3 22.6 C 0 km/h
2980 20-06-2003 20:14:25 22.5 C 6.39 g/m*3 22.5 C 0 km/h
2981 20-06-2003 20:36:25 21.5 C 6.6 g/m*3 21.5 C 0 km/h
2982 20-06-2003 20:58:25 20.8 C 6.7 g/m*3 20.8 C 0 km/h
2983 20-06-2003 21:20:25 19.5 C 6.71 g/m*3 19.5 C 0 km/h
2984 20-06-2003 21:42:25 18.5 C 6.65 g/m*3 18.5 C 0 km/h
2985 20-06-2003 22:04:25 18 C 6.76 g/m*3 18 C 0 km/h
2986 20-06-2003 22:26:25 17.3 C 6.48 g/m*3 17.3 C 0 km/h
2987 20-06-2003 22:48:25 16.8 C 6.58 g/m*3 16.8 C 0 km/h
2988 20-06-2003 23:10:25 16.6 C 6.64 g/m*3 16.6 C 0 km/h
2989 20-06-2003 23:32:25 16.4 C 6.7 g/m*3 16.4 C 0 km/h
2990 20-06-2003 23:54:25 15.8 C 6.6 g/m*3 15.8 C 0 km/h
2991 21-06-2003 00:16:25 15.5 C 6.61 g/m*3 15.5 C 0 km/h
2992 21-06-2003 00:38:25 15.1 C 6.71 g/m*3 15.1 C 0 km/h
2993 21-06-2003 01:00:25 14.7 C 6.8 g/m*3 14.7 C 0 km/h
2994 21-06-2003 01:22:25 14.5 C 6.84 g/m*3 14.5 C 0 km/h
2995 21-06-2003 01:44:25 14.1 C 7.04 g/m*3 14.1 C 0 km/h
2996 21-06-2003 02:06:25 13.7 C 7.34 g/m*3 13.7 C 0 km/h
2997 21-06-2003 02:28:25 13.3 C 7.51 g/m*3 13.3 C 0 km/h
2998 21-06-2003 02:50:25 12.7 C 7.46 g/m*3 12.7 C 0 km/h
2999 21-06-2003 03:12:25 12.2 C 7.45 g/m*3 12.2 C 0 km/h
3000 21-06-2003 03:34:25 11.8 C 7.47 g/m*3 11.8 C 0 km/h
Sensor: Nr:Datum:Temp:Abs-Feuchte:Windchill:Wind:
Aussen-T/F 3001 21-06-2003 03:56:25 11.5 C 7.44 g/m*3 11.5 C 0 km/h
3002 21-06-2003 04:18:25 11.1 C 7.55 g/m*3 11.1 C 0 km/h
3003 21-06-2003 04:40:25 10.7 C 7.56 g/m*3 10.7 C 0 km/h
3004 21-06-2003 05:02:25 10.3 C 7.47 g/m*3 10.3 C 0 km/h
3005 21-06-2003 05:24:25 10 C 7.42 g/m*3 10 C 0 km/h
3006 21-06-2003 05:46:25 9.8 C 7.52 g/m*3 9.8 C 0 km/h
3007 21-06-2003 06:08:25 9.8 C 7.61 g/m*3 9.8 C 0 km/h
3008 21-06-2003 06:30:25 9.8 C 7.61 g/m*3 9.8 C 0 km/h
3009 21-06-2003 06:52:25 9.9 C 7.66 g/m*3 9.9 C 0 km/h
3010 21-06-2003 07:14:25 10.1 C 7.56 g/m*3 10.1 C 0 km/h
3011 21-06-2003 07:36:25 10.5 C 7.76 g/m*3 10.5 C 0 km/h
3012 21-06-2003 07:58:25 11.1 C 7.76 g/m*3 11.1 C 0 km/h
3013 21-06-2003 08:20:25 11.7 C 7.74 g/m*3 11.7 C 0 km/h
3014 21-06-2003 08:42:25 12.4 C 7.54 g/m*3 12.4 C 0 km/h
3015 21-06-2003 09:04:25 13 C 7.6 g/m*3 13 C 0 km/h
3016 21-06-2003 09:26:25 14 C 7.6 g/m*3 14 C 0 km/h
3017 21-06-2003 09:48:25 15.1 C 7.74 g/m*3 15.1 C 0 km/h
3018 21-06-2003 10:10:25 16.5 C 7.44 g/m*3 16.5 C 0 km/h
3019 21-06-2003 10:32:25 17.2 C 6.59 g/m*3 17.2 C 0 km/h
3020 21-06-2003 10:54:25 17.9 C 6.26 g/m*3 17.9 C 0 km/h
3021 21-06-2003 11:16:25 18.5 C 6.01 g/m*3 18.5 C 0 km/h
3022 21-06-2003 11:38:25 19.8 C 6.32 g/m*3 19.8 C 0 km/h
3023 21-06-2003 12:00:25 20.3 C 6.16 g/m*3 20.3 C 0 km/h
3024 21-06-2003 12:22:25 21.8 C 5.95 g/m*3 21.8 C 0 km/h
3025 21-06-2003 12:44:25 23.3 C 6.27 g/m*3 23.3 C 0 km/h
Sensor: Nr:Datum:Temp:Abs-Feuchte:Windchill:Wind:
Aussen-T/F 3026 21-06-2003 13:06:25 24.1 C 5.69 g/m*3 24.1 C 0 km/h
3027 21-06-2003 13:28:25 23.4 C 5.68 g/m*3 23.4 C 0 km/h
3028 21-06-2003 13:50:25 25.6 C 5.95 g/m*3 25.6 C 0 km/h
3029 21-06-2003 14:12:25 25.1 C 5.79 g/m*3 25.1 C 0 km/h
3030 21-06-2003 14:34:25 25 C 6.45 g/m*3 25 C 0 km/h
3031 21-06-2003 14:56:25 25.3 C 5.85 g/m*3 25.3 C 0 km/h
3032 21-06-2003 15:18:25 26.1 C 6.12 g/m*3 26.1 C 0 km/h
3033 21-06-2003 15:40:25 26.7 C 5.57 g/m*3 26.7 C 0 km/h
3034 21-06-2003 16:02:25 24.6 C 5.63 g/m*3 24.6 C 0 km/h
3035 21-06-2003 16:24:25 24.7 C 5.88 g/m*3 24.7 C 0 km/h
3036 21-06-2003 16:46:25 26.7 C 6.07 g/m*3 26.7 C 0 km/h
3037 21-06-2003 17:08:25 27.5 C 5.82 g/m*3 27.5 C 0 km/h
3038 21-06-2003 17:30:25 26.4 C 5.73 g/m*3 26.4 C 0 km/h
3039 21-06-2003 17:52:25 26.9 C 5.89 g/m*3 26.9 C 0 km/h
3040 21-06-2003 18:14:25 28.1 C 5.74 g/m*3 28.1 C 0 km/h
3041 21-06-2003 18:36:25 26.8 C 5.85 g/m*3 26.8 C 0 km/h
3042 21-06-2003 18:58:25 25.1 C 6.02 g/m*3 25.1 C 0 km/h
3043 21-06-2003 19:20:25 26.9 C 6.65 g/m*3 26.9 C 0 km/h
3044 21-06-2003 19:42:25 27.3 C 6.28 g/m*3 27.3 C 0 km/h
3045 21-06-2003 20:04:25 26.4 C 6.47 g/m*3 26.4 C 0 km/h
3046 21-06-2003 20:26:25 25.7 C 6.7 g/m*3 25.7 C 0 km/h
3047 21-06-2003 20:48:25 24.5 C 6.94 g/m*3 24.5 C 0 km/h
3048 21-06-2003 21:10:25 23.4 C 7.15 g/m*3 23.4 C 0 km/h
3049 21-06-2003 21:32:25 21.9 C 8.1 g/m*3 21.9 C 0 km/h
3050 21-06-2003 21:54:25 20.1 C 7.47 g/m*3 20.1 C 0 km/h
Sensor: Nr:Datum:Temp:Abs-Feuchte:Windchill:Wind:
Aussen-T/F 3051 21-06-2003 22:16:25 18.9 C 7.61 g/m*3 18.9 C 0 km/h
3052 21-06-2003 22:38:25 18.1 C 7.57 g/m*3 18.1 C 0 km/h
3053 21-06-2003 23:00:25 17.8 C 7.59 g/m*3 17.8 C 0 km/h
3054 21-06-2003 23:22:25 17.5 C 7.6 g/m*3 17.5 C 0 km/h
3055 21-06-2003 23:44:25 17.2 C 7.76 g/m*3 17.2 C 0 km/h
3056 22-06-2003 00:06:25 16.8 C 7.72 g/m*3 16.8 C 0 km/h
3057 22-06-2003 00:28:25 16.6 C 8.19 g/m*3 16.6 C 0 km/h
3058 22-06-2003 00:50:25 16.4 C 7.82 g/m*3 16.4 C 0 km/h
3059 22-06-2003 01:12:25 16.2 C 7.86 g/m*3 16.2 C 0 km/h
3060 22-06-2003 01:34:25 15.9 C 7.99 g/m*3 15.9 C 0 km/h
3061 22-06-2003 01:56:25 15.8 C 8.08 g/m*3 15.8 C 0 km/h
3062 22-06-2003 02:18:25 15.1 C 8.13 g/m*3 15.1 C 0 km/h
3063 22-06-2003 02:40:25 14.8 C 8.11 g/m*3 14.8 C 0 km/h
3064 22-06-2003 03:02:25 14.3 C 8.11 g/m*3 14.3 C 0 km/h
3065 22-06-2003 03:24:25 14.1 C 8.13 g/m*3 14.1 C 0 km/h
3066 22-06-2003 03:46:25 13.7 C 8.17 g/m*3 13.7 C 0 km/h
3067 22-06-2003 04:08:25 13.4 C 8.02 g/m*3 13.4 C 0 km/h
3068 22-06-2003 04:30:25 13.1 C 7.99 g/m*3 13.1 C 0 km/h
3069 22-06-2003 04:52:25 12.9 C 8.11 g/m*3 12.9 C 0 km/h
3070 22-06-2003 05:14:25 12.5 C 8.03 g/m*3 12.5 C 0 km/h
3071 22-06-2003 05:36:25 12.4 C 7.98 g/m*3 12.4 C 0 km/h
3072 22-06-2003 05:58:25 12.4 C 8.3 g/m*3 12.4 C 0 km/h
3073 22-06-2003 06:20:25 12.4 C 8.41 g/m*3 12.4 C 0 km/h
3074 22-06-2003 06:42:25 12.8 C 8.51 g/m*3 12.8 C 0 km/h
3075 22-06-2003 07:04:25 13.1 C 8.44 g/m*3 13.1 C 0 km/h
Sensor: Nr:Datum:Temp:Abs-Feuchte:Windchill:Wind:
Aussen-T/F 3076 22-06-2003 07:26:25 13 C 8.62 g/m*3 13 C 0 km/h
3077 22-06-2003 07:48:25 13.9 C 8.75 g/m*3 13.9 C 0 km/h
3078 22-06-2003 08:10:25 14.3 C 8.85 g/m*3 14.3 C 0 km/h
3079 22-06-2003 08:32:25 14.7 C 9.07 g/m*3 14.7 C 0 km/h
3080 22-06-2003 08:54:25 15.5 C 9.25 g/m*3 15.5 C 0 km/h
3081 22-06-2003 09:16:25 17 C 9.55 g/m*3 17 C 0 km/h
3082 22-06-2003 09:38:25 18.6 C 9.55 g/m*3 18.6 C 0 km/h
3083 22-06-2003 10:00:25 19.9 C 9.79 g/m*3 19.9 C 0 km/h
3084 22-06-2003 10:22:25 20.9 C 8.56 g/m*3 20.9 C 0 km/h
3085 22-06-2003 10:44:25 22.3 C 8.89 g/m*3 22.3 C 0 km/h
3086 22-06-2003 11:06:25 23.2 C 7.9 g/m*3 23.2 C 0 km/h
3087 22-06-2003 11:28:25 24 C 8.05 g/m*3 24 C 0 km/h
3088 22-06-2003 11:50:25 25.2 C 7.92 g/m*3 25.2 C 0 km/h
3089 22-06-2003 12:12:25 26.8 C 7.89 g/m*3 26.8 C 0 km/h
3090 22-06-2003 12:34:25 27.2 C 7.29 g/m*3 27.2 C 0 km/h
3091 22-06-2003 12:56:25 28.7 C 7.63 g/m*3 28.7 C 0 km/h
3092 22-06-2003 13:18:25 30 C 7.58 g/m*3 30 C 0 km/h
3093 22-06-2003 13:40:25 30.1 C 7.62 g/m*3 30.1 C 0 km/h
3094 22-06-2003 14:02:25 30.2 C 8.28 g/m*3 30.2 C 0 km/h
3095 22-06-2003 14:24:25 30.2 C 8.28 g/m*3 30.2 C 0 km/h
3096 22-06-2003 14:46:25 30.1 C 8.84 g/m*3 30.1 C 0 km/h
3097 22-06-2003 15:08:25 30.4 C 9.3 g/m*3 30.4 C 0 km/h
3098 22-06-2003 15:30:25 31.4 C 8.17 g/m*3 31.4 C 0 km/h
3099 22-06-2003 15:52:25 31.7 C 6.98 g/m*3 31.7 C 0 km/h
3100 22-06-2003 16:14:25 31.8 C 7.68 g/m*3 31.8 C 0 km/h
Sensor: Nr:Datum:Temp:Abs-Feuchte:Windchill:Wind:
Aussen-T/F 3101 22-06-2003 16:36:25 32.4 C 7.93 g/m*3 32.4 C 0 km/h
3102 22-06-2003 16:58:25 32.4 C 7.59 g/m*3 32.4 C 0 km/h
3103 22-06-2003 17:20:25 32.1 C 7.81 g/m*3 32.1 C 0 km/h
3104 22-06-2003 17:42:25 31.8 C 10.02 g/m*3 31.8 C 0 km/h
3105 22-06-2003 18:04:25 32.6 C 8.71 g/m*3 32.6 C 0 km/h
3106 22-06-2003 18:26:25 33.3 C 7.96 g/m*3 33.3 C 0 km/h
3107 22-06-2003 18:48:25 32.9 C 7.44 g/m*3 32.9 C 0 km/h
3108 22-06-2003 19:10:25 32.7 C 9.81 g/m*3 32.7 C 0 km/h
3109 22-06-2003 19:32:25 30.7 C 10.71 g/m*3 30.7 C 0 km/h
3110 22-06-2003 19:54:25 29.8 C 11.1 g/m*3 29.8 C 0 km/h
3111 22-06-2003 20:16:25 28.5 C 10.06 g/m*3 28.5 C 0 km/h
3112 22-06-2003 20:38:25 29.2 C 9.87 g/m*3 29.2 C 0 km/h
3113 22-06-2003 21:00:25 28.5 C 10.9 g/m*3 28.5 C 0 km/h
3114 22-06-2003 21:22:25 26.7 C 10.88 g/m*3 26.7 C 0 km/h
3115 22-06-2003 21:44:25 25.9 C 10.41 g/m*3 25.9 C 0 km/h
3116 22-06-2003 22:06:25 24.7 C 10.41 g/m*3 24.7 C 0 km/h
3117 22-06-2003 22:28:25 23.9 C 10.38 g/m*3 23.9 C 0 km/h
3118 22-06-2003 22:50:25 23.5 C 10.36 g/m*3 23.5 C 0 km/h
3119 22-06-2003 23:12:25 22.9 C 10.22 g/m*3 22.9 C 0 km/h
3120 22-06-2003 23:34:25 22.5 C 10.19 g/m*3 22.5 C 0 km/h
3121 22-06-2003 23:56:25 22.3 C 9.87 g/m*3 22.3 C 0 km/h
3122 23-06-2003 00:18:25 21.7 C 10.11 g/m*3 21.7 C 0 km/h
3123 23-06-2003 00:40:25 21.3 C 10.25 g/m*3 21.3 C 0 km/h
3124 23-06-2003 01:02:25 20.8 C 10.5 g/m*3 20.8 C 0 km/h
3125 23-06-2003 01:24:25 20.4 C 10.61 g/m*3 20.4 C 0 km/h
Sensor: Nr:Datum:Temp:Abs-Feuchte:Windchill:Wind:
Aussen-T/F 3126 23-06-2003 01:46:25 20 C 10.71 g/m*3 20 C 0 km/h
3127 23-06-2003 02:08:25 19.5 C 10.91 g/m*3 19.5 C 0 km/h
3128 23-06-2003 02:30:25 19 C 10.59 g/m*3 19 C 0 km/h
3129 23-06-2003 02:52:25 18.5 C 10.92 g/m*3 18.5 C 0 km/h
3130 23-06-2003 03:14:25 18.1 C 10.97 g/m*3 18.1 C 0 km/h
3131 23-06-2003 03:36:25 17.9 C 10.99 g/m*3 17.9 C 0 km/h
3132 23-06-2003 03:58:25 17.5 C 11.03 g/m*3 17.5 C 0 km/h
3133 23-06-2003 04:20:25 17.1 C 10.92 g/m*3 17.1 C 0 km/h
3134 23-06-2003 04:42:25 16.9 C 10.93 g/m*3 16.9 C 0 km/h
3135 23-06-2003 05:04:25 16.7 C 10.8 g/m*3 16.7 C 0 km/h
3136 23-06-2003 05:26:25 16.7 C 11.08 g/m*3 16.7 C 0 km/h
3137 23-06-2003 05:48:25 16.5 C 10.95 g/m*3 16.5 C 0 km/h
3138 23-06-2003 06:10:25 16.6 C 11.02 g/m*3 16.6 C 0 km/h
3139 23-06-2003 06:32:25 16.9 C 11.22 g/m*3 16.9 C 0 km/h
3140 23-06-2003 06:54:25 18.3 C 10.79 g/m*3 18.3 C 0 km/h
3141 23-06-2003 07:16:25 20.4 C 10.26 g/m*3 20.4 C 0 km/h
3142 23-06-2003 07:38:25 20.2 C 11.02 g/m*3 20.2 C 0 km/h
3143 23-06-2003 08:00:25 19.5 C 11.58 g/m*3 19.5 C 0 km/h
3144 23-06-2003 08:22:25 19.9 C 11.85 g/m*3 19.9 C 0 km/h
3145 23-06-2003 08:44:25 21.2 C 10.56 g/m*3 21.2 C 0 km/h
3146 23-06-2003 09:06:25 22.2 C 10.41 g/m*3 22.2 C 0 km/h
3147 23-06-2003 09:28:25 23 C 10.69 g/m*3 23 C 0 km/h
3148 23-06-2003 09:50:25 24.7 C 10.64 g/m*3 24.7 C 0 km/h
3149 23-06-2003 10:12:25 24.8 C 10.7 g/m*3 24.8 C 0 km/h
3150 23-06-2003 10:34:25 24.9 C 11.45 g/m*3 24.9 C 0 km/h
Sensor: Nr:Datum:Temp:Abs-Feuchte:Windchill:Wind:
Aussen-T/F 3151 23-06-2003 10:56:25 25.5 C 11.13 g/m*3 25.5 C 0 km/h
3152 23-06-2003 11:18:25 27.1 C 11.65 g/m*3 27.1 C 0 km/h
3153 23-06-2003 11:40:25 28.6 C 11.8 g/m*3 28.6 C 0 km/h
3154 23-06-2003 12:02:25 28.1 C 12.85 g/m*3 28.1 C 0 km/h
3155 23-06-2003 12:24:25 28.9 C 12 g/m*3 28.9 C 0 km/h
3156 23-06-2003 12:46:25 28.7 C 12.15 g/m*3 28.7 C 0 km/h
3157 23-06-2003 13:08:25 30.2 C 11.96 g/m*3 30.2 C 0 km/h
3158 23-06-2003 13:30:25 29.2 C 11.91 g/m*3 29.2 C 0 km/h
3159 23-06-2003 13:52:25 30.7 C 11.34 g/m*3 30.7 C 0 km/h
3160 23-06-2003 14:14:25 30.7 C 11.34 g/m*3 30.7 C 0 km/h
3161 23-06-2003 14:36:25 31 C 11.2 g/m*3 31 C 0 km/h
3162 23-06-2003 14:58:25 30.6 C 10.96 g/m*3 30.6 C 0 km/h
3163 23-06-2003 15:20:25 30.3 C 9.86 g/m*3 30.3 C 0 km/h
3164 23-06-2003 15:42:25 29.5 C 10.03 g/m*3 29.5 C 0 km/h
3165 23-06-2003 16:04:25 28.6 C 10.4 g/m*3 28.6 C 0 km/h
3166 23-06-2003 16:26:25 28.2 C 11 g/m*3 28.2 C 0 km/h
3167 23-06-2003 16:48:25 28.2 C 11.27 g/m*3 28.2 C 0 km/h
3168 23-06-2003 17:10:25 28.6 C 11.24 g/m*3 28.6 C 0 km/h
3169 23-06-2003 17:32:25 28.2 C 11.27 g/m*3 28.2 C 0 km/h
3170 23-06-2003 17:54:25 28 C 11.69 g/m*3 28 C 0 km/h
3171 23-06-2003 18:16:25 28.3 C 11.89 g/m*3 28.3 C 0 km/h
3172 23-06-2003 18:38:25 28.2 C 12.1 g/m*3 28.2 C 0 km/h
3173 23-06-2003 19:00:25 28.1 C 12.3 g/m*3 28.1 C 0 km/h
3174 23-06-2003 19:22:25 27.1 C 11.39 g/m*3 27.1 C 0 km/h
3175 23-06-2003 19:44:25 27.9 C 11.36 g/m*3 27.9 C 0 km/h
Sensor: Nr:Datum:Temp:Abs-Feuchte:Windchill:Wind:
Aussen-T/F 3176 23-06-2003 20:06:25 27 C 10.29 g/m*3 27 C 0 km/h
3177 23-06-2003 20:28:25 26.8 C 10.18 g/m*3 26.8 C 0 km/h
3178 23-06-2003 20:50:25 26.1 C 8.81 g/m*3 26.1 C 0 km/h
3179 23-06-2003 21:12:25 25.2 C 8.85 g/m*3 25.2 C 0 km/h
3180 23-06-2003 21:34:25 24.4 C 8.9 g/m*3 24.4 C 0 km/h
3181 23-06-2003 21:56:25 23.3 C 9.2 g/m*3 23.3 C 0 km/h
3182 23-06-2003 22:18:25 22.6 C 9.04 g/m*3 22.6 C 0 km/h
3183 23-06-2003 23:02:25 21.6 C 8.91 g/m*3 21.6 C 0 km/h
3184 23-06-2003 23:24:25 21.1 C 8.84 g/m*3 21.1 C 0 km/h
3185 23-06-2003 23:46:25 20.8 C 9.23 g/m*3 20.8 C 0 km/h
3186 24-06-2003 00:08:25 20.3 C 9.15 g/m*3 20.3 C 0 km/h
3187 24-06-2003 00:30:25 19.6 C 9.12 g/m*3 19.6 C 0 km/h
3188 24-06-2003 00:52:25 19.4 C 9.34 g/m*3 19.4 C 0 km/h
3189 24-06-2003 01:14:25 19 C 9.45 g/m*3 19 C 0 km/h
3190 24-06-2003 01:36:25 18.5 C 9.49 g/m*3 18.5 C 0 km/h
3191 24-06-2003 01:58:25 18.1 C 9.73 g/m*3 18.1 C 0 km/h
3192 24-06-2003 02:20:25 17.6 C 9.75 g/m*3 17.6 C 0 km/h
3193 24-06-2003 02:42:25 17.2 C 9.81 g/m*3 17.2 C 0 km/h
3194 24-06-2003 03:04:25 16.8 C 9.87 g/m*3 16.8 C 0 km/h
3195 24-06-2003 03:26:25 16.2 C 10.07 g/m*3 16.2 C 0 km/h
3196 24-06-2003 03:48:25 15.7 C 10.03 g/m*3 15.7 C 0 km/h
3197 24-06-2003 04:10:25 15.4 C 9.85 g/m*3 15.4 C 0 km/h
3198 24-06-2003 04:32:25 15 C 9.87 g/m*3 15 C 0 km/h
3199 24-06-2003 04:54:25 14.5 C 9.95 g/m*3 14.5 C 0 km/h
3200 24-06-2003 05:16:25 14.2 C 10.01 g/m*3 14.2 C 0 km/h
Sensor: Nr:Datum:Temp:Abs-Feuchte:Windchill:Wind:
Aussen-T/F 3201 24-06-2003 05:38:25 14 C 9.89 g/m*3 14 C 0 km/h
3202 24-06-2003 06:00:25 14 C 9.89 g/m*3 14 C 0 km/h
3203 24-06-2003 06:22:25 14.1 C 9.83 g/m*3 14.1 C 0 km/h
3204 24-06-2003 06:44:25 14.3 C 9.95 g/m*3 14.3 C 0 km/h
3205 24-06-2003 07:06:25 14.6 C 10.01 g/m*3 14.6 C 0 km/h
3206 24-06-2003 07:28:25 15 C 10 g/m*3 15 C 0 km/h
3207 24-06-2003 07:50:25 15.4 C 10.25 g/m*3 15.4 C 0 km/h
3208 24-06-2003 08:12:25 15.8 C 10.36 g/m*3 15.8 C 0 km/h
3209 24-06-2003 08:34:25 16.4 C 10.19 g/m*3 16.4 C 0 km/h
3210 24-06-2003 08:56:25 17.2 C 10.4 g/m*3 17.2 C 0 km/h
3211 24-06-2003 09:18:25 17.9 C 10.38 g/m*3 17.9 C 0 km/h
3212 24-06-2003 09:40:25 19.1 C 10.33 g/m*3 19.1 C 0 km/h
3213 24-06-2003 10:02:25 20.8 C 10.5 g/m*3 20.8 C 0 km/h
3214 24-06-2003 10:24:25 21.4 C 9.56 g/m*3 21.4 C 0 km/h
3215 24-06-2003 10:46:25 22 C 9.7 g/m*3 22 C 0 km/h
3216 24-06-2003 11:08:25 23.6 C 9.57 g/m*3 23.6 C 0 km/h
3217 24-06-2003 11:30:25 23.2 C 9.36 g/m*3 23.2 C 0 km/h
3218 24-06-2003 11:52:25 25.2 C 9.54 g/m*3 25.2 C 0 km/h
3219 24-06-2003 12:14:25 26.4 C 9.46 g/m*3 26.4 C 0 km/h
3220 24-06-2003 12:36:25 26.3 C 8.91 g/m*3 26.3 C 0 km/h
3221 24-06-2003 12:58:25 27.8 C 9.41 g/m*3 27.8 C 0 km/h
3222 24-06-2003 13:20:25 26.9 C 8.19 g/m*3 26.9 C 0 km/h
3223 24-06-2003 13:42:25 29.1 C 7.8 g/m*3 29.1 C 0 km/h
3224 24-06-2003 14:04:25 28.1 C 8.48 g/m*3 28.1 C 0 km/h
3225 24-06-2003 14:26:25 29.4 C 8.51 g/m*3 29.4 C 0 km/h
Sensor: Nr:Datum:Temp:Abs-Feuchte:Windchill: